Provisional Data: Moose Creek near Plymptonville, PA


Please select a monitoring station.
Please select start date.
Please select start date.

Toggle Unit: C/F Toggle Unit: C/F
Sample Time Temperature (C) Temperature (F) Specific Conductivity (mS/cm) pH   Turbidity (NTU+) DO (mg/L)
4/13/2022 12:00:00 AM 7.53 45.554 0.104 6.37 1.93 11.76
4/13/2022 12:15:00 AM 7.5 45.5 0.104 6.36 1.98 11.77
4/13/2022 12:30:00 AM 7.47 45.446 0.104 6.36 1.91 11.78
4/13/2022 12:45:00 AM 7.44 45.392 0.104 6.36 1.91 11.8
4/13/2022 1:00:00 AM 7.41 45.338 0.104 6.36 1.94 11.8
4/13/2022 1:15:00 AM 7.38 45.284 0.104 6.35 1.96 11.81
4/13/2022 1:30:00 AM 7.36 45.248 0.104 6.35 1.99 11.82
4/13/2022 1:45:00 AM 7.34 45.212 0.104 6.35 1.93 11.83
4/13/2022 2:00:00 AM 7.31 45.158 0.104 6.36 1.92 11.84
4/13/2022 2:15:00 AM 7.29 45.122 0.103 6.35 1.92 11.84
4/13/2022 2:30:00 AM 7.27 45.086 0.103 6.35 1.91 11.84
4/13/2022 2:45:00 AM 7.24 45.032 0.103 6.35 1.95 11.85
4/13/2022 3:00:00 AM 7.22 44.996 0.103 6.34 1.88 11.85
4/13/2022 3:15:00 AM 7.2 44.96 0.103 6.35 1.83 11.86
4/13/2022 3:30:00 AM 7.18 44.924 0.103 6.34 1.85 11.86
4/13/2022 3:45:00 AM 7.17 44.906 0.103 6.33 1.83 11.87
4/13/2022 4:00:00 AM 7.15 44.87 0.103 6.35 1.93 11.87
4/13/2022 4:15:00 AM 7.14 44.852 0.103 6.33 2 11.87
4/13/2022 4:30:00 AM 7.13 44.834 0.103 6.35 1.9 11.88
4/13/2022 4:45:00 AM 7.14 44.852 0.103 6.34 1.84 11.88
4/13/2022 5:00:00 AM 7.15 44.87 0.103 6.34 1.88 11.88
4/13/2022 5:15:00 AM 7.17 44.906 0.102 6.34 1.85 11.87
4/13/2022 5:30:00 AM 7.19 44.942 0.102 6.34 1.85 11.87
4/13/2022 5:45:00 AM 7.2 44.96 0.102 6.33 1.85 11.87
4/13/2022 6:00:00 AM 7.22 44.996 0.102 6.34 1.86 11.86
4/13/2022 6:15:00 AM 7.24 45.032 0.102 6.31 1.81 11.85
4/13/2022 6:30:00 AM 7.25 45.05 0.102 6.33 1.83 11.85
4/13/2022 6:45:00 AM 7.26 45.068 0.102 6.33 1.8 11.84
4/13/2022 7:00:00 AM 7.27 45.086 0.102 6.32 1.83 11.84
4/13/2022 7:15:00 AM 7.27 45.086 0.102 6.32 1.79 11.84
4/13/2022 7:30:00 AM 7.28 45.104 0.102 6.33 1.79 11.84
4/13/2022 7:45:00 AM 7.31 45.158 0.102 6.32 1.77 11.83
4/13/2022 8:00:00 AM 7.34 45.212 0.101 6.33 1.76 11.82
4/13/2022 8:15:00 AM 7.38 45.284 0.101 6.34 1.78 11.81
4/13/2022 8:30:00 AM 7.44 45.392 0.101 6.35 1.76 11.79
4/13/2022 8:45:00 AM 7.48 45.464 0.101 6.35 1.87 11.78
4/13/2022 9:00:00 AM 7.52 45.536 0.101 6.35 1.88 11.77
4/13/2022 9:15:00 AM 7.56 45.608 0.101 6.35 1.9 11.75
4/13/2022 9:30:00 AM 7.63 45.734 0.101 6.36 1.83 11.73
4/13/2022 9:45:00 AM 7.74 45.932 0.101 6.37 1.83 11.71
4/13/2022 10:00:00 AM 7.87 46.166 0.101 6.37 2.06 11.68
4/13/2022 10:15:00 AM 7.97 46.346 0.1 6.37 1.79 11.64
4/13/2022 10:30:00 AM 8.12 46.616 0.1 6.38 1.79 11.6
4/13/2022 10:45:00 AM 8.27 46.886 0.1 6.38 1.94 11.55
4/13/2022 11:00:00 AM 8.41 47.138 0.1 6.39 1.83 11.51
4/13/2022 11:15:00 AM 8.57 47.426 0.1 6.39 1.9 11.47
4/13/2022 11:30:00 AM 8.73 47.714 0.1 6.38 1.83 11.41
4/13/2022 11:45:00 AM 8.85 47.93 0.1 6.39 1.78 11.37
4/13/2022 12:00:00 PM 8.95 48.11 0.099 6.39 1.91 11.35
4/13/2022 12:15:00 PM 8.97 48.146 0.099 6.4 1.85 11.32
4/13/2022 12:30:00 PM 8.91 48.038 0.099 6.37 1.9 11.33
4/13/2022 12:45:00 PM 8.9 48.02 0.099 6.37 1.95 11.35
4/13/2022 1:00:00 PM 8.94 48.092 0.099 6.37 1.94 11.34
4/13/2022 1:15:00 PM 9.01 48.218 0.099 6.39 1.86 11.31
4/13/2022 1:30:00 PM 9.1 48.38 0.099 6.39 1.88 11.28
4/13/2022 1:45:00 PM 9.17 48.506 0.099 6.4 1.89 11.27
4/13/2022 2:00:00 PM 9.23 48.614 0.099 6.4 1.87 11.25
4/13/2022 2:15:00 PM 9.26 48.668 0.099 6.4 1.91 11.23
4/13/2022 2:30:00 PM 9.3 48.74 0.099 6.4 1.9 11.22
4/13/2022 2:45:00 PM 9.35 48.83 0.098 6.39 1.83 11.2
4/13/2022 3:00:00 PM 9.41 48.938 0.098 6.41 1.88 11.18
4/13/2022 3:15:00 PM 9.47 49.046 0.098 6.41 1.89 11.16
4/13/2022 3:30:00 PM 9.56 49.208 0.098 6.41 1.92 11.13
4/13/2022 3:45:00 PM 9.66 49.388 0.098 6.41 1.97 11.1
4/13/2022 4:00:00 PM 9.74 49.532 0.098 6.41 1.92 11.08
4/13/2022 4:15:00 PM 9.75 49.55 0.098 6.41 1.94 11.07
4/13/2022 4:30:00 PM 9.75 49.55 0.098 6.41 1.86 11.06
4/13/2022 4:45:00 PM 9.75 49.55 0.098 6.41 2 11.06
4/13/2022 5:00:00 PM 9.71 49.478 0.098 6.41 1.97 11.06
4/13/2022 5:15:00 PM 9.65 49.37 0.098 6.4 1.97 11.08
4/13/2022 5:30:00 PM 9.64 49.352 0.097 6.38 2.11 11.09
4/13/2022 5:45:00 PM 9.6 49.28 0.097 6.4 1.9 11.08
4/13/2022 6:00:00 PM 9.55 49.19 0.097 6.37 1.97 11.1
4/13/2022 6:15:00 PM 9.53 49.154 0.097 6.36 1.92 11.1
4/13/2022 6:30:00 PM 9.5 49.1 0.097 6.37 1.98 11.11
4/13/2022 6:45:00 PM 9.47 49.046 0.097 6.37 1.94 11.11
4/13/2022 7:00:00 PM 9.43 48.974 0.097 6.37 1.96 11.11
4/13/2022 7:15:00 PM 9.38 48.884 0.097 6.34 1.95 11.13
4/13/2022 7:30:00 PM 9.33 48.794 0.097 6.36 1.93 11.14
4/13/2022 7:45:00 PM 9.28 48.704 0.097 6.35 1.89 11.16
4/13/2022 8:00:00 PM 9.23 48.614 0.097 6.34 1.93 11.17
4/13/2022 8:15:00 PM 9.2 48.56 0.096 6.34 1.91 11.18
4/13/2022 8:30:00 PM 9.18 48.524 0.096 6.34 1.96 11.19
4/13/2022 8:45:00 PM 9.17 48.506 0.096 6.34 1.93 11.2
4/13/2022 9:00:00 PM 9.16 48.488 0.096 6.34 1.95 11.19
4/13/2022 9:15:00 PM 9.14 48.452 0.096 6.34 1.92 11.2
4/13/2022 9:30:00 PM 9.13 48.434 0.096 6.34 2.04 11.2
4/13/2022 9:45:00 PM 9.11 48.398 0.096 6.34 1.94 11.21
4/13/2022 10:00:00 PM 9.08 48.344 0.096 6.33 1.98 11.21
4/13/2022 10:15:00 PM 9.04 48.272 0.096 6.32 1.94 11.22
4/13/2022 10:30:00 PM 9 48.2 0.096 6.33 1.91 11.22
4/13/2022 10:45:00 PM 8.97 48.146 0.096 6.33 1.96 11.23
4/13/2022 11:00:00 PM 8.94 48.092 0.096 6.33 1.97 11.24
4/13/2022 11:15:00 PM 8.92 48.056 0.095 6.33 1.95 11.24
4/13/2022 11:30:00 PM 8.9 48.02 0.095 6.33 1.96 11.25
4/13/2022 11:45:00 PM 8.88 47.984 0.095 6.32 1.93 11.26
4/14/2022 12:00:00 AM 8.86 47.948 0.095 6.33 1.99 11.26
4/14/2022 12:15:00 AM 8.83 47.894 0.095 6.33 1.97 11.27
4/14/2022 12:30:00 AM 8.8 47.84 0.095 6.32 1.93 11.28
4/14/2022 12:45:00 AM 8.78 47.804 0.095 6.33 1.91 11.28
4/14/2022 1:00:00 AM 8.77 47.786 0.095 6.33 1.94 11.29
4/14/2022 1:15:00 AM 8.77 47.786 0.095 6.32 2.02 11.29
4/14/2022 1:30:00 AM 8.76 47.768 0.094 6.33 1.94 11.29
4/14/2022 1:45:00 AM 8.75 47.75 0.094 6.34 2 11.3
4/14/2022 2:00:00 AM 8.73 47.714 0.094 6.33 1.94 11.3
4/14/2022 2:15:00 AM 8.71 47.678 0.094 6.32 2 11.3
4/14/2022 2:30:00 AM 8.69 47.642 0.094 6.33 1.99 11.31
4/14/2022 2:45:00 AM 8.68 47.624 0.094 6.33 2.06 11.31
4/14/2022 3:00:00 AM 8.67 47.606 0.094 6.33 2.07 11.31
4/14/2022 3:15:00 AM 8.66 47.588 0.094 6.32 1.95 11.31
4/14/2022 3:30:00 AM 8.64 47.552 0.094 6.32 2.03 11.32
4/14/2022 3:45:00 AM 8.61 47.498 0.094 6.32 1.94 11.32
4/14/2022 4:00:00 AM 8.6 47.48 0.093 6.32 1.95 11.33
4/14/2022 4:15:00 AM 8.59 47.462 0.093 6.32 2.1 11.33
4/14/2022 4:30:00 AM 8.61 47.498 0.093 6.33 1.96 11.33
4/14/2022 4:45:00 AM 8.66 47.588 0.093 6.34 1.87 11.31
4/14/2022 5:00:00 AM 8.7 47.66 0.093 6.35 2 11.3
4/14/2022 5:15:00 AM 8.71 47.678 0.093 6.34 1.95 11.29
4/14/2022 5:30:00 AM 8.71 47.678 0.093 6.34 2.15 11.29
4/14/2022 5:45:00 AM 8.71 47.678 0.093 6.34 2.04 11.29
4/14/2022 6:00:00 AM 8.69 47.642 0.093 6.34 2 11.29
4/14/2022 6:15:00 AM 8.68 47.624 0.093 6.33 1.98 11.3
4/14/2022 6:30:00 AM 8.68 47.624 0.092 6.33 1.9 11.3
4/14/2022 6:45:00 AM 8.7 47.66 0.092 6.34 1.98 11.3
4/14/2022 7:00:00 AM 8.7 47.66 0.092 6.34 1.89 11.3
4/14/2022 7:15:00 AM 8.7 47.66 0.092 6.34 2 11.3
4/14/2022 7:30:00 AM 8.71 47.678 0.092 6.33 1.98 11.31
4/14/2022 7:45:00 AM 8.74 47.732 0.092 6.34 2 11.3
4/14/2022 8:00:00 AM 8.79 47.822 0.092 6.35 2.08 11.29
4/14/2022 8:15:00 AM 8.86 47.948 0.092 6.35 1.9 11.28
4/14/2022 8:30:00 AM 8.95 48.11 0.092 6.35 2.04 11.26
4/14/2022 8:45:00 AM 9.04 48.272 0.092 6.36 2.04 11.23
4/14/2022 9:00:00 AM 9.13 48.434 0.092 6.36 1.95 11.21
4/14/2022 9:15:00 AM 9.2 48.56 0.091 6.36 2.02 11.2
4/14/2022 9:30:00 AM 9.27 48.686 0.091 6.36 1.94 11.17
4/14/2022 9:45:00 AM 9.31 48.758 0.091 6.36 1.94 11.16
4/14/2022 10:00:00 AM 9.35 48.83 0.091 6.36 1.92 11.15
4/14/2022 10:15:00 AM 9.39 48.902 0.091 6.36 1.97 11.13
4/14/2022 10:30:00 AM 9.45 49.01 0.091 6.36 1.92 11.12
4/14/2022 10:45:00 AM 9.48 49.064 0.091 6.36 2.04 11.1
4/14/2022 11:00:00 AM 9.49 49.082 0.091 6.36 1.96 11.1
4/14/2022 11:15:00 AM 9.5 49.1 0.091 6.35 1.98 11.11
4/14/2022 11:30:00 AM 9.49 49.082 0.09 6.35 2.08 11.11
4/14/2022 11:45:00 AM 9.48 49.064 0.09 6.35 2.05 11.13
4/14/2022 12:00:00 PM 9.48 49.064 0.09 6.36 2.08 11.13
4/14/2022 12:15:00 PM 9.48 49.064 0.09 6.36 2.17 11.14
4/14/2022 12:30:00 PM 9.43 48.974 0.09 6.36 2.17 11.15
4/14/2022 12:45:00 PM 9.38 48.884 0.09 6.36 2.11 11.17
4/14/2022 1:00:00 PM 9.32 48.776 0.09 6.36 2.25 11.19
4/14/2022 1:15:00 PM 9.29 48.722 0.09 6.36 2.08 11.21
4/14/2022 1:30:00 PM 9.28 48.704 0.09 6.36 2.06 11.22
4/14/2022 1:45:00 PM 9.26 48.668 0.09 6.36 2.08 11.22
4/14/2022 2:00:00 PM 9.27 48.686 0.091 6.36 2.05 11.23
4/14/2022 2:15:00 PM 9.38 48.884 0.091 6.36 2.11 11.2
4/14/2022 2:30:00 PM 9.5 49.1 0.091 6.37 2.03 11.18
4/14/2022 2:45:00 PM 9.58 49.244 0.091 6.37 2.02 11.15
4/14/2022 3:00:00 PM 9.6 49.28 0.091 6.37 2.06 11.14
4/14/2022 3:15:00 PM 9.54 49.172 0.09 6.37 2.04 11.15
4/14/2022 3:30:00 PM 9.51 49.118 0.09 6.37 1.97 11.16
4/14/2022 3:45:00 PM 9.48 49.064 0.09 6.36 1.97 11.16
4/14/2022 4:00:00 PM 9.51 49.118 0.09 6.36 2.02 11.16
4/14/2022 4:15:00 PM 9.52 49.136 0.09 6.36 2.06 11.14
4/14/2022 4:30:00 PM 9.51 49.118 0.09 6.37 1.97 11.15
4/14/2022 4:45:00 PM 9.47 49.046 0.09 6.36 2.02 11.16
4/14/2022 5:00:00 PM 9.39 48.902 0.09 6.36 1.97 11.18
4/14/2022 5:15:00 PM 9.31 48.758 0.09 6.36 2.05 11.21
4/14/2022 5:30:00 PM 9.26 48.668 0.09 6.36 2.29 11.22
4/14/2022 5:45:00 PM 9.21 48.578 0.09 6.34 1.96 11.24
4/14/2022 6:00:00 PM 9.11 48.398 0.09 6.35 1.93 11.26
4/14/2022 6:15:00 PM 9.03 48.254 0.09 6.35 1.98 11.28
4/14/2022 6:30:00 PM 8.94 48.092 0.09 6.34 1.91 11.31
4/14/2022 6:45:00 PM 8.86 47.948 0.09 6.34 1.96 11.33
4/14/2022 7:00:00 PM 8.78 47.804 0.09 6.34 1.9 11.35
4/14/2022 7:15:00 PM 8.72 47.696 0.089 6.34 1.9 11.37
4/14/2022 7:30:00 PM 8.66 47.588 0.089 6.33 1.91 11.39
4/14/2022 7:45:00 PM 8.59 47.462 0.089 6.33 1.88 11.41
4/14/2022 8:00:00 PM 8.52 47.336 0.089 6.32 1.87 11.43
4/14/2022 8:15:00 PM 8.45 47.21 0.089 6.32 1.88 11.46
4/14/2022 8:30:00 PM 8.37 47.066 0.089 6.32 1.92 11.48
4/14/2022 8:45:00 PM 8.3 46.94 0.089 6.31 1.96 11.5
4/14/2022 9:00:00 PM 8.21 46.778 0.089 6.31 1.97 11.52
4/14/2022 9:15:00 PM 8.13 46.634 0.089 6.31 1.94 11.55
4/14/2022 9:30:00 PM 8.06 46.508 0.089 6.3 2.03 11.57
4/14/2022 9:45:00 PM 7.98 46.364 0.089 6.3 1.88 11.6
4/14/2022 10:00:00 PM 7.91 46.238 0.089 6.3 1.9 11.62
4/14/2022 10:15:00 PM 7.84 46.112 0.089 6.3 2.08 11.65
4/14/2022 10:30:00 PM 7.77 45.986 0.089 6.3 1.85 11.67
4/14/2022 10:45:00 PM 7.7 45.86 0.088 6.29 1.91 11.69
4/14/2022 11:00:00 PM 7.64 45.752 0.088 6.29 1.93 11.71
4/14/2022 11:15:00 PM 7.59 45.662 0.088 6.29 1.91 11.72
4/14/2022 11:30:00 PM 7.55 45.59 0.088 6.29 1.85 11.73
4/14/2022 11:45:00 PM 7.5 45.5 0.088 6.29 1.92 11.75
4/15/2022 12:00:00 AM 7.46 45.428 0.088 6.29 1.89 11.77
4/15/2022 12:15:00 AM 7.43 45.374 0.088 6.29 1.82 11.78
4/15/2022 12:30:00 AM 7.39 45.302 0.088 6.29 1.82 11.79
4/15/2022 12:45:00 AM 7.35 45.23 0.088 6.29 1.9 11.81
4/15/2022 1:00:00 AM 7.31 45.158 0.088 6.28 1.79 11.82
4/15/2022 1:15:00 AM 7.27 45.086 0.088 6.28 1.77 11.83
4/15/2022 1:30:00 AM 7.23 45.014 0.088 6.28 1.84 11.85
4/15/2022 1:45:00 AM 7.19 44.942 0.088 6.28 1.84 11.86
4/15/2022 2:00:00 AM 7.16 44.888 0.087 6.28 1.82 11.87
4/15/2022 2:15:00 AM 7.12 44.816 0.087 6.28 1.81 11.88
4/15/2022 2:30:00 AM 7.09 44.762 0.087 6.27 1.82 11.89
4/15/2022 2:45:00 AM 7.06 44.708 0.088 6.28 1.77 11.9
4/15/2022 3:00:00 AM 7.03 44.654 0.088 6.27 1.86 11.91
4/15/2022 3:15:00 AM 7 44.6 0.087 6.27 1.8 11.92
4/15/2022 3:30:00 AM 6.97 44.546 0.087 6.27 1.76 11.93
4/15/2022 3:45:00 AM 6.93 44.474 0.087 6.27 1.81 11.95
4/15/2022 4:00:00 AM 6.89 44.402 0.087 6.27 1.7 11.96
4/15/2022 4:15:00 AM 6.86 44.348 0.087 6.27 1.7 11.97
4/15/2022 4:30:00 AM 6.82 44.276 0.087 6.27 1.7 11.98
4/15/2022 4:45:00 AM 6.79 44.222 0.087 6.27 1.74 12
4/15/2022 5:00:00 AM 6.76 44.168 0.087 6.23 1.8 12.01
4/15/2022 5:15:00 AM 6.73 44.114 0.087 6.21 1.74 12.02
4/15/2022 5:30:00 AM 6.7 44.06 0.087 6.22 1.74 12.03
4/15/2022 5:45:00 AM 6.66 43.988 0.087 6.21 1.73 12.04
4/15/2022 6:00:00 AM 6.63 43.934 0.087 6.22 1.66 12.06
4/15/2022 6:15:00 AM 6.6 43.88 0.087 6.22 1.76 12.07
4/15/2022 6:30:00 AM 6.56 43.808 0.087 6.22 1.67 12.08
4/15/2022 6:45:00 AM 6.53 43.754 0.087 6.22 1.66 12.09
4/15/2022 7:00:00 AM 6.5 43.7 0.087 6.23 1.7 12.1
4/15/2022 7:15:00 AM 6.48 43.664 0.087 6.23 1.61 12.11
4/15/2022 7:30:00 AM 6.46 43.628 0.087 6.23 1.67 12.12
4/15/2022 7:45:00 AM 6.46 43.628 0.087 6.23 1.75 12.13
4/15/2022 8:00:00 AM 6.47 43.646 0.087 6.24 1.68 12.13
4/15/2022 8:15:00 AM 6.49 43.682 0.086 6.24 1.57 12.12
4/15/2022 8:30:00 AM 6.54 43.772 0.086 6.26 1.64 12.11
4/15/2022 8:45:00 AM 6.6 43.88 0.086 6.26 1.62 12.09
4/15/2022 9:00:00 AM 6.69 44.042 0.086 6.26 1.67 12.07
4/15/2022 9:15:00 AM 6.78 44.204 0.086 6.27 1.61 12.04
4/15/2022 9:30:00 AM 6.88 44.384 0.086 6.27 1.67 12
4/15/2022 9:45:00 AM 7 44.6 0.086 6.28 1.61 11.96
4/15/2022 10:00:00 AM 7.11 44.798 0.086 6.28 1.64 11.93
4/15/2022 10:15:00 AM 7.22 44.996 0.086 6.28 1.64 11.9
4/15/2022 10:30:00 AM 7.36 45.248 0.086 6.29 1.61 11.86
4/15/2022 10:45:00 AM 7.52 45.536 0.086 6.29 1.59 11.8
4/15/2022 11:00:00 AM 7.67 45.806 0.086 6.3 1.65 11.76
4/15/2022 11:15:00 AM 7.84 46.112 0.086 6.29 1.62 11.71
4/15/2022 11:30:00 AM 8.03 46.454 0.086 6.3 1.65 11.65
4/15/2022 11:45:00 AM 8.19 46.742 0.086 6.3 1.73 11.6
4/15/2022 12:00:00 PM 8.36 47.048 0.086 6.3 1.77 11.55
4/15/2022 12:15:00 PM 8.5 47.3 0.085 6.3 1.94 11.51
4/15/2022 12:30:00 PM 8.65 47.57 0.085 6.31 1.86 11.46
4/15/2022 12:45:00 PM 8.77 47.786 0.085 6.31 3.28 11.41
4/15/2022 1:00:00 PM 8.86 47.948 0.085 6.31 1.94 11.38
4/15/2022 1:15:00 PM 8.94 48.092 0.085 6.32 1.9 11.36
4/15/2022 1:30:00 PM 9.03 48.254 0.085 6.32 2.39 11.33
4/15/2022 1:45:00 PM 9.11 48.398 0.085 6.32 1.86 11.31
4/15/2022 2:00:00 PM 9.14 48.452 0.085 6.32 1.85 11.29
4/15/2022 2:15:00 PM 9.11 48.398 0.085 6.32 1.86 11.3
4/15/2022 2:30:00 PM 9.17 48.506 0.085 6.31 1.9 11.28
4/15/2022 2:45:00 PM 9.16 48.488 0.085 6.32 1.88 11.29
4/15/2022 3:00:00 PM 9.2 48.56 0.085 6.32 1.92 11.27
4/15/2022 3:15:00 PM 9.27 48.686 0.085 6.32 1.89 11.25
4/15/2022 3:30:00 PM 9.34 48.812 0.085 6.32 1.83 11.22
4/15/2022 3:45:00 PM 9.36 48.848 0.085 6.32 1.85 11.21
4/15/2022 4:00:00 PM 9.37 48.866 0.085 6.32 1.91 11.2
4/15/2022 4:15:00 PM 9.36 48.848 0.085 6.31 1.84 11.2
4/15/2022 4:30:00 PM 9.34 48.812 0.085 6.32 1.87 11.2
4/15/2022 4:45:00 PM 9.33 48.794 0.085 6.32 1.94 11.2
4/15/2022 5:00:00 PM 9.31 48.758 0.085 6.32 1.9 11.21
4/15/2022 5:15:00 PM 9.26 48.668 0.085 6.32 1.95 11.22
4/15/2022 5:30:00 PM 9.18 48.524 0.085 6.32 1.93 11.25
4/15/2022 5:45:00 PM 9.1 48.38 0.085 6.32 1.91 11.26
4/15/2022 6:00:00 PM 9.04 48.272 0.085 6.31 1.91 11.28
4/15/2022 6:15:00 PM 8.96 48.128 0.085 6.31 1.88 11.3
4/15/2022 6:30:00 PM 8.89 48.002 0.085 6.31 1.82 11.31
4/15/2022 6:45:00 PM 8.82 47.876 0.085 6.31 1.8 11.33
4/15/2022 7:00:00 PM 8.76 47.768 0.085 6.31 1.86 11.35
4/15/2022 7:15:00 PM 8.71 47.678 0.085 6.31 1.81 11.36
4/15/2022 7:30:00 PM 8.67 47.606 0.085 6.3 1.89 11.38
4/15/2022 7:45:00 PM 8.62 47.516 0.085 6.27 1.77 11.39
4/15/2022 8:00:00 PM 8.57 47.426 0.085 6.3 1.87 11.4
4/15/2022 8:15:00 PM 8.53 47.354 0.085 6.3 1.78 11.42
4/15/2022 8:30:00 PM 8.48 47.264 0.085 6.29 1.8 11.43
4/15/2022 8:45:00 PM 8.43 47.174 0.085 6.29 1.85 11.45
4/15/2022 9:00:00 PM 8.38 47.084 0.085 6.29 1.88 11.46
4/15/2022 9:15:00 PM 8.34 47.012 0.085 6.27 1.83 11.47
4/15/2022 9:30:00 PM 8.3 46.94 0.085 6.29 1.85 11.49
4/15/2022 9:45:00 PM 8.26 46.868 0.085 6.28 1.86 11.49
4/15/2022 10:00:00 PM 8.22 46.796 0.085 6.28 1.91 11.5
4/15/2022 10:15:00 PM 8.18 46.724 0.085 6.28 1.78 11.51
4/15/2022 10:30:00 PM 8.16 46.688 0.084 6.27 1.79 11.52
4/15/2022 10:45:00 PM 8.13 46.634 0.084 6.23 1.75 11.53
4/15/2022 11:00:00 PM 8.12 46.616 0.084 6.28 1.8 11.54
4/15/2022 11:15:00 PM 8.11 46.598 0.084 6.28 1.73 11.54
4/15/2022 11:30:00 PM 8.1 46.58 0.084 6.28 1.81 11.54
4/15/2022 11:45:00 PM 8.1 46.58 0.084 6.27 1.81 11.54
4/16/2022 12:00:00 AM 8.08 46.544 0.084 6.27 1.75 11.54
4/16/2022 12:15:00 AM 8.07 46.526 0.084 6.27 1.77 11.54
4/16/2022 12:30:00 AM 8.05 46.49 0.084 6.28 1.82 11.55
4/16/2022 12:45:00 AM 8.04 46.472 0.084 6.29 1.73 11.56
4/16/2022 1:00:00 AM 8.03 46.454 0.084 6.29 1.81 11.56
4/16/2022 1:15:00 AM 8.01 46.418 0.084 6.29 1.74 11.57
4/16/2022 1:30:00 AM 8 46.4 0.084 6.29 1.82 11.57
4/16/2022 1:45:00 AM 8 46.4 0.084 6.28 1.74 11.57
4/16/2022 2:00:00 AM 8 46.4 0.084 6.29 1.66 11.56
4/16/2022 2:15:00 AM 8 46.4 0.084 6.29 1.8 11.56
4/16/2022 2:30:00 AM 8 46.4 0.084 6.29 1.77 11.57
4/16/2022 2:45:00 AM 7.99 46.382 0.084 6.28 1.77 11.57
4/16/2022 3:00:00 AM 7.98 46.364 0.084 6.28 1.8 11.58
4/16/2022 3:15:00 AM 7.96 46.328 0.084 6.28 1.73 11.59
4/16/2022 3:30:00 AM 7.95 46.31 0.084 6.28 1.77 11.59
4/16/2022 3:45:00 AM 7.93 46.274 0.084 6.28 1.75 11.6
4/16/2022 4:00:00 AM 7.92 46.256 0.084 6.28 1.74 11.6
4/16/2022 4:15:00 AM 7.92 46.256 0.084 6.28 1.75 11.6
4/16/2022 4:30:00 AM 7.91 46.238 0.084 6.28 1.75 11.61
4/16/2022 4:45:00 AM 7.92 46.256 0.084 6.28 1.73 11.61
4/16/2022 5:00:00 AM 7.91 46.238 0.084 6.27 1.71 11.6
4/16/2022 5:15:00 AM 7.9 46.22 0.084 6.28 1.72 11.61
4/16/2022 5:30:00 AM 7.9 46.22 0.084 6.28 1.72 11.61
4/16/2022 5:45:00 AM 7.9 46.22 0.084 6.28 1.72 11.61
4/16/2022 6:00:00 AM 7.89 46.202 0.084 6.28 1.85 11.62
4/16/2022 6:15:00 AM 7.88 46.184 0.083 6.28 1.77 11.62
4/16/2022 6:30:00 AM 7.87 46.166 0.083 6.28 1.89 11.62
4/16/2022 6:45:00 AM 7.86 46.148 0.084 6.28 1.75 11.62
4/16/2022 7:00:00 AM 7.85 46.13 0.084 6.28 1.78 11.62
4/16/2022 7:15:00 AM 7.85 46.13 0.084 6.28 1.71 11.63
4/16/2022 7:30:00 AM 7.86 46.148 0.084 6.29 1.76 11.62
4/16/2022 7:45:00 AM 7.89 46.202 0.083 6.29 1.76 11.62
4/16/2022 8:00:00 AM 7.91 46.238 0.083 6.29 1.72 11.61
4/16/2022 8:15:00 AM 7.93 46.274 0.083 6.29 1.76 11.61
4/16/2022 8:30:00 AM 7.97 46.346 0.084 6.29 1.75 11.6
4/16/2022 8:45:00 AM 8.03 46.454 0.084 6.3 1.7 11.58
4/16/2022 9:00:00 AM 8.08 46.544 0.084 6.29 1.87 11.56
4/16/2022 9:15:00 AM 8.1 46.58 0.084 6.29 1.76 11.55
4/16/2022 9:30:00 AM 8.11 46.598 0.084 6.29 1.71 11.54
4/16/2022 9:45:00 AM 8.12 46.616 0.084 6.3 1.79 11.54
4/16/2022 10:00:00 AM 8.12 46.616 0.084 6.29 1.62 11.54
4/16/2022 10:15:00 AM 8.18 46.724 0.084 6.29 1.74 11.53
4/16/2022 10:30:00 AM 8.2 46.76 0.084 6.29 1.72 11.52
4/16/2022 10:45:00 AM 8.22 46.796 0.084 6.29 1.7 11.51
4/16/2022 11:00:00 AM 8.24 46.832 0.084 6.29 1.78 11.5
4/16/2022 11:15:00 AM 8.23 46.814 0.084 6.29 1.76 11.5
4/16/2022 11:30:00 AM 8.23 46.814 0.084 6.3 1.7 11.5
4/16/2022 11:45:00 AM 8.24 46.832 0.084 6.3 1.75 11.5
4/16/2022 12:00:00 PM 8.25 46.85 0.084 6.29 1.71 11.5
4/16/2022 12:15:00 PM 8.24 46.832 0.084 6.29 1.73 11.5
4/16/2022 12:30:00 PM 8.23 46.814 0.084 6.29 1.78 11.5
4/16/2022 12:45:00 PM 8.2 46.76 0.084 6.29 1.82 11.51
4/16/2022 1:00:00 PM 8.17 46.706 0.083 6.28 2.04 11.52
4/16/2022 1:15:00 PM 8.16 46.688 0.084 6.3 2.09 11.53
4/16/2022 1:30:00 PM 8.16 46.688 0.085 6.31 2.21 11.53
4/16/2022 1:45:00 PM 8.17 46.706 0.085 6.31 2.43 11.53
4/16/2022 2:00:00 PM 8.21 46.778 0.085 6.33 2.47 11.52
4/16/2022 2:15:00 PM 8.2 46.76 0.087 6.34 2.65 11.51
4/16/2022 2:30:00 PM 8.18 46.724 0.088 6.34 2.81 11.51
4/16/2022 2:45:00 PM 8.15 46.67 0.089 6.37 2.46 11.53
4/16/2022 3:00:00 PM 8.14 46.652 0.09 6.39 2.39 11.53
4/16/2022 3:15:00 PM 8.14 46.652 0.091 6.38 2.33 11.53
4/16/2022 3:30:00 PM 8.13 46.634 0.091 6.41 2.25 11.53
4/16/2022 3:45:00 PM 8.1 46.58 0.091 6.42 2.19 11.54
4/16/2022 4:00:00 PM 8.08 46.544 0.091 6.42 2.12 11.54
4/16/2022 4:15:00 PM 8.05 46.49 0.092 6.42 2.13 11.55
4/16/2022 4:30:00 PM 8.02 46.436 0.092 6.42 2.12 11.56
4/16/2022 4:45:00 PM 7.99 46.382 0.092 6.42 2.11 11.57
4/16/2022 5:00:00 PM 7.96 46.328 0.092 6.42 2.19 11.58
4/16/2022 5:15:00 PM 7.93 46.274 0.092 6.42 2.22 11.59
4/16/2022 5:30:00 PM 7.91 46.238 0.093 6.42 2.03 11.59
4/16/2022 5:45:00 PM 7.9 46.22 0.093 6.42 2.12 11.6
4/16/2022 6:00:00 PM 7.9 46.22 0.093 6.42 2.01 11.6
4/16/2022 6:15:00 PM 7.9 46.22 0.093 6.42 1.98 11.6
4/16/2022 6:30:00 PM 7.89 46.202 0.093 6.42 2.05 11.6
4/16/2022 6:45:00 PM 7.88 46.184 0.093 6.41 2.03 11.61
4/16/2022 7:00:00 PM 7.84 46.112 0.093 6.41 1.98 11.62
4/16/2022 7:15:00 PM 7.8 46.04 0.093 6.4 1.96 11.63
4/16/2022 7:30:00 PM 7.76 45.968 0.093 6.41 2.05 11.64
4/16/2022 7:45:00 PM 7.74 45.932 0.093 6.4 1.97 11.64
4/16/2022 8:00:00 PM 7.71 45.878 0.093 6.39 1.86 11.65
4/16/2022 8:15:00 PM 7.67 45.806 0.093 6.39 1.88 11.66
4/16/2022 8:30:00 PM 7.63 45.734 0.093 6.4 1.87 11.67
4/16/2022 8:45:00 PM 7.59 45.662 0.093 6.39 1.87 11.68
4/16/2022 9:00:00 PM 7.53 45.554 0.093 6.39 1.95 11.7
4/16/2022 9:15:00 PM 7.48 45.464 0.093 6.39 1.87 11.73
4/16/2022 9:30:00 PM 7.44 45.392 0.093 6.39 1.92 11.75
4/16/2022 9:45:00 PM 7.39 45.302 0.093 6.39 1.93 11.76
4/16/2022 10:00:00 PM 7.35 45.23 0.093 6.37 1.84 11.78
4/16/2022 10:15:00 PM 7.3 45.14 0.093 6.38 1.91 11.8
4/16/2022 10:30:00 PM 7.25 45.05 0.093 6.38 1.81 11.81
4/16/2022 10:45:00 PM 7.2 44.96 0.093 6.38 1.84 11.83
4/16/2022 11:00:00 PM 7.14 44.852 0.093 6.38 1.76 11.84
4/16/2022 11:15:00 PM 7.08 44.744 0.093 6.37 1.83 11.86
4/16/2022 11:30:00 PM 7.02 44.636 0.093 6.37 1.78 11.88
4/16/2022 11:45:00 PM 6.96 44.528 0.093 6.37 1.89 11.9
4/17/2022 12:00:00 AM 6.89 44.402 0.093 6.36 1.81 11.92
4/17/2022 12:15:00 AM 6.84 44.312 0.093 6.37 1.75 11.94
4/17/2022 12:30:00 AM 6.79 44.222 0.093 6.36 1.78 11.96
4/17/2022 12:45:00 AM 6.75 44.15 0.093 6.37 1.82 11.97
4/17/2022 1:00:00 AM 6.7 44.06 0.093 6.36 1.75 11.99
4/17/2022 1:15:00 AM 6.66 43.988 0.093 6.36 1.73 12.01
4/17/2022 1:30:00 AM 6.61 43.898 0.093 6.36 1.75 12.02
4/17/2022 1:45:00 AM 6.56 43.808 0.093 6.35 1.71 12.04
4/17/2022 2:00:00 AM 6.51 43.718 0.093 6.35 1.8 12.05
4/17/2022 2:15:00 AM 6.47 43.646 0.093 6.35 1.76 12.07
4/17/2022 2:30:00 AM 6.44 43.592 0.093 6.34 1.78 12.08
4/17/2022 2:45:00 AM 6.41 43.538 0.093 6.34 1.77 12.09
4/17/2022 3:00:00 AM 6.38 43.484 0.093 6.33 1.77 12.1
4/17/2022 3:15:00 AM 6.34 43.412 0.093 6.33 1.66 12.11
4/17/2022 3:30:00 AM 6.31 43.358 0.093 6.32 1.71 12.12
4/17/2022 3:45:00 AM 6.27 43.286 0.093 6.32 1.75 12.13
4/17/2022 4:00:00 AM 6.24 43.232 0.093 6.32 1.65 12.14
4/17/2022 4:15:00 AM 6.21 43.178 0.093 6.32 1.66 12.16
4/17/2022 4:30:00 AM 6.19 43.142 0.093 6.31 1.66 12.17
4/17/2022 4:45:00 AM 6.17 43.106 0.093 6.32 1.67 12.17
4/17/2022 5:00:00 AM 6.16 43.088 0.093 6.32 1.68 12.18
4/17/2022 5:15:00 AM 6.14 43.052 0.093 6.32 1.72 12.19
4/17/2022 5:30:00 AM 6.13 43.034 0.093 6.32 1.68 12.2
4/17/2022 5:45:00 AM 6.11 42.998 0.093 6.31 1.6 12.21
4/17/2022 6:00:00 AM 6.1 42.98 0.092 6.33 1.61 12.21
4/17/2022 6:15:00 AM 6.08 42.944 0.092 6.32 1.59 12.22
4/17/2022 6:30:00 AM 6.05 42.89 0.092 6.32 1.58 12.23
4/17/2022 6:45:00 AM 6.03 42.854 0.092 6.33 1.62 12.24
4/17/2022 7:00:00 AM 6.02 42.836 0.092 6.3 1.61 12.25
4/17/2022 7:15:00 AM 6.01 42.818 0.092 6.32 1.54 12.26
4/17/2022 7:30:00 AM 5.98 42.764 0.092 6.33 1.55 12.27
4/17/2022 7:45:00 AM 5.97 42.746 0.092 6.32 1.57 12.28
4/17/2022 8:00:00 AM 5.97 42.746 0.092 6.33 1.6 12.29
4/17/2022 8:15:00 AM 5.98 42.764 0.092 6.33 1.58 12.3
4/17/2022 8:30:00 AM 6 42.8 0.092 6.3 1.63 12.3
4/17/2022 8:45:00 AM 6.01 42.818 0.092 6.33 1.5 12.29
4/17/2022 9:00:00 AM 6.03 42.854 0.092 6.32 1.57 12.29
4/17/2022 9:15:00 AM 5.86 42.548 0.092 6.33 1.57 12.31
4/17/2022 9:30:00 AM 5.78 42.404 0.092 6.32 1.5 12.36
4/17/2022 9:45:00 AM 5.85 42.53 0.092 6.32 1.56 12.36
4/17/2022 10:00:00 AM 5.94 42.692 0.092 6.29 1.56 12.34
4/17/2022 10:15:00 AM 6.03 42.854 0.092 6.33 1.6 12.31
4/17/2022 10:30:00 AM 6.1 42.98 0.092 6.32 1.55 12.29
4/17/2022 10:45:00 AM 6.14 43.052 0.092 6.33 1.57 12.27
4/17/2022 11:00:00 AM 6.13 43.034 0.092 6.33 1.57 12.28
4/17/2022 11:15:00 AM 6.19 43.142 0.092 6.33 1.61 12.27
4/17/2022 11:30:00 AM 6.23 43.214 0.092 6.33 1.53 12.25
4/17/2022 11:45:00 AM 6.29 43.322 0.092 6.33 1.5 12.23
4/17/2022 12:00:00 PM 6.33 43.394 0.092 6.33 1.47 12.22
4/17/2022 12:15:00 PM 6.38 43.484 0.092 6.33 1.52 12.2
4/17/2022 12:30:00 PM 6.5 43.7 0.092 6.33 1.49 12.18
4/17/2022 12:45:00 PM 6.55 43.79 0.092 6.33 1.56 12.15
4/17/2022 1:00:00 PM 6.64 43.952 0.092 6.34 1.55 12.13
4/17/2022 1:15:00 PM 6.73 44.114 0.092 6.34 1.53 12.09
4/17/2022 1:30:00 PM 6.8 44.24 0.092 6.34 2.36 12.07
4/17/2022 1:45:00 PM 6.93 44.474 0.092 6.34 3.12 12.02
4/17/2022 2:00:00 PM 7.03 44.654 0.092 6.34 1.88 12
4/17/2022 2:15:00 PM 7.03 44.654 0.092 6.33 1.75 11.99
4/17/2022 2:30:00 PM 7.08 44.744 0.092 6.34 1.7 11.98
4/17/2022 2:45:00 PM 7.2 44.96 0.092 6.34 2.24 11.95
4/17/2022 3:00:00 PM 7.3 45.14 0.092 6.34 2.29 11.91
4/17/2022 3:15:00 PM 7.4 45.32 0.092 6.34 1.78 11.89
4/17/2022 3:30:00 PM 7.39 45.302 0.092 6.34 1.62 11.87
4/17/2022 3:45:00 PM 7.43 45.374 0.092 6.34 1.6 11.87
4/17/2022 4:00:00 PM 7.44 45.392 0.092 6.34 1.67 11.86
4/17/2022 4:15:00 PM 7.41 45.338 0.092 6.34 1.68 11.86
4/17/2022 4:30:00 PM 7.39 45.302 0.092 6.34 1.63 11.87
4/17/2022 4:45:00 PM 7.39 45.302 0.092 6.34 1.63 11.88
4/17/2022 5:00:00 PM 7.37 45.266 0.092 6.34 1.57 11.88
4/17/2022 5:15:00 PM 7.33 45.194 0.092 6.34 1.54 11.89
4/17/2022 5:30:00 PM 7.27 45.086 0.092 6.34 1.67 11.91
4/17/2022 5:45:00 PM 7.19 44.942 0.092 6.34 1.6 11.93
4/17/2022 6:00:00 PM 7.1 44.78 0.092 6.32 1.62 11.96
4/17/2022 6:15:00 PM 7.01 44.618 0.092 6.32 1.58 11.99
4/17/2022 6:30:00 PM 6.93 44.474 0.092 6.33 1.64 12.01
4/17/2022 6:45:00 PM 6.86 44.348 0.092 6.33 1.59 12.03
4/17/2022 7:00:00 PM 6.79 44.222 0.092 6.33 1.61 12.06
4/17/2022 7:15:00 PM 6.74 44.132 0.092 6.32 1.64 12.08
4/17/2022 7:30:00 PM 6.68 44.024 0.092 6.32 1.57 12.09
4/17/2022 7:45:00 PM 6.63 43.934 0.092 6.29 1.58 12.11
4/17/2022 8:00:00 PM 6.57 43.826 0.092 6.32 1.63 12.12
4/17/2022 8:15:00 PM 6.51 43.718 0.092 6.31 1.67 12.14
4/17/2022 8:30:00 PM 6.44 43.592 0.092 6.31 1.52 12.17
4/17/2022 8:45:00 PM 6.36 43.448 0.092 6.31 1.61 12.19
4/17/2022 9:00:00 PM 6.29 43.322 0.092 6.3 1.61 12.22
4/17/2022 9:15:00 PM 6.22 43.196 0.093 6.31 1.6 12.24
4/17/2022 9:30:00 PM 6.15 43.07 0.092 6.29 1.57 12.26
4/17/2022 9:45:00 PM 6.09 42.962 0.093 6.3 1.61 12.29
4/17/2022 10:00:00 PM 6.04 42.872 0.092 6.3 1.52 12.31
4/17/2022 10:15:00 PM 5.98 42.764 0.092 6.3 1.56 12.33
4/17/2022 10:30:00 PM 5.93 42.674 0.092 6.29 1.52 12.35
4/17/2022 10:45:00 PM 5.89 42.602 0.092 6.3 1.57 12.36
4/17/2022 11:00:00 PM 5.84 42.512 0.093 6.29 1.5 12.37
4/17/2022 11:15:00 PM 5.79 42.422 0.093 6.29 1.57 12.39
4/17/2022 11:30:00 PM 5.75 42.35 0.092 6.29 1.54 12.41
4/17/2022 11:45:00 PM 5.71 42.278 0.092 6.27 1.54 12.41
4/18/2022 12:00:00 AM 5.67 42.206 0.092 6.29 1.54 12.43
4/18/2022 12:15:00 AM 5.63 42.134 0.092 6.29 1.6 12.44
4/18/2022 12:30:00 AM 5.59 42.062 0.092 6.28 1.54 12.45
4/18/2022 12:45:00 AM 5.56 42.008 0.092 6.28 1.51 12.46
4/18/2022 1:00:00 AM 5.52 41.936 0.092 6.26 1.5 12.48
4/18/2022 1:15:00 AM 5.48 41.864 0.093 6.28 1.49 12.49
4/18/2022 1:30:00 AM 5.45 41.81 0.093 6.28 1.52 12.51
4/18/2022 1:45:00 AM 5.42 41.756 0.092 6.28 1.56 12.52
4/18/2022 2:00:00 AM 5.39 41.702 0.092 6.28 1.54 12.53
4/18/2022 2:15:00 AM 5.36 41.648 0.092 6.25 1.45 12.54
4/18/2022 2:30:00 AM 5.33 41.594 0.092 6.25 1.53 12.54
4/18/2022 2:45:00 AM 5.31 41.558 0.092 6.25 1.47 12.55
4/18/2022 3:00:00 AM 5.28 41.504 0.092 6.25 1.52 12.56
4/18/2022 3:15:00 AM 5.25 41.45 0.092 6.25 1.45 12.57
4/18/2022 3:30:00 AM 5.23 41.414 0.092 6.26 1.46 12.58
4/18/2022 3:45:00 AM 5.2 41.36 0.092 6.25 1.48 12.58
4/18/2022 4:00:00 AM 5.18 41.324 0.092 6.26 1.51 12.59
4/18/2022 4:15:00 AM 5.15 41.27 0.092 6.24 1.45 12.6
4/18/2022 4:30:00 AM 5.12 41.216 0.092 6.26 1.5 12.6
4/18/2022 4:45:00 AM 5.1 41.18 0.092 6.26 1.47 12.61
4/18/2022 5:00:00 AM 5.07 41.126 0.092 6.26 1.45 12.61
4/18/2022 5:15:00 AM 5.04 41.072 0.092 6.27 1.46 12.62
4/18/2022 5:30:00 AM 5.01 41.018 0.092 6.27 1.47 12.63
4/18/2022 5:45:00 AM 4.98 40.964 0.092 6.27 1.44 12.64
4/18/2022 6:00:00 AM 4.95 40.91 0.092 6.27 1.45 12.64
4/18/2022 6:15:00 AM 4.92 40.856 0.092 6.27 1.49 12.65
4/18/2022 6:30:00 AM 4.9 40.82 0.092 6.26 1.44 12.66
4/18/2022 6:45:00 AM 4.87 40.766 0.092 6.26 1.43 12.67
4/18/2022 7:00:00 AM 4.85 40.73 0.092 6.26 1.4 12.68
4/18/2022 7:15:00 AM 4.84 40.712 0.092 6.27 1.4 12.68
4/18/2022 7:30:00 AM 4.84 40.712 0.092 6.27 1.4 12.69
4/18/2022 7:45:00 AM 4.83 40.694 0.092 6.27 1.38 12.69
4/18/2022 8:00:00 AM 4.84 40.712 0.092 6.27 1.43 12.69
4/18/2022 8:15:00 AM 4.85 40.73 0.092 6.27 1.47 12.69
4/18/2022 8:30:00 AM 4.87 40.766 0.092 6.27 1.41 12.68
4/18/2022 8:45:00 AM 4.9 40.82 0.092 6.28 1.39 12.67
4/18/2022 9:00:00 AM 4.93 40.874 0.092 6.28 1.38 12.65
4/18/2022 9:15:00 AM 4.96 40.928 0.092 6.28 1.38 12.64
4/18/2022 9:30:00 AM 4.98 40.964 0.092 6.28 1.45 12.63
4/18/2022 9:45:00 AM 5.01 41.018 0.092 6.28 1.38 12.62
4/18/2022 10:00:00 AM 5.03 41.054 0.092 6.28 1.32 12.61
4/18/2022 10:15:00 AM 5.06 41.108 0.092 6.28 1.38 12.6
4/18/2022 10:30:00 AM 5.11 41.198 0.092 6.28 1.39 12.58
4/18/2022 10:45:00 AM 5.13 41.234 0.092 6.28 1.39 12.57
4/18/2022 11:00:00 AM 5.13 41.234 0.092 6.26 1.43 12.56
4/18/2022 11:15:00 AM 5.14 41.252 0.092 6.29 1.45 12.56
4/18/2022 11:30:00 AM 5.14 41.252 0.092 6.29 1.41 12.57
4/18/2022 11:45:00 AM 5.14 41.252 0.092 6.28 1.37 12.57
4/18/2022 12:00:00 PM 5.16 41.288 0.092 6.28 1.44 12.56
4/18/2022 12:15:00 PM 5.17 41.306 0.092 6.28 1.41 12.56
4/18/2022 12:30:00 PM 5.16 41.288 0.092 6.28 1.44 12.55
4/18/2022 12:45:00 PM 5.16 41.288 0.092 6.28 1.47 12.55
4/18/2022 1:00:00 PM 5.14 41.252 0.092 6.29 1.38 12.56
4/18/2022 1:15:00 PM 5.04 41.072 0.092 6.28 1.43 12.57
4/18/2022 1:30:00 PM 4.84 40.712 0.092 6.28 1.46 12.61
4/18/2022 1:45:00 PM 4.73 40.514 0.092 6.28 1.38 12.67
4/18/2022 2:00:00 PM 4.53 40.154 0.091 6.27 1.44 12.72
4/18/2022 2:15:00 PM 4.36 39.848 0.091 6.26 1.47 12.76
4/18/2022 2:30:00 PM 4.18 39.524 0.091 6.24 1.45 12.84
4/18/2022 2:45:00 PM 4.09 39.362 0.091 6.22 1.44 12.88
4/18/2022 3:00:00 PM 3.98 39.164 0.09 6.2 1.47 12.91
4/18/2022 3:15:00 PM 3.81 38.858 0.09 6.18 1.49 12.95
4/18/2022 3:30:00 PM 3.69 38.642 0.09 6.17 1.5 13
4/18/2022 3:45:00 PM 3.6 38.48 0.09 6.16 1.44 13.04
4/18/2022 4:00:00 PM 3.57 38.426 0.09 6.17 1.48 13.05
4/18/2022 4:15:00 PM 3.57 38.426 0.09 6.18 1.46 13.06
4/18/2022 4:30:00 PM 3.59 38.462 0.09 6.19 1.39 13.05
4/18/2022 4:45:00 PM 3.56 38.408 0.09 6.2 1.43 13.05
4/18/2022 5:00:00 PM 3.54 38.372 0.09 6.21 1.41 13.06
4/18/2022 5:15:00 PM 3.52 38.336 0.09 6.22 1.44 13.07
4/18/2022 5:30:00 PM 3.48 38.264 0.09 6.22 1.42 13.07
4/18/2022 5:45:00 PM 3.46 38.228 0.09 6.22 1.51 13.07
4/18/2022 6:00:00 PM 3.47 38.246 0.09 6.23 1.42 13.09
4/18/2022 6:15:00 PM 3.47 38.246 0.09 6.24 1.46 13.09
4/18/2022 6:30:00 PM 3.45 38.21 0.09 6.24 1.4 13.09
4/18/2022 6:45:00 PM 3.47 38.246 0.09 6.23 1.34 13.08
4/18/2022 7:00:00 PM 3.48 38.264 0.09 6.24 1.4 13.08
4/18/2022 7:15:00 PM 3.49 38.282 0.09 6.23 1.4 13.08
4/18/2022 7:30:00 PM 3.5 38.3 0.09 6.25 1.4 13.07
4/18/2022 7:45:00 PM 3.5 38.3 0.09 6.24 1.38 13.07
4/18/2022 8:00:00 PM 3.52 38.336 0.091 6.25 1.4 13.06
4/18/2022 8:15:00 PM 3.54 38.372 0.091 6.25 1.4 13.06
4/18/2022 8:30:00 PM 3.6 38.48 0.091 6.25 1.33 13.03
4/18/2022 8:45:00 PM 3.64 38.552 0.091 6.24 1.34 13.01
4/18/2022 9:00:00 PM 3.66 38.588 0.092 6.25 1.37 13
4/18/2022 9:15:00 PM 3.68 38.624 0.093 6.26 1.36 12.99
4/18/2022 9:30:00 PM 3.68 38.624 0.093 6.26 1.36 12.99
4/18/2022 9:45:00 PM 3.69 38.642 0.094 6.26 1.34 12.99
4/18/2022 10:00:00 PM 3.72 38.696 0.095 6.26 1.36 12.98
4/18/2022 10:15:00 PM 3.77 38.786 0.096 6.26 1.35 12.96
4/18/2022 10:30:00 PM 3.82 38.876 0.097 6.27 1.4 12.94
4/18/2022 10:45:00 PM 3.86 38.948 0.099 6.27 1.4 12.92
4/18/2022 11:00:00 PM 3.91 39.038 0.1 6.28 1.37 12.9
4/18/2022 11:15:00 PM 3.96 39.128 0.101 6.28 1.29 12.88
4/18/2022 11:30:00 PM 4 39.2 0.101 6.28 1.35 12.87
4/18/2022 11:45:00 PM 4.03 39.254 0.101 6.29 1.35 12.85
4/19/2022 12:00:00 AM 4.05 39.29 0.101 6.29 1.32 12.84
4/19/2022 12:15:00 AM 4.06 39.308 0.101 6.3 1.38 12.84
4/19/2022 12:30:00 AM 4.08 39.344 0.101 6.3 1.37 12.83
4/19/2022 12:45:00 AM 4.12 39.416 0.102 6.3 1.35 12.82
4/19/2022 1:00:00 AM 4.13 39.434 0.101 6.29 1.32 12.81
4/19/2022 1:15:00 AM 4.14 39.452 0.101 6.31 1.35 12.8
4/19/2022 1:30:00 AM 4.16 39.488 0.101 6.31 1.31 12.79
4/19/2022 1:45:00 AM 4.17 39.506 0.101 6.31 1.34 12.79
4/19/2022 2:00:00 AM 4.19 39.542 0.101 6.31 1.31 12.78
4/19/2022 2:15:00 AM 4.21 39.578 0.101 6.31 1.31 12.77
4/19/2022 2:30:00 AM 4.23 39.614 0.101 6.31 1.3 12.76
4/19/2022 2:45:00 AM 4.24 39.632 0.101 6.31 1.36 12.75
4/19/2022 3:00:00 AM 4.26 39.668 0.101 6.31 1.32 12.74
4/19/2022 3:15:00 AM 4.27 39.686 0.101 6.31 1.3 12.74
4/19/2022 3:30:00 AM 4.27 39.686 0.101 6.31 1.33 12.73
4/19/2022 3:45:00 AM 4.28 39.704 0.101 6.31 1.3 12.72
4/19/2022 4:00:00 AM 4.29 39.722 0.102 6.31 1.31 12.72
4/19/2022 4:15:00 AM 4.3 39.74 0.103 6.31 1.33 12.71
4/19/2022 4:30:00 AM 4.31 39.758 0.105 6.31 1.31 12.7
4/19/2022 4:45:00 AM 4.32 39.776 0.106 6.31 1.38 12.7
4/19/2022 5:00:00 AM 4.33 39.794 0.107 6.31 1.3 12.69
4/19/2022 5:15:00 AM 4.34 39.812 0.107 6.32 1.31 12.69
4/19/2022 5:30:00 AM 4.34 39.812 0.107 6.32 1.33 12.69
4/19/2022 5:45:00 AM 4.34 39.812 0.107 6.32 1.44 12.68
4/19/2022 6:00:00 AM 4.34 39.812 0.107 6.32 1.35 12.68
4/19/2022 6:15:00 AM 4.34 39.812 0.107 6.32 1.34 12.68
4/19/2022 6:30:00 AM 4.35 39.83 0.107 6.32 1.31 12.68
4/19/2022 6:45:00 AM 4.36 39.848 0.107 6.33 1.29 12.68
4/19/2022 7:00:00 AM 4.37 39.866 0.106 6.33 1.32 12.67
4/19/2022 7:15:00 AM 4.38 39.884 0.106 6.33 1.32 12.67
4/19/2022 7:30:00 AM 4.39 39.902 0.106 6.33 1.33 12.68
4/19/2022 7:45:00 AM 4.4 39.92 0.106 6.34 1.3 12.67
4/19/2022 8:00:00 AM 4.42 39.956 0.106 6.34 1.33 12.68
4/19/2022 8:15:00 AM 4.44 39.992 0.105 6.34 1.29 12.66
4/19/2022 8:30:00 AM 4.45 40.01 0.105 6.31 1.31 12.66
4/19/2022 8:45:00 AM 4.42 39.956 0.105 6.34 1.29 12.66
4/19/2022 9:00:00 AM 4.49 40.082 0.105 6.34 1.28 12.65
4/19/2022 9:15:00 AM 4.55 40.19 0.104 6.34 1.34 12.63
4/19/2022 9:30:00 AM 4.59 40.262 0.104 6.35 1.32 12.62
4/19/2022 9:45:00 AM 4.62 40.316 0.104 6.35 1.3 12.62
4/19/2022 10:00:00 AM 4.7 40.46 0.104 6.35 1.32 12.59
4/19/2022 10:15:00 AM 4.69 40.442 0.104 6.35 1.4 12.59
4/19/2022 10:30:00 AM 4.71 40.478 0.104 6.35 1.35 12.59
4/19/2022 10:45:00 AM 4.75 40.55 0.105 6.35 1.33 12.58
4/19/2022 11:00:00 AM 4.83 40.694 0.105 6.35 1.32 12.55
4/19/2022 11:15:00 AM 4.89 40.802 0.105 6.35 1.37 12.53
4/19/2022 11:30:00 AM 4.86 40.748 0.105 6.35 1.4 12.54
4/19/2022 11:45:00 AM 4.91 40.838 0.105 6.35 1.38 12.52
4/19/2022 12:00:00 PM 5.03 41.054 0.105 6.32 1.42 12.48
4/19/2022 12:15:00 PM 5.11 41.198 0.104 6.36 1.42 12.47
4/19/2022 12:30:00 PM 5.2 41.36 0.104 6.36 1.43 12.44
4/19/2022 12:45:00 PM 5.26 41.468 0.104 6.36 1.52 12.42
4/19/2022 1:00:00 PM 5.31 41.558 0.104 6.36 1.51 12.4
4/19/2022 1:15:00 PM 5.39 41.702 0.105 6.36 1.39 12.38
4/19/2022 1:30:00 PM 5.35 41.63 0.105 6.36 1.47 12.39
4/19/2022 1:45:00 PM 5.3 41.54 0.105 6.36 1.45 12.4
4/19/2022 2:00:00 PM 5.34 41.612 0.105 6.36 1.48 12.4
4/19/2022 2:15:00 PM 5.37 41.666 0.105 6.36 1.49 12.39
4/19/2022 2:30:00 PM 5.45 41.81 0.105 6.36 1.5 12.37
4/19/2022 2:45:00 PM 5.48 41.864 0.105 6.37 1.52 12.36
4/19/2022 3:00:00 PM 5.46 41.828 0.106 6.37 1.5 12.35
4/19/2022 3:15:00 PM 5.42 41.756 0.107 6.34 1.46 12.38
4/19/2022 3:30:00 PM 5.45 41.81 0.108 6.38 1.45 12.37
4/19/2022 3:45:00 PM 5.43 41.774 0.108 6.38 1.63 12.38
4/19/2022 4:00:00 PM 5.42 41.756 0.108 6.35 1.51 12.38
4/19/2022 4:15:00 PM 5.45 41.81 0.109 6.39 1.52 12.38
4/19/2022 4:30:00 PM 5.45 41.81 0.109 6.39 1.68 12.37
4/19/2022 4:45:00 PM 5.47 41.846 0.109 6.39 1.6 12.37
4/19/2022 5:00:00 PM 5.46 41.828 0.109 6.4 1.58 12.37
4/19/2022 5:15:00 PM 5.41 41.738 0.11 6.4 1.66 12.39
4/19/2022 5:30:00 PM 5.37 41.666 0.11 6.41 1.49 12.41
4/19/2022 5:45:00 PM 5.34 41.612 0.111 6.41 1.53 12.41
4/19/2022 6:00:00 PM 5.31 41.558 0.111 6.41 1.53 12.42
4/19/2022 6:15:00 PM 5.27 41.486 0.112 6.39 1.55 12.44
4/19/2022 6:30:00 PM 5.22 41.396 0.113 6.43 1.6 12.46
4/19/2022 6:45:00 PM 5.18 41.324 0.114 6.41 1.56 12.48
4/19/2022 7:00:00 PM 5.14 41.252 0.115 6.44 1.57 12.49
4/19/2022 7:15:00 PM 5.1 41.18 0.116 6.44 1.52 12.5
4/19/2022 7:30:00 PM 5.06 41.108 0.117 6.45 1.54 12.52
4/19/2022 7:45:00 PM 5.02 41.036 0.117 6.46 1.53 12.53
4/19/2022 8:00:00 PM 4.99 40.982 0.118 6.46 1.47 12.54
4/19/2022 8:15:00 PM 4.94 40.892 0.119 6.47 1.53 12.56
4/19/2022 8:30:00 PM 4.91 40.838 0.119 6.47 1.54 12.58
4/19/2022 8:45:00 PM 4.87 40.766 0.12 6.48 1.49 12.6
4/19/2022 9:00:00 PM 4.84 40.712 0.12 6.48 1.5 12.61
4/19/2022 9:15:00 PM 4.82 40.676 0.121 6.49 1.5 12.63
4/19/2022 9:30:00 PM 4.79 40.622 0.121 6.49 1.53 12.64
4/19/2022 9:45:00 PM 4.76 40.568 0.121 6.49 1.53 12.65
4/19/2022 10:00:00 PM 4.74 40.532 0.121 6.49 1.51 12.66
4/19/2022 10:15:00 PM 4.72 40.496 0.122 6.49 1.55 12.67
4/19/2022 10:30:00 PM 4.7 40.46 0.122 6.5 1.51 12.68
4/19/2022 10:45:00 PM 4.67 40.406 0.122 6.5 1.51 12.69
4/19/2022 11:00:00 PM 4.65 40.37 0.122 6.5 1.46 12.7
4/19/2022 11:15:00 PM 4.63 40.334 0.122 6.5 1.46 12.72
4/19/2022 11:30:00 PM 4.61 40.298 0.123 6.5 1.53 12.73
4/19/2022 11:45:00 PM 4.58 40.244 0.123 6.5 1.53 12.73
4/20/2022 12:00:00 AM 4.58 40.244 0.123 6.5 1.48 12.74
4/20/2022 12:15:00 AM 4.57 40.226 0.123 6.5 1.45 12.74
4/20/2022 12:30:00 AM 4.57 40.226 0.123 6.5 1.42 12.75
4/20/2022 12:45:00 AM 4.55 40.19 0.124 6.5 1.44 12.75
4/20/2022 1:00:00 AM 4.53 40.154 0.124 6.5 1.47 12.77
4/20/2022 1:15:00 AM 4.52 40.136 0.124 6.5 1.45 12.77
4/20/2022 1:30:00 AM 4.52 40.136 0.124 6.5 1.52 12.78
4/20/2022 1:45:00 AM 4.52 40.136 0.124 6.5 1.46 12.78
4/20/2022 2:00:00 AM 4.52 40.136 0.124 6.5 1.48 12.78
4/20/2022 2:15:00 AM 4.5 40.1 0.124 6.5 1.45 12.78
4/20/2022 2:30:00 AM 4.48 40.064 0.124 6.47 1.49 12.79
4/20/2022 2:45:00 AM 4.46 40.028 0.124 6.5 1.49 12.8
4/20/2022 3:00:00 AM 4.44 39.992 0.124 6.5 1.37 12.81
4/20/2022 3:15:00 AM 4.44 39.992 0.124 6.5 1.41 12.82
4/20/2022 3:30:00 AM 4.44 39.992 0.124 6.5 1.37 12.82
4/20/2022 3:45:00 AM 4.44 39.992 0.124 6.49 1.41 12.83
4/20/2022 4:00:00 AM 4.42 39.956 0.124 6.5 1.44 12.83
4/20/2022 4:15:00 AM 4.41 39.938 0.124 6.5 1.52 12.83
4/20/2022 4:30:00 AM 4.38 39.884 0.124 6.5 1.44 12.85
4/20/2022 4:45:00 AM 4.36 39.848 0.124 6.49 1.4 12.86
4/20/2022 5:00:00 AM 4.34 39.812 0.124 6.49 1.38 12.87
4/20/2022 5:15:00 AM 4.32 39.776 0.124 6.49 1.36 12.88
4/20/2022 5:30:00 AM 4.3 39.74 0.124 6.49 1.46 12.89
4/20/2022 5:45:00 AM 4.29 39.722 0.124 6.48 1.41 12.9
4/20/2022 6:00:00 AM 4.27 39.686 0.124 6.48 1.38 12.91
4/20/2022 6:15:00 AM 4.26 39.668 0.124 6.48 1.41 12.91
4/20/2022 6:30:00 AM 4.24 39.632 0.124 6.48 1.44 12.93
4/20/2022 6:45:00 AM 4.22 39.596 0.124 6.48 1.38 12.94
4/20/2022 7:00:00 AM 4.21 39.578 0.123 6.48 1.41 12.95
4/20/2022 7:15:00 AM 4.2 39.56 0.123 6.48 1.41 12.96
4/20/2022 7:30:00 AM 4.19 39.542 0.123 6.48 1.31 12.97
4/20/2022 7:45:00 AM 4.2 39.56 0.123 6.48 1.4 12.96
4/20/2022 8:00:00 AM 4.22 39.596 0.123 6.48 1.37 12.96
4/20/2022 8:15:00 AM 4.24 39.632 0.123 6.48 1.32 12.96
4/20/2022 8:30:00 AM 4.27 39.686 0.123 6.48 1.35 12.95
4/20/2022 8:45:00 AM 4.33 39.794 0.123 6.48 1.33 12.93
4/20/2022 9:00:00 AM 4.38 39.884 0.123 6.48 1.36 12.92
4/20/2022 9:15:00 AM 4.46 40.028 0.123 6.48 1.38 12.89
4/20/2022 9:30:00 AM 4.57 40.226 0.123 6.48 1.39 12.87
4/20/2022 9:45:00 AM 4.68 40.424 0.123 6.48 1.38 12.83
4/20/2022 10:00:00 AM 4.79 40.622 0.122 6.47 1.34 12.8
4/20/2022 10:15:00 AM 4.93 40.874 0.122 6.48 1.36 12.75
4/20/2022 10:30:00 AM 5.08 41.144 0.122 6.49 1.38 12.7
4/20/2022 10:45:00 AM 5.25 41.45 0.122 6.49 1.39 12.64
4/20/2022 11:00:00 AM 5.41 41.738 0.122 6.49 1.42 12.59
4/20/2022 11:15:00 AM 5.57 42.026 0.122 6.49 1.33 12.53
4/20/2022 11:30:00 AM 5.75 42.35 0.122 6.47 1.36 12.48
4/20/2022 11:45:00 AM 5.96 42.728 0.122 6.5 1.38 12.41
4/20/2022 12:00:00 PM 6.15 43.07 0.123 6.51 1.41 12.34
4/20/2022 12:15:00 PM 6.32 43.376 0.123 6.52 1.44 12.28
4/20/2022 12:30:00 PM 6.45 43.61 0.124 6.53 1.59 12.24
4/20/2022 12:45:00 PM 6.59 43.862 0.126 6.54 1.6 12.2
4/20/2022 1:00:00 PM 6.67 44.006 0.129 6.56 1.73 12.17
4/20/2022 1:15:00 PM 6.8 44.24 0.133 6.57 1.91 12.13
4/20/2022 1:30:00 PM 6.91 44.438 0.136 6.61 2.14 12.09
4/20/2022 1:45:00 PM 7.03 44.654 0.14 6.63 2.36 12.05
4/20/2022 2:00:00 PM 7.15 44.87 0.144 6.66 2.68 12.01
4/20/2022 2:15:00 PM 7.23 45.014 0.149 6.69 3.1 11.98
4/20/2022 2:30:00 PM 7.28 45.104 0.152 6.71 3.19 11.96
4/20/2022 2:45:00 PM 7.33 45.194 0.155 6.71 3.49 11.95
4/20/2022 3:00:00 PM 7.36 45.248 0.157 6.76 3.77 11.94
4/20/2022 3:15:00 PM 7.39 45.302 0.159 6.77 3.7 11.93
4/20/2022 3:30:00 PM 7.41 45.338 0.161 6.79 3.82 11.92
4/20/2022 3:45:00 PM 7.43 45.374 0.162 6.8 3.89 11.91
4/20/2022 4:00:00 PM 7.42 45.356 0.163 6.81 3.76 11.91
4/20/2022 4:15:00 PM 7.41 45.338 0.163 6.83 3.9 11.91
4/20/2022 4:30:00 PM 7.39 45.302 0.163 6.82 3.69 11.92
4/20/2022 4:45:00 PM 7.35 45.23 0.162 6.84 3.68 11.93
4/20/2022 5:00:00 PM 7.31 45.158 0.162 6.85 3.63 11.94
4/20/2022 5:15:00 PM 7.26 45.068 0.162 6.85 3.72 11.95
4/20/2022 5:30:00 PM 7.19 44.942 0.162 6.85 3.47 11.97
4/20/2022 5:45:00 PM 7.12 44.816 0.162 6.84 3.35 11.99
4/20/2022 6:00:00 PM 7.03 44.654 0.162 6.83 3.36 12.02
4/20/2022 6:15:00 PM 6.94 44.492 0.162 6.84 3.29 12.05
4/20/2022 6:30:00 PM 6.85 44.33 0.161 6.83 3.22 12.07
4/20/2022 6:45:00 PM 6.76 44.168 0.161 6.82 3.18 12.11
4/20/2022 7:00:00 PM 6.67 44.006 0.16 6.82 3.28 12.14
4/20/2022 7:15:00 PM 6.59 43.862 0.159 6.8 3.13 12.17
4/20/2022 7:30:00 PM 6.51 43.718 0.157 6.8 3.06 12.19
4/20/2022 7:45:00 PM 6.42 43.556 0.156 6.79 3.03 12.21
4/20/2022 8:00:00 PM 6.34 43.412 0.155 6.77 3.31 12.24
4/20/2022 8:15:00 PM 6.26 43.268 0.155 6.77 2.98 12.26
4/20/2022 8:30:00 PM 6.18 43.124 0.154 6.76 2.83 12.3
4/20/2022 8:45:00 PM 6.1 42.98 0.154 6.75 2.92 12.33
4/20/2022 9:00:00 PM 6.03 42.854 0.153 6.75 2.85 12.35
4/20/2022 9:15:00 PM 5.96 42.728 0.152 6.74 2.82 12.37
4/20/2022 9:30:00 PM 5.9 42.62 0.151 6.73 2.73 12.39
4/20/2022 9:45:00 PM 5.85 42.53 0.151 6.71 2.69 12.41
4/20/2022 10:00:00 PM 5.8 42.44 0.15 6.72 2.52 12.41
4/20/2022 10:15:00 PM 5.78 42.404 0.149 6.71 2.43 12.42
4/20/2022 10:30:00 PM 5.76 42.368 0.148 6.68 2.47 12.43
4/20/2022 10:45:00 PM 5.75 42.35 0.147 6.69 2.6 12.44
4/20/2022 11:00:00 PM 5.74 42.332 0.146 6.69 2.36 12.44
4/20/2022 11:15:00 PM 5.72 42.296 0.146 6.68 2.31 12.44
4/20/2022 11:30:00 PM 5.7 42.26 0.145 6.68 2.28 12.45
4/20/2022 11:45:00 PM 5.68 42.224 0.145 6.68 2.25 12.46
4/21/2022 12:00:00 AM 5.65 42.17 0.144 6.67 2.23 12.46
4/21/2022 12:15:00 AM 5.62 42.116 0.144 6.66 2.13 12.47
4/21/2022 12:30:00 AM 5.59 42.062 0.144 6.66 2.18 12.48
4/21/2022 12:45:00 AM 5.55 41.99 0.143 6.66 2.12 12.49
4/21/2022 1:00:00 AM 5.53 41.954 0.143 6.65 2.08 12.5
4/21/2022 1:15:00 AM 5.5 41.9 0.144 6.65 2.16 12.51
4/21/2022 1:30:00 AM 5.47 41.846 0.144 6.65 2.08 12.52
4/21/2022 1:45:00 AM 5.45 41.81 0.144 6.64 2.07 12.53
4/21/2022 2:00:00 AM 5.43 41.774 0.144 6.64 2.03 12.53
4/21/2022 2:15:00 AM 5.43 41.774 0.145 6.64 1.94 12.53
4/21/2022 2:30:00 AM 5.43 41.774 0.145 6.63 1.96 12.53
4/21/2022 2:45:00 AM 5.43 41.774 0.145 6.63 1.95 12.53
4/21/2022 3:00:00 AM 5.44 41.792 0.145 6.62 1.92 12.52
4/21/2022 3:15:00 AM 5.44 41.792 0.145 6.61 1.93 12.52
4/21/2022 3:30:00 AM 5.44 41.792 0.145 6.62 1.87 12.53
4/21/2022 3:45:00 AM 5.44 41.792 0.145 6.62 1.92 12.53
4/21/2022 4:00:00 AM 5.45 41.81 0.145 6.61 1.86 12.52
4/21/2022 4:15:00 AM 5.44 41.792 0.145 6.62 1.87 12.52
4/21/2022 4:30:00 AM 5.44 41.792 0.145 6.61 1.82 12.52
4/21/2022 4:45:00 AM 5.43 41.774 0.145 6.61 1.8 12.52
4/21/2022 5:00:00 AM 5.43 41.774 0.145 6.61 1.82 12.52
4/21/2022 5:15:00 AM 5.43 41.774 0.144 6.6 1.84 12.52
4/21/2022 5:30:00 AM 5.43 41.774 0.144 6.6 1.85 12.52
4/21/2022 5:45:00 AM 5.43 41.774 0.144 6.61 1.8 12.52
4/21/2022 6:00:00 AM 5.42 41.756 0.144 6.6 1.75 12.52
4/21/2022 6:15:00 AM 5.41 41.738 0.143 6.6 1.75 12.52
4/21/2022 6:30:00 AM 5.4 41.72 0.143 6.6 1.71 12.52
4/21/2022 6:45:00 AM 5.4 41.72 0.143 6.6 1.75 12.52
4/21/2022 7:00:00 AM 5.42 41.756 0.142 6.6 1.72 12.52
4/21/2022 7:15:00 AM 5.44 41.792 0.142 6.59 1.69 12.52
4/21/2022 7:30:00 AM 5.46 41.828 0.142 6.59 1.63 12.51
4/21/2022 7:45:00 AM 5.49 41.882 0.142 6.59 1.68 12.5
4/21/2022 8:00:00 AM 5.52 41.936 0.141 6.59 1.66 12.5
4/21/2022 8:15:00 AM 5.57 42.026 0.141 6.6 1.7 12.48
4/21/2022 8:30:00 AM 5.63 42.134 0.141 6.59 1.66 12.47
4/21/2022 8:45:00 AM 5.68 42.224 0.14 6.6 1.64 12.45
4/21/2022 9:00:00 AM 5.75 42.35 0.14 6.6 1.72 12.43
4/21/2022 9:15:00 AM 5.79 42.422 0.14 6.6 1.67 12.42
4/21/2022 9:30:00 AM 5.81 42.458 0.139 6.6 1.65 12.41
4/21/2022 9:45:00 AM 5.83 42.494 0.139 6.6 1.67 12.4
4/21/2022 10:00:00 AM 5.85 42.53 0.139 6.59 1.7 12.39
4/21/2022 10:15:00 AM 5.87 42.566 0.139 6.59 1.62 12.38
4/21/2022 10:30:00 AM 5.88 42.584 0.138 6.59 1.67 12.38
4/21/2022 10:45:00 AM 5.88 42.584 0.138 6.59 1.76 12.37
4/21/2022 11:00:00 AM 5.89 42.602 0.138 6.59 1.83 12.37
4/21/2022 11:15:00 AM 5.9 42.62 0.138 6.6 1.88 12.37
4/21/2022 11:30:00 AM 5.91 42.638 0.139 6.6 1.83 12.37
4/21/2022 11:45:00 AM 5.92 42.656 0.139 6.6 1.93 12.36
4/21/2022 12:00:00 PM 5.93 42.674 0.139 6.61 2.01 12.36
4/21/2022 12:15:00 PM 5.94 42.692 0.139 6.61 2.09 12.35
4/21/2022 12:30:00 PM 5.95 42.71 0.14 6.61 2.08 12.34
4/21/2022 12:45:00 PM 5.98 42.764 0.141 6.61 2.16 12.34
4/21/2022 1:00:00 PM 6 42.8 0.141 6.61 2.08 12.34
4/21/2022 1:15:00 PM 6.01 42.818 0.141 6.62 2.19 12.33
4/21/2022 1:30:00 PM 6.02 42.836 0.14 6.62 2.2 12.33
4/21/2022 1:45:00 PM 6.03 42.854 0.14 6.62 2.11 12.33
4/21/2022 2:00:00 PM 6.04 42.872 0.14 6.61 2.2 12.32
4/21/2022 2:15:00 PM 6.05 42.89 0.139 6.61 2.24 12.32
4/21/2022 2:30:00 PM 6.06 42.908 0.138 6.6 2.45 12.31
4/21/2022 2:45:00 PM 6.08 42.944 0.136 6.59 2.57 12.31
4/21/2022 3:00:00 PM 6.09 42.962 0.135 6.6 2.49 12.3
4/21/2022 3:15:00 PM 6.11 42.998 0.134 6.59 2.69 12.29
4/21/2022 3:30:00 PM 6.14 43.052 0.134 6.58 2.72 12.28
4/21/2022 3:45:00 PM 6.15 43.07 0.132 6.58 2.71 12.28
4/21/2022 4:00:00 PM 6.17 43.106 0.132 6.57 2.73 12.27
4/21/2022 4:15:00 PM 6.18 43.124 0.131 6.56 2.66 12.27
4/21/2022 4:30:00 PM 6.19 43.142 0.13 6.56 2.72 12.27
4/21/2022 4:45:00 PM 6.21 43.178 0.13 6.56 2.79 12.26
4/21/2022 5:00:00 PM 6.22 43.196 0.129 6.53 2.65 12.26
4/21/2022 5:15:00 PM 6.24 43.232 0.128 6.55 2.81 12.25
4/21/2022 5:30:00 PM 6.26 43.268 0.127 6.55 2.7 12.25
4/21/2022 5:45:00 PM 6.28 43.304 0.127 6.54 2.73 12.25
4/21/2022 6:00:00 PM 6.31 43.358 0.126 6.54 2.61 12.24
4/21/2022 6:15:00 PM 6.35 43.43 0.125 6.54 2.67 12.23
4/21/2022 6:30:00 PM 6.38 43.484 0.125 6.53 2.69 12.22
4/21/2022 6:45:00 PM 6.4 43.52 0.124 6.53 2.5 12.21
4/21/2022 7:00:00 PM 6.42 43.556 0.124 6.53 2.73 12.21
4/21/2022 7:15:00 PM 6.42 43.556 0.123 6.53 2.5 12.21
4/21/2022 7:30:00 PM 6.42 43.556 0.123 6.53 2.53 12.21
4/21/2022 7:45:00 PM 6.42 43.556 0.122 6.52 2.57 12.21
4/21/2022 8:00:00 PM 6.4 43.52 0.122 6.51 2.39 12.21
4/21/2022 8:15:00 PM 6.38 43.484 0.122 6.5 2.42 12.22
4/21/2022 8:30:00 PM 6.37 43.466 0.121 6.5 2.43 12.23
4/21/2022 8:45:00 PM 6.38 43.484 0.121 6.5 2.5 12.23
4/21/2022 9:00:00 PM 6.37 43.466 0.121 6.5 2.43 12.23
4/21/2022 9:15:00 PM 6.36 43.448 0.121 6.49 2.38 12.23
4/21/2022 9:30:00 PM 6.36 43.448 0.121 6.48 2.46 12.24
4/21/2022 9:45:00 PM 6.35 43.43 0.12 6.49 2.19 12.24
4/21/2022 10:00:00 PM 6.34 43.412 0.12 6.49 2.33 12.24
4/21/2022 10:15:00 PM 6.35 43.43 0.12 6.48 2.32 12.25
4/21/2022 10:30:00 PM 6.35 43.43 0.12 6.48 2.24 12.24
4/21/2022 10:45:00 PM 6.37 43.466 0.12 6.49 2.17 12.24
4/21/2022 11:00:00 PM 6.39 43.502 0.12 6.47 2.17 12.24
4/21/2022 11:15:00 PM 6.41 43.538 0.12 6.49 2.12 12.23
4/21/2022 11:30:00 PM 6.43 43.574 0.12 6.48 2.14 12.22
4/21/2022 11:45:00 PM 6.44 43.592 0.12 6.48 2.19 12.22
4/22/2022 12:00:00 AM 6.46 43.628 0.12 6.48 2.07 12.21
4/22/2022 12:15:00 AM 6.48 43.664 0.119 6.49 2.22 12.21
4/22/2022 12:30:00 AM 6.5 43.7 0.119 6.48 2.09 12.2
4/22/2022 12:45:00 AM 6.51 43.718 0.119 6.48 2.02 12.2
4/22/2022 1:00:00 AM 6.52 43.736 0.119 6.49 2.09 12.2
4/22/2022 1:15:00 AM 6.51 43.718 0.119 6.48 2.05 12.2
4/22/2022 1:30:00 AM 6.5 43.7 0.119 6.49 1.96 12.2
4/22/2022 1:45:00 AM 6.48 43.664 0.119 6.48 2.05 12.21
4/22/2022 2:00:00 AM 6.45 43.61 0.119 6.48 2.04 12.21
4/22/2022 2:15:00 AM 6.42 43.556 0.119 6.47 2 12.22
4/22/2022 2:30:00 AM 6.39 43.502 0.119 6.47 2.01 12.23
4/22/2022 2:45:00 AM 6.36 43.448 0.119 6.47 2.03 12.25
4/22/2022 3:00:00 AM 6.33 43.394 0.119 6.47 1.94 12.25
4/22/2022 3:15:00 AM 6.3 43.34 0.119 6.46 1.96 12.26
4/22/2022 3:30:00 AM 6.27 43.286 0.118 6.47 1.91 12.27
4/22/2022 3:45:00 AM 6.23 43.214 0.118 6.46 1.92 12.28
4/22/2022 4:00:00 AM 6.2 43.16 0.118 6.46 1.88 12.29
4/22/2022 4:15:00 AM 6.17 43.106 0.118 6.46 1.9 12.31
4/22/2022 4:30:00 AM 6.14 43.052 0.118 6.46 1.93 12.32
4/22/2022 4:45:00 AM 6.11 42.998 0.118 6.45 1.91 12.33
4/22/2022 5:00:00 AM 6.08 42.944 0.118 6.46 1.86 12.34
4/22/2022 5:15:00 AM 6.06 42.908 0.118 6.46 1.89 12.36
4/22/2022 5:30:00 AM 6.03 42.854 0.118 6.46 1.87 12.37
4/22/2022 5:45:00 AM 6 42.8 0.118 6.46 1.95 12.38
4/22/2022 6:00:00 AM 5.97 42.746 0.117 6.46 1.87 12.39
4/22/2022 6:15:00 AM 5.94 42.692 0.117 6.45 1.88 12.41
4/22/2022 6:30:00 AM 5.91 42.638 0.117 6.46 1.81 12.42
4/22/2022 6:45:00 AM 5.89 42.602 0.117 6.45 1.86 12.43
4/22/2022 7:00:00 AM 5.87 42.566 0.117 6.43 1.83 12.44
4/22/2022 7:15:00 AM 5.84 42.512 0.117 6.46 1.81 12.45
4/22/2022 7:30:00 AM 5.83 42.494 0.117 6.45 1.74 12.46
4/22/2022 7:45:00 AM 5.83 42.494 0.117 6.46 1.79 12.47
4/22/2022 8:00:00 AM 5.84 42.512 0.117 6.46 1.75 12.47
4/22/2022 8:15:00 AM 5.87 42.566 0.117 6.45 1.72 12.46
4/22/2022 8:30:00 AM 5.92 42.656 0.116 6.46 1.67 12.45
4/22/2022 8:45:00 AM 5.99 42.782 0.116 6.46 1.79 12.43
4/22/2022 9:00:00 AM 6.06 42.908 0.116 6.47 1.72 12.41
4/22/2022 9:15:00 AM 6.15 43.07 0.116 6.48 1.84 12.39
4/22/2022 9:30:00 AM 6.26 43.268 0.116 6.47 1.66 12.35
4/22/2022 9:45:00 AM 6.37 43.466 0.116 6.47 1.68 12.32
4/22/2022 10:00:00 AM 6.49 43.682 0.116 6.48 1.65 12.29
4/22/2022 10:15:00 AM 6.62 43.916 0.115 6.48 1.69 12.24
4/22/2022 10:30:00 AM 6.76 44.168 0.115 6.49 1.66 12.2
4/22/2022 10:45:00 AM 6.91 44.438 0.115 6.49 1.65 12.14
4/22/2022 11:00:00 AM 7.07 44.726 0.115 6.49 1.64 12.1
4/22/2022 11:15:00 AM 7.24 45.032 0.115 6.49 1.69 12.05
4/22/2022 11:30:00 AM 7.41 45.338 0.114 6.49 1.68 11.99
4/22/2022 11:45:00 AM 7.59 45.662 0.114 6.49 1.66 11.93
4/22/2022 12:00:00 PM 7.75 45.95 0.114 6.5 1.74 11.88
4/22/2022 12:15:00 PM 7.88 46.184 0.114 6.51 1.66 11.84
4/22/2022 12:30:00 PM 7.96 46.328 0.114 6.51 1.75 11.82
4/22/2022 12:45:00 PM 8.05 46.49 0.114 6.51 1.71 11.78
4/22/2022 1:00:00 PM 8.11 46.598 0.113 6.51 1.73 11.76
4/22/2022 1:15:00 PM 8.12 46.616 0.113 6.52 1.69 11.75
4/22/2022 1:30:00 PM 8.11 46.598 0.113 6.52 1.71 11.75
4/22/2022 1:45:00 PM 8.08 46.544 0.113 6.52 1.71 11.76
4/22/2022 2:00:00 PM 8.05 46.49 0.113 6.52 1.71 11.77
4/22/2022 2:15:00 PM 8.05 46.49 0.113 6.51 1.76 11.77
4/22/2022 2:30:00 PM 8.14 46.652 0.112 6.51 1.78 11.74
4/22/2022 2:45:00 PM 8.23 46.814 0.112 6.51 1.74 11.72
4/22/2022 3:00:00 PM 8.34 47.012 0.112 6.51 1.74 11.68
4/22/2022 3:15:00 PM 8.41 47.138 0.112 6.52 1.77 11.66
4/22/2022 3:30:00 PM 8.45 47.21 0.112 6.52 1.71 11.64
4/22/2022 3:45:00 PM 8.45 47.21 0.111 6.52 1.73 11.64
4/22/2022 4:00:00 PM 8.42 47.156 0.111 6.52 1.91 11.65
4/22/2022 4:15:00 PM 8.37 47.066 0.111 6.52 1.77 11.66
4/22/2022 4:30:00 PM 8.32 46.976 0.111 6.52 1.85 11.67
4/22/2022 4:45:00 PM 8.29 46.922 0.111 6.52 1.74 11.68
4/22/2022 5:00:00 PM 8.25 46.85 0.111 6.51 1.76 11.68
4/22/2022 5:15:00 PM 8.24 46.832 0.111 6.51 1.7 11.68
4/22/2022 5:30:00 PM 8.22 46.796 0.11 6.51 1.74 11.69
4/22/2022 5:45:00 PM 8.2 46.76 0.11 6.51 1.71 11.69
4/22/2022 6:00:00 PM 8.16 46.688 0.11 6.51 1.73 11.7
4/22/2022 6:15:00 PM 8.13 46.634 0.11 6.5 1.75 11.72
4/22/2022 6:30:00 PM 8.08 46.544 0.11 6.5 1.7 11.73
4/22/2022 6:45:00 PM 8.03 46.454 0.11 6.49 1.73 11.74
4/22/2022 7:00:00 PM 7.99 46.382 0.11 6.49 1.7 11.75
4/22/2022 7:15:00 PM 7.95 46.31 0.109 6.48 1.69 11.76
4/22/2022 7:30:00 PM 7.91 46.238 0.109 6.48 1.8 11.77
4/22/2022 7:45:00 PM 7.87 46.166 0.109 6.48 1.72 11.78
4/22/2022 8:00:00 PM 7.83 46.094 0.109 6.47 1.67 11.8
4/22/2022 8:15:00 PM 7.78 46.004 0.109 6.46 1.72 11.8
4/22/2022 8:30:00 PM 7.74 45.932 0.109 6.46 1.69 11.81
4/22/2022 8:45:00 PM 7.7 45.86 0.108 6.45 1.75 11.82
4/22/2022 9:00:00 PM 7.66 45.788 0.108 6.46 1.73 11.84
4/22/2022 9:15:00 PM 7.63 45.734 0.108 6.45 1.75 11.85
4/22/2022 9:30:00 PM 7.6 45.68 0.108 6.45 1.72 11.85
4/22/2022 9:45:00 PM 7.57 45.626 0.108 6.45 1.74 11.86
4/22/2022 10:00:00 PM 7.54 45.572 0.108 6.44 1.7 11.87
4/22/2022 10:15:00 PM 7.52 45.536 0.108 6.44 1.69 11.88
4/22/2022 10:30:00 PM 7.5 45.5 0.107 6.44 1.63 11.89
4/22/2022 10:45:00 PM 7.48 45.464 0.107 6.44 1.67 11.9
4/22/2022 11:00:00 PM 7.47 45.446 0.107 6.44 1.69 11.9
4/22/2022 11:15:00 PM 7.46 45.428 0.107 6.44 1.66 11.91
4/22/2022 11:30:00 PM 7.45 45.41 0.107 6.44 1.64 11.91
4/22/2022 11:45:00 PM 7.44 45.392 0.106 6.43 1.68 11.91
4/23/2022 12:00:00 AM 7.43 45.374 0.106 6.43 1.68 11.92
4/23/2022 12:15:00 AM 7.42 45.356 0.106 6.44 1.7 11.92
4/23/2022 12:30:00 AM 7.41 45.338 0.106 6.44 1.6 11.92
4/23/2022 12:45:00 AM 7.4 45.32 0.106 6.43 1.68 11.92
4/23/2022 1:00:00 AM 7.39 45.302 0.106 6.42 1.69 11.92
4/23/2022 1:15:00 AM 7.37 45.266 0.105 6.39 1.63 11.92
4/23/2022 1:30:00 AM 7.35 45.23 0.105 6.43 1.66 11.93
4/23/2022 1:45:00 AM 7.35 45.23 0.105 6.42 1.74 11.93
4/23/2022 2:00:00 AM 7.34 45.212 0.105 6.42 1.65 11.93
4/23/2022 2:15:00 AM 7.34 45.212 0.105 6.42 1.65 11.93
4/23/2022 2:30:00 AM 7.34 45.212 0.104 6.42 1.61 11.93
4/23/2022 2:45:00 AM 7.32 45.176 0.104 6.43 1.71 11.93
4/23/2022 3:00:00 AM 7.31 45.158 0.104 6.43 2.46 11.94
4/23/2022 3:15:00 AM 7.3 45.14 0.104 6.43 1.63 11.94
4/23/2022 3:30:00 AM 7.28 45.104 0.104 6.43 1.7 11.95
4/23/2022 3:45:00 AM 7.27 45.086 0.103 6.43 1.61 11.95
4/23/2022 4:00:00 AM 7.26 45.068 0.103 6.42 1.58 11.95
4/23/2022 4:15:00 AM 7.25 45.05 0.103 6.43 1.61 11.96
4/23/2022 4:30:00 AM 7.25 45.05 0.103 6.42 1.64 11.96
4/23/2022 4:45:00 AM 7.24 45.032 0.103 6.42 1.6 11.96
4/23/2022 5:00:00 AM 7.23 45.014 0.103 6.42 1.63 11.96
4/23/2022 5:15:00 AM 7.22 44.996 0.102 6.43 1.67 11.96
4/23/2022 5:30:00 AM 7.21 44.978 0.102 6.43 1.63 11.96
4/23/2022 5:45:00 AM 7.2 44.96 0.102 6.43 1.57 11.96
4/23/2022 6:00:00 AM 7.19 44.942 0.102 6.42 1.67 11.97
4/23/2022 6:15:00 AM 7.18 44.924 0.102 6.42 1.64 11.97
4/23/2022 6:30:00 AM 7.18 44.924 0.101 6.41 1.58 11.97
4/23/2022 6:45:00 AM 7.17 44.906 0.101 6.41 1.56 11.97
4/23/2022 7:00:00 AM 7.17 44.906 0.101 6.41 1.61 11.97
4/23/2022 7:15:00 AM 7.16 44.888 0.101 6.42 1.66 11.98
4/23/2022 7:30:00 AM 7.16 44.888 0.101 6.42 1.58 11.98
4/23/2022 7:45:00 AM 7.16 44.888 0.101 6.42 1.64 11.98
4/23/2022 8:00:00 AM 7.16 44.888 0.1 6.41 1.59 11.98
4/23/2022 8:15:00 AM 7.17 44.906 0.1 6.42 1.64 11.98
4/23/2022 8:30:00 AM 7.17 44.906 0.1 6.42 1.6 11.99
4/23/2022 8:45:00 AM 7.18 44.924 0.1 6.42 1.6 11.99
4/23/2022 9:00:00 AM 7.18 44.924 0.1 6.42 1.61 11.98
4/23/2022 9:15:00 AM 7.18 44.924 0.099 6.42 1.66 11.99
4/23/2022 9:30:00 AM 7.18 44.924 0.099 6.42 1.65 11.99
4/23/2022 9:45:00 AM 7.17 44.906 0.099 6.42 1.74 11.99
4/23/2022 10:00:00 AM 7.18 44.924 0.099 6.42 1.73 11.99
4/23/2022 10:15:00 AM 7.19 44.942 0.099 6.42 1.72 11.98
4/23/2022 10:30:00 AM 7.22 44.996 0.099 6.41 1.73 11.97
4/23/2022 10:45:00 AM 7.27 45.086 0.099 6.42 1.62 11.96
4/23/2022 11:00:00 AM 7.43 45.374 0.098 6.41 1.78 11.92
4/23/2022 11:15:00 AM 7.56 45.608 0.098 6.42 1.8 11.87
4/23/2022 11:30:00 AM 7.66 45.788 0.098 6.43 1.71 11.84
4/23/2022 11:45:00 AM 7.75 45.95 0.098 6.43 1.69 11.81
4/23/2022 12:00:00 PM 7.85 46.13 0.098 6.43 1.66 11.79
4/23/2022 12:15:00 PM 8.05 46.49 0.098 6.44 1.71 11.72
4/23/2022 12:30:00 PM 8.2 46.76 0.098 6.42 1.73 11.67
4/23/2022 12:45:00 PM 8.28 46.904 0.098 6.44 1.65 11.64
4/23/2022 1:00:00 PM 8.4 47.12 0.098 6.44 1.63 11.61
4/23/2022 1:15:00 PM 8.55 47.39 0.098 6.44 1.64 11.56
4/23/2022 1:30:00 PM 8.73 47.714 0.098 6.44 1.73 11.5
4/23/2022 1:45:00 PM 8.91 48.038 0.097 6.44 1.65 11.44
4/23/2022 2:00:00 PM 9.06 48.308 0.097 6.44 1.74 11.4
4/23/2022 2:15:00 PM 9.18 48.524 0.097 6.44 1.82 11.37
4/23/2022 2:30:00 PM 9.28 48.704 0.097 6.44 1.8 11.34
4/23/2022 2:45:00 PM 9.35 48.83 0.097 6.44 1.64 11.3
4/23/2022 3:00:00 PM 9.43 48.974 0.096 6.45 1.71 11.27
4/23/2022 3:15:00 PM 9.5 49.1 0.096 6.44 1.72 11.25
4/23/2022 3:30:00 PM 9.55 49.19 0.096 6.45 1.76 11.24
4/23/2022 3:45:00 PM 9.6 49.28 0.096 6.44 1.75 11.22
4/23/2022 4:00:00 PM 9.63 49.334 0.096 6.44 1.82 11.2
4/23/2022 4:15:00 PM 9.65 49.37 0.096 6.44 1.75 11.2
4/23/2022 4:30:00 PM 9.67 49.406 0.096 6.44 1.8 11.18
4/23/2022 4:45:00 PM 9.67 49.406 0.095 6.44 1.77 11.18
4/23/2022 5:00:00 PM 9.66 49.388 0.095 6.44 1.89 11.19
4/23/2022 5:15:00 PM 9.63 49.334 0.095 6.44 1.77 11.19
4/23/2022 5:30:00 PM 9.59 49.262 0.095 6.43 1.87 11.19
4/23/2022 5:45:00 PM 9.55 49.19 0.095 6.43 1.75 11.2
4/23/2022 6:00:00 PM 9.49 49.082 0.095 6.42 1.83 11.22
4/23/2022 6:15:00 PM 9.43 48.974 0.094 6.42 1.87 11.23
4/23/2022 6:30:00 PM 9.37 48.866 0.094 6.42 1.79 11.25
4/23/2022 6:45:00 PM 9.31 48.758 0.094 6.41 1.74 11.27
4/23/2022 7:00:00 PM 9.26 48.668 0.094 6.4 1.77 11.28
4/23/2022 7:15:00 PM 9.2 48.56 0.094 6.4 1.71 11.3
4/23/2022 7:30:00 PM 9.16 48.488 0.094 6.4 1.79 11.31
4/23/2022 7:45:00 PM 9.1 48.38 0.094 6.38 1.82 11.33
4/23/2022 8:00:00 PM 9.04 48.272 0.093 6.39 1.75 11.34
4/23/2022 8:15:00 PM 8.98 48.164 0.093 6.38 1.77 11.36
4/23/2022 8:30:00 PM 8.92 48.056 0.093 6.38 1.89 11.38
4/23/2022 8:45:00 PM 8.86 47.948 0.093 6.38 1.77 11.4
4/23/2022 9:00:00 PM 8.8 47.84 0.093 6.37 1.84 11.41
4/23/2022 9:15:00 PM 8.75 47.75 0.093 6.36 1.8 11.42
4/23/2022 9:30:00 PM 8.7 47.66 0.093 6.37 1.91 11.44
4/23/2022 9:45:00 PM 8.65 47.57 0.093 6.36 1.82 11.46
4/23/2022 10:00:00 PM 8.61 47.498 0.092 6.36 1.79 11.47
4/23/2022 10:15:00 PM 8.56 47.408 0.093 6.36 1.84 11.49
4/23/2022 10:30:00 PM 8.53 47.354 0.092 6.37 1.9 11.5
4/23/2022 10:45:00 PM 8.49 47.282 0.092 6.36 1.89 11.51
4/23/2022 11:00:00 PM 8.45 47.21 0.092 6.36 1.88 11.52
4/23/2022 11:15:00 PM 8.41 47.138 0.092 6.35 1.86 11.53
4/23/2022 11:30:00 PM 8.37 47.066 0.092 6.36 1.9 11.54
4/23/2022 11:45:00 PM 8.34 47.012 0.092 6.35 1.86 11.55
4/24/2022 12:00:00 AM 8.3 46.94 0.091 6.35 1.9 11.56
4/24/2022 12:15:00 AM 8.27 46.886 0.091 6.35 1.85 11.57
4/24/2022 12:30:00 AM 8.23 46.814 0.091 6.34 1.78 11.57
4/24/2022 12:45:00 AM 8.2 46.76 0.091 6.34 1.77 11.58
4/24/2022 1:00:00 AM 8.17 46.706 0.091 6.35 1.86 11.59
4/24/2022 1:15:00 AM 8.14 46.652 0.091 6.34 1.72 11.6
4/24/2022 1:30:00 AM 8.11 46.598 0.091 6.34 1.87 11.61
4/24/2022 1:45:00 AM 8.09 46.562 0.091 6.34 1.75 11.62
4/24/2022 2:00:00 AM 8.06 46.508 0.091 6.34 1.83 11.62
4/24/2022 2:15:00 AM 8.03 46.454 0.091 6.34 1.91 11.63
4/24/2022 2:30:00 AM 8.01 46.418 0.09 6.34 1.85 11.64
4/24/2022 2:45:00 AM 7.98 46.364 0.09 6.33 1.8 11.64
4/24/2022 3:00:00 AM 7.95 46.31 0.09 6.3 1.75 11.65
4/24/2022 3:15:00 AM 7.92 46.256 0.09 6.33 1.74 11.66
4/24/2022 3:30:00 AM 7.9 46.22 0.09 6.33 1.88 11.67
4/24/2022 3:45:00 AM 7.87 46.166 0.09 6.33 1.79 11.68
4/24/2022 4:00:00 AM 7.84 46.112 0.09 6.32 1.73 11.68
4/24/2022 4:15:00 AM 7.82 46.076 0.09 6.32 1.81 11.69
4/24/2022 4:30:00 AM 7.8 46.04 0.09 6.32 1.69 11.7
4/24/2022 4:45:00 AM 7.78 46.004 0.09 6.31 1.75 11.71
4/24/2022 5:00:00 AM 7.76 45.968 0.09 6.32 1.79 11.71
4/24/2022 5:15:00 AM 7.74 45.932 0.089 6.32 1.78 11.72
4/24/2022 5:30:00 AM 7.72 45.896 0.089 6.32 1.74 11.72
4/24/2022 5:45:00 AM 7.7 45.86 0.089 6.31 1.75 11.73
4/24/2022 6:00:00 AM 7.68 45.824 0.089 6.31 1.69 11.74
4/24/2022 6:15:00 AM 7.67 45.806 0.089 6.31 1.73 11.74
4/24/2022 6:30:00 AM 7.65 45.77 0.089 6.31 1.73 11.75
4/24/2022 6:45:00 AM 7.64 45.752 0.089 6.31 1.67 11.75
4/24/2022 7:00:00 AM 7.64 45.752 0.089 6.31 1.77 11.76
4/24/2022 7:15:00 AM 7.64 45.752 0.089 6.27 1.75 11.76
4/24/2022 7:30:00 AM 7.65 45.77 0.089 6.31 1.67 11.76
4/24/2022 7:45:00 AM 7.67 45.806 0.088 6.3 1.7 11.76
4/24/2022 8:00:00 AM 7.7 45.86 0.088 6.31 1.76 11.75
4/24/2022 8:15:00 AM 7.74 45.932 0.088 6.31 1.69 11.75
4/24/2022 8:30:00 AM 7.8 46.04 0.088 6.32 1.76 11.73
4/24/2022 8:45:00 AM 7.88 46.184 0.088 6.32 1.7 11.72
4/24/2022 9:00:00 AM 7.96 46.328 0.088 6.33 1.65 11.7
4/24/2022 9:15:00 AM 8.07 46.526 0.088 6.34 1.7 11.66
4/24/2022 9:30:00 AM 8.2 46.76 0.088 6.34 1.65 11.62
4/24/2022 9:45:00 AM 8.33 46.994 0.088 6.35 1.68 11.59
4/24/2022 10:00:00 AM 8.48 47.264 0.088 6.35 1.69 11.55
4/24/2022 10:15:00 AM 8.64 47.552 0.087 6.35 1.69 11.5
4/24/2022 10:30:00 AM 8.82 47.876 0.087 6.34 1.65 11.45
4/24/2022 10:45:00 AM 9.03 48.254 0.087 6.35 1.71 11.39
4/24/2022 11:00:00 AM 9.25 48.65 0.087 6.36 1.79 11.33
4/24/2022 11:15:00 AM 9.5 49.1 0.087 6.35 1.8 11.25
4/24/2022 11:30:00 AM 9.67 49.406 0.087 6.37 1.73 11.2
4/24/2022 11:45:00 AM 9.93 49.874 0.087 6.37 1.86 11.13
4/24/2022 12:00:00 PM 10.17 50.306 0.087 6.38 1.78 11.06
4/24/2022 12:15:00 PM 10.39 50.702 0.087 6.38 1.85 11
4/24/2022 12:30:00 PM 10.53 50.954 0.087 6.38 1.85 10.95
4/24/2022 12:45:00 PM 10.63 51.134 0.086 6.38 1.83 10.93
4/24/2022 1:00:00 PM 10.79 51.422 0.086 6.39 1.9 10.88
4/24/2022 1:15:00 PM 10.96 51.728 0.086 6.39 1.96 10.83
4/24/2022 1:30:00 PM 11.11 51.998 0.086 6.38 1.81 10.79
4/24/2022 1:45:00 PM 11.21 52.178 0.086 6.39 1.85 10.76
4/24/2022 2:00:00 PM 11.33 52.394 0.086 6.4 1.81 10.73
4/24/2022 2:15:00 PM 11.42 52.556 0.086 6.4 1.86 10.7
4/24/2022 2:30:00 PM 11.46 52.628 0.086 6.4 1.96 10.69
4/24/2022 2:45:00 PM 11.46 52.628 0.086 6.4 1.9 10.68
4/24/2022 3:00:00 PM 11.53 52.754 0.086 6.4 1.92 10.67
4/24/2022 3:15:00 PM 11.57 52.826 0.086 6.41 2.08 10.66
4/24/2022 3:30:00 PM 11.6 52.88 0.086 6.41 2.01 10.65
4/24/2022 3:45:00 PM 11.59 52.862 0.086 6.41 2.03 10.65
4/24/2022 4:00:00 PM 11.55 52.79 0.086 6.41 2.08 10.66
4/24/2022 4:15:00 PM 11.57 52.826 0.086 6.41 2.05 10.65
4/24/2022 4:30:00 PM 11.6 52.88 0.086 6.41 2 10.64
4/24/2022 4:45:00 PM 11.58 52.844 0.086 6.41 2.1 10.64
4/24/2022 5:00:00 PM 11.53 52.754 0.086 6.41 2.14 10.65
4/24/2022 5:15:00 PM 11.48 52.664 0.086 6.4 2.07 10.66
4/24/2022 5:30:00 PM 11.41 52.538 0.086 6.41 2.13 10.68
4/24/2022 5:45:00 PM 11.32 52.376 0.085 6.41 2.08 10.7
4/24/2022 6:00:00 PM 11.26 52.268 0.086 6.41 2.06 10.72
4/24/2022 6:15:00 PM 11.18 52.124 0.085 6.41 1.99 10.74
4/24/2022 6:30:00 PM 11.11 51.998 0.085 6.41 2.01 10.75
4/24/2022 6:45:00 PM 11.03 51.854 0.085 6.4 2.27 10.77
4/24/2022 7:00:00 PM 10.93 51.674 0.085 6.39 2.67 10.79
4/24/2022 7:15:00 PM 10.85 51.53 0.085 6.38 2.39 10.81
4/24/2022 7:30:00 PM 10.77 51.386 0.085 6.38 2.41 10.83
4/24/2022 7:45:00 PM 10.7 51.26 0.085 6.37 1.94 10.85
4/24/2022 8:00:00 PM 10.62 51.116 0.085 6.36 1.97 10.87
4/24/2022 8:15:00 PM 10.54 50.972 0.085 6.35 2.07 10.9
4/24/2022 8:30:00 PM 10.46 50.828 0.085 6.34 2.03 10.92
4/24/2022 8:45:00 PM 10.39 50.702 0.085 6.34 1.97 10.94
4/24/2022 9:00:00 PM 10.32 50.576 0.085 6.33 2.05 10.96
4/24/2022 9:15:00 PM 10.27 50.486 0.085 6.33 2.08 10.97
4/24/2022 9:30:00 PM 10.21 50.378 0.085 6.33 2.12 10.98
4/24/2022 9:45:00 PM 10.17 50.306 0.085 6.31 2.09 11
4/24/2022 10:00:00 PM 10.12 50.216 0.085 6.32 2.03 11.01
4/24/2022 10:15:00 PM 10.08 50.144 0.085 6.32 2.07 11.02
4/24/2022 10:30:00 PM 10.04 50.072 0.085 6.32 2.15 11.02
4/24/2022 10:45:00 PM 10 50 0.085 6.32 2.12 11.04
4/24/2022 11:00:00 PM 9.96 49.928 0.085 6.32 2.05 11.05
4/24/2022 11:15:00 PM 9.92 49.856 0.085 6.28 2.04 11.06
4/24/2022 11:30:00 PM 9.89 49.802 0.085 6.31 2.09 11.08
4/24/2022 11:45:00 PM 9.85 49.73 0.085 6.31 2 11.08
4/25/2022 12:00:00 AM 9.81 49.658 0.085 6.31 2 11.09
4/25/2022 12:15:00 AM 9.78 49.604 0.085 6.31 2.06 11.1
4/25/2022 12:30:00 AM 9.75 49.55 0.085 6.31 1.97 11.11
4/25/2022 12:45:00 AM 9.71 49.478 0.085 6.31 2.08 11.12
4/25/2022 1:00:00 AM 9.68 49.424 0.085 6.31 1.94 11.13
4/25/2022 1:15:00 AM 9.65 49.37 0.085 6.3 2.01 11.13
4/25/2022 1:30:00 AM 9.62 49.316 0.085 6.3 2.05 11.15
4/25/2022 1:45:00 AM 9.59 49.262 0.085 6.3 1.98 11.15
4/25/2022 2:00:00 AM 9.57 49.226 0.085 6.3 2.02 11.16
4/25/2022 2:15:00 AM 9.54 49.172 0.085 6.3 2.03 11.16
4/25/2022 2:30:00 AM 9.53 49.154 0.085 6.31 2.02 11.17
4/25/2022 2:45:00 AM 9.51 49.118 0.085 6.31 2.01 11.18
4/25/2022 3:00:00 AM 9.49 49.082 0.084 6.32 2.22 11.18
4/25/2022 3:15:00 AM 9.47 49.046 0.084 6.31 2 11.18
4/25/2022 3:30:00 AM 9.45 49.01 0.084 6.3 2.12 11.19
4/25/2022 3:45:00 AM 9.42 48.956 0.084 6.3 1.98 11.2
4/25/2022 4:00:00 AM 9.4 48.92 0.084 6.3 2.06 11.21
4/25/2022 4:15:00 AM 9.37 48.866 0.084 6.3 2 11.21
4/25/2022 4:30:00 AM 9.34 48.812 0.084 6.29 2 11.23
4/25/2022 4:45:00 AM 9.32 48.776 0.084 6.3 1.97 11.24
4/25/2022 5:00:00 AM 9.29 48.722 0.084 6.3 1.95 11.24
4/25/2022 5:15:00 AM 9.27 48.686 0.084 6.29 1.97 11.25
4/25/2022 5:30:00 AM 9.25 48.65 0.084 6.29 1.94 11.26
4/25/2022 5:45:00 AM 9.22 48.596 0.084 6.29 2.02 11.27
4/25/2022 6:00:00 AM 9.19 48.542 0.084 6.29 1.99 11.27
4/25/2022 6:15:00 AM 9.17 48.506 0.084 6.28 1.98 11.28
4/25/2022 6:30:00 AM 9.14 48.452 0.084 6.28 2.06 11.29
4/25/2022 6:45:00 AM 9.12 48.416 0.084 6.28 1.85 11.3
4/25/2022 7:00:00 AM 9.11 48.398 0.084 6.28 1.92 11.31
4/25/2022 7:15:00 AM 9.1 48.38 0.084 6.23 1.95 11.31
4/25/2022 7:30:00 AM 9.09 48.362 0.084 6.28 1.91 11.31
4/25/2022 7:45:00 AM 9.1 48.38 0.084 6.28 2.06 11.32
4/25/2022 8:00:00 AM 9.12 48.416 0.084 6.28 1.9 11.31
4/25/2022 8:15:00 AM 9.15 48.47 0.084 6.29 2.1 11.31
4/25/2022 8:30:00 AM 9.21 48.578 0.084 6.3 1.99 11.3
4/25/2022 8:45:00 AM 9.28 48.704 0.084 6.32 1.91 11.28
4/25/2022 9:00:00 AM 9.34 48.812 0.084 6.33 2.06 11.26
4/25/2022 9:15:00 AM 9.44 48.992 0.084 6.33 1.95 11.23
4/25/2022 9:30:00 AM 9.55 49.19 0.084 6.33 1.95 11.21
4/25/2022 9:45:00 AM 9.68 49.424 0.084 6.34 1.93 11.17
4/25/2022 10:00:00 AM 9.82 49.676 0.083 6.34 2.05 11.14
4/25/2022 10:15:00 AM 9.96 49.928 0.083 6.34 1.92 11.09
4/25/2022 10:30:00 AM 10.13 50.234 0.083 6.34 1.94 11.05
4/25/2022 10:45:00 AM 10.3 50.54 0.083 6.34 1.85 11.01
4/25/2022 11:00:00 AM 10.47 50.846 0.083 6.35 1.95 10.96
4/25/2022 11:15:00 AM 10.65 51.17 0.083 6.34 1.89 10.9
4/25/2022 11:30:00 AM 10.84 51.512 0.083 6.33 1.91 10.85
4/25/2022 11:45:00 AM 11.06 51.908 0.083 6.35 2 10.8
4/25/2022 12:00:00 PM 11.27 52.286 0.083 6.35 1.96 10.74
4/25/2022 12:15:00 PM 11.35 52.43 0.083 6.37 2.01 10.7
4/25/2022 12:30:00 PM 11.41 52.538 0.083 6.36 1.95 10.69
4/25/2022 12:45:00 PM 11.4 52.52 0.083 6.36 1.93 10.69
4/25/2022 1:00:00 PM 11.44 52.592 0.083 6.37 1.96 10.68
4/25/2022 1:15:00 PM 11.57 52.826 0.083 6.38 2.05 10.65
4/25/2022 1:30:00 PM 11.65 52.97 0.083 6.37 1.95 10.63
4/25/2022 1:45:00 PM 11.87 53.366 0.083 6.38 2.13 10.58
4/25/2022 2:00:00 PM 12.04 53.672 0.083 6.38 2.05 10.53
4/25/2022 2:15:00 PM 12.12 53.816 0.083 6.39 1.97 10.5
4/25/2022 2:30:00 PM 12.17 53.906 0.083 6.39 2.09 10.49
4/25/2022 2:45:00 PM 12.18 53.924 0.083 6.38 1.96 10.48
4/25/2022 3:00:00 PM 12.18 53.924 0.083 6.39 2.06 10.48
4/25/2022 3:15:00 PM 12.12 53.816 0.083 6.34 2.11 10.49
4/25/2022 3:30:00 PM 12.08 53.744 0.083 6.38 1.99 10.5
4/25/2022 3:45:00 PM 12.07 53.726 0.083 6.39 2.02 10.5
4/25/2022 4:00:00 PM 12.04 53.672 0.083 6.38 2.13 10.5
4/25/2022 4:15:00 PM 12 53.6 0.083 6.38 2.01 10.51
4/25/2022 4:30:00 PM 12.01 53.618 0.083 6.39 2.13 10.51
4/25/2022 4:45:00 PM 11.96 53.528 0.083 6.38 2.18 10.52
4/25/2022 5:00:00 PM 11.88 53.384 0.083 6.38 2.09 10.54
4/25/2022 5:15:00 PM 11.84 53.312 0.083 6.38 2.15 10.56
4/25/2022 5:30:00 PM 11.8 53.24 0.083 6.38 2.04 10.56
4/25/2022 5:45:00 PM 11.77 53.186 0.083 6.39 2.04 10.57
4/25/2022 6:00:00 PM 11.75 53.15 0.083 6.38 2.06 10.57
4/25/2022 6:15:00 PM 11.69 53.042 0.083 6.38 2.27 10.58
4/25/2022 6:30:00 PM 11.6 52.88 0.083 6.33 5.73 10.6
4/25/2022 6:45:00 PM 11.49 52.682 0.083 6.37 4.76 10.63
4/25/2022 7:00:00 PM 11.4 52.52 0.083 6.37 2.43 10.65
4/25/2022 7:15:00 PM 11.32 52.376 0.083 6.37 2.33 10.67
4/25/2022 7:30:00 PM 11.25 52.25 0.083 6.37 2.31 10.69
4/25/2022 7:45:00 PM 11.19 52.142 0.083 6.37 2.18 10.71
4/25/2022 8:00:00 PM 11.14 52.052 0.083 6.37 2.32 10.73
4/25/2022 8:15:00 PM 11.08 51.944 0.083 6.37 2.18 10.74
4/25/2022 8:30:00 PM 11.02 51.836 0.083 6.38 2.19 10.76
4/25/2022 8:45:00 PM 10.96 51.728 0.083 6.37 2.28 10.78
4/25/2022 9:00:00 PM 10.9 51.62 0.083 6.36 2.23 10.79
4/25/2022 9:15:00 PM 10.85 51.53 0.083 6.37 2.17 10.81
4/25/2022 9:30:00 PM 10.79 51.422 0.083 6.37 2.28 10.82
4/25/2022 9:45:00 PM 10.75 51.35 0.083 6.37 2.3 10.83
4/25/2022 10:00:00 PM 10.7 51.26 0.083 6.33 2.21 10.85
4/25/2022 10:15:00 PM 10.65 51.17 0.083 6.36 2.08 10.86
4/25/2022 10:30:00 PM 10.6 51.08 0.083 6.36 2.17 10.88
4/25/2022 10:45:00 PM 10.54 50.972 0.083 6.35 2.19 10.9
4/25/2022 11:00:00 PM 10.49 50.882 0.083 6.34 2.25 10.91
4/25/2022 11:15:00 PM 10.45 50.81 0.083 6.34 2.1 10.92
4/25/2022 11:30:00 PM 10.42 50.756 0.083 6.34 2.19 10.93
4/25/2022 11:45:00 PM 10.39 50.702 0.082 6.34 2.12 10.93
4/26/2022 12:00:00 AM 10.37 50.666 0.082 6.33 2.15 10.94
4/26/2022 12:15:00 AM 10.35 50.63 0.083 6.34 2.13 10.95
4/26/2022 12:30:00 AM 10.32 50.576 0.083 6.35 2.34 10.95
4/26/2022 12:45:00 AM 10.3 50.54 0.083 6.34 2.21 10.96
4/26/2022 1:00:00 AM 10.28 50.504 0.083 6.34 2.14 10.97
4/26/2022 1:15:00 AM 10.26 50.468 0.083 6.34 2.24 10.97
4/26/2022 1:30:00 AM 10.23 50.414 0.083 6.33 2.2 10.98
4/26/2022 1:45:00 AM 10.21 50.378 0.083 6.34 2.21 10.98
4/26/2022 2:00:00 AM 10.19 50.342 0.083 6.33 2.25 10.99
4/26/2022 2:15:00 AM 10.18 50.324 0.083 6.33 2.35 10.99
4/26/2022 2:30:00 AM 10.16 50.288 0.083 6.34 2.26 10.99
4/26/2022 2:45:00 AM 10.14 50.252 0.083 6.33 2.28 10.99
4/26/2022 3:00:00 AM 10.13 50.234 0.083 6.29 2.32 11
4/26/2022 3:15:00 AM 10.11 50.198 0.083 6.31 2.26 11
4/26/2022 3:30:00 AM 10.1 50.18 0.083 6.31 2.21 11
4/26/2022 3:45:00 AM 10.09 50.162 0.083 6.28 2.15 11.01
4/26/2022 4:00:00 AM 10.09 50.162 0.083 6.35 2.15 11.01
4/26/2022 4:15:00 AM 10.07 50.126 0.083 6.36 2.18 11.01
4/26/2022 4:30:00 AM 10.04 50.072 0.083 6.33 2.21 11.03
4/26/2022 4:45:00 AM 10.01 50.018 0.083 6.35 2.35 11.04
4/26/2022 5:00:00 AM 9.98 49.964 0.083 6.36 2.24 11.04
4/26/2022 5:15:00 AM 9.95 49.91 0.084 6.36 2.19 11.06
4/26/2022 5:30:00 AM 9.93 49.874 0.083 6.36 2.2 11.07
4/26/2022 5:45:00 AM 9.9 49.82 0.084 6.34 2.18 11.07
4/26/2022 6:00:00 AM 9.87 49.766 0.084 6.36 2 11.08
4/26/2022 6:15:00 AM 9.85 49.73 0.084 6.35 2.2 11.1
4/26/2022 6:30:00 AM 9.83 49.694 0.084 6.35 2.1 11.1
4/26/2022 6:45:00 AM 9.8 49.64 0.084 6.36 2.21 11.11
4/26/2022 7:00:00 AM 9.78 49.604 0.084 6.35 2.13 11.11
4/26/2022 7:15:00 AM 9.76 49.568 0.084 6.35 2.06 11.12
4/26/2022 7:30:00 AM 9.75 49.55 0.084 6.31 2.09 11.12
4/26/2022 7:45:00 AM 9.73 49.514 0.084 6.35 2.18 11.13
4/26/2022 8:00:00 AM 9.72 49.496 0.084 6.36 2.1 11.14
4/26/2022 8:15:00 AM 9.71 49.478 0.084 6.36 2.08 11.14
4/26/2022 8:30:00 AM 9.7 49.46 0.084 6.33 2.1 11.14
4/26/2022 8:45:00 AM 9.69 49.442 0.084 6.36 2.08 11.15
4/26/2022 9:00:00 AM 9.68 49.424 0.084 6.35 1.98 11.15
4/26/2022 9:15:00 AM 9.68 49.424 0.084 6.35 2.04 11.15
4/26/2022 9:30:00 AM 9.68 49.424 0.084 6.36 2.05 11.15
4/26/2022 9:45:00 AM 9.67 49.406 0.084 6.35 1.94 11.16
4/26/2022 10:00:00 AM 9.67 49.406 0.084 6.36 2.01 11.15
4/26/2022 10:15:00 AM 9.67 49.406 0.084 6.35 1.96 11.16
4/26/2022 10:30:00 AM 9.69 49.442 0.084 6.34 2 11.16
4/26/2022 10:45:00 AM 9.71 49.478 0.084 6.34 1.94 11.16
4/26/2022 11:00:00 AM 9.72 49.496 0.084 6.35 2.09 11.15
4/26/2022 11:15:00 AM 9.7 49.46 0.084 6.36 1.87 11.16
4/26/2022 11:30:00 AM 9.7 49.46 0.084 6.31 1.98 11.16
4/26/2022 11:45:00 AM 9.72 49.496 0.084 6.36 2.09 11.15
4/26/2022 12:00:00 PM 9.75 49.55 0.084 6.31 2.01 11.14
4/26/2022 12:15:00 PM 9.77 49.586 0.084 6.36 1.99 11.14
4/26/2022 12:30:00 PM 9.79 49.622 0.084 6.36 1.94 11.14
4/26/2022 12:45:00 PM 9.79 49.622 0.084 6.35 2.08 11.12
4/26/2022 1:00:00 PM 9.77 49.586 0.084 6.33 1.94 11.12
4/26/2022 1:15:00 PM 9.76 49.568 0.084 6.35 2 11.12
4/26/2022 1:30:00 PM 9.74 49.532 0.084 6.35 1.84 11.13
4/26/2022 1:45:00 PM 9.72 49.496 0.084 6.35 1.98 11.14
4/26/2022 2:00:00 PM 9.68 49.424 0.084 6.34 1.93 11.14
4/26/2022 2:15:00 PM 9.65 49.37 0.084 6.34 2.03 11.14
4/26/2022 2:30:00 PM 9.64 49.352 0.084 6.34 1.95 11.16
4/26/2022 2:45:00 PM 9.64 49.352 0.084 6.36 1.88 11.16
4/26/2022 3:00:00 PM 9.64 49.352 0.084 6.35 1.93 11.15
4/26/2022 3:15:00 PM 9.64 49.352 0.084 6.35 1.92 11.15
4/26/2022 3:30:00 PM 9.62 49.316 0.084 6.35 1.88 11.16
4/26/2022 3:45:00 PM 9.59 49.262 0.084 6.35 1.91 11.16
4/26/2022 4:00:00 PM 9.57 49.226 0.084 6.35 1.96 11.16
4/26/2022 4:15:00 PM 9.56 49.208 0.084 6.36 1.99 11.17
4/26/2022 4:30:00 PM 9.57 49.226 0.084 6.36 1.92 11.16
4/26/2022 4:45:00 PM 9.56 49.208 0.084 6.35 1.91 11.17
4/26/2022 5:00:00 PM 9.57 49.226 0.084 6.36 1.93 11.17
4/26/2022 5:15:00 PM 9.54 49.172 0.084 6.35 1.84 11.18
4/26/2022 5:30:00 PM 9.52 49.136 0.084 6.35 1.89 11.17
4/26/2022 5:45:00 PM 9.5 49.1 0.083 6.35 1.95 11.19
4/26/2022 6:00:00 PM 9.47 49.046 0.083 6.35 1.9 11.19
4/26/2022 6:15:00 PM 9.43 48.974 0.083 6.35 1.92 11.2
4/26/2022 6:30:00 PM 9.39 48.902 0.083 6.35 2.04 11.21
4/26/2022 6:45:00 PM 9.33 48.794 0.083 6.32 1.88 11.23
4/26/2022 7:00:00 PM 9.29 48.722 0.083 6.33 1.91 11.24
4/26/2022 7:15:00 PM 9.24 48.632 0.084 6.34 1.93 11.26
4/26/2022 7:30:00 PM 9.19 48.542 0.083 6.35 1.91 11.27
4/26/2022 7:45:00 PM 9.13 48.434 0.083 6.35 1.96 11.29
4/26/2022 8:00:00 PM 9.08 48.344 0.083 6.34 1.82 11.3
4/26/2022 8:15:00 PM 9.04 48.272 0.083 6.34 1.82 11.31
4/26/2022 8:30:00 PM 8.99 48.182 0.083 6.34 1.98 11.32
4/26/2022 8:45:00 PM 8.94 48.092 0.083 6.34 1.89 11.33
4/26/2022 9:00:00 PM 8.9 48.02 0.083 6.33 1.99 11.35
4/26/2022 9:15:00 PM 8.85 47.93 0.083 6.32 1.93 11.36
4/26/2022 9:30:00 PM 8.79 47.822 0.083 6.33 2.02 11.38
4/26/2022 9:45:00 PM 8.74 47.732 0.083 6.34 1.95 11.4
4/26/2022 10:00:00 PM 8.69 47.642 0.084 6.33 1.95 11.42
4/26/2022 10:15:00 PM 8.63 47.534 0.084 6.33 1.96 11.44
4/26/2022 10:30:00 PM 8.58 47.444 0.084 6.33 1.96 11.46
4/26/2022 10:45:00 PM 8.53 47.354 0.084 6.33 2 11.47
4/26/2022 11:00:00 PM 8.48 47.264 0.084 6.33 1.87 11.48
4/26/2022 11:15:00 PM 8.43 47.174 0.083 6.32 1.92 11.5
4/26/2022 11:30:00 PM 8.39 47.102 0.083 6.28 1.87 11.51
4/26/2022 11:45:00 PM 8.34 47.012 0.083 6.32 1.88 11.52
4/27/2022 12:00:00 AM 8.29 46.922 0.083 6.31 1.82 11.54
4/27/2022 12:15:00 AM 8.25 46.85 0.083 6.28 1.86 11.55
4/27/2022 12:30:00 AM 8.21 46.778 0.083 6.32 1.85 11.55
4/27/2022 12:45:00 AM 8.17 46.706 0.083 6.32 1.78 11.57
4/27/2022 1:00:00 AM 8.13 46.634 0.083 6.31 1.91 11.58
4/27/2022 1:15:00 AM 8.1 46.58 0.083 6.31 1.84 11.59
4/27/2022 1:30:00 AM 8.07 46.526 0.084 6.31 1.95 11.6
4/27/2022 1:45:00 AM 8.04 46.472 0.083 6.31 1.94 11.61
4/27/2022 2:00:00 AM 8 46.4 0.083 6.29 1.88 11.62
4/27/2022 2:15:00 AM 7.87 46.166 0.083 6.28 1.94 11.65
4/27/2022 2:30:00 AM 7.88 46.184 0.083 6.27 1.95 11.65
4/27/2022 2:45:00 AM 7.82 46.076 0.083 6.26 1.87 11.67
4/27/2022 3:00:00 AM 7.77 45.986 0.083 6.27 1.82 11.69
4/27/2022 3:15:00 AM 7.72 45.896 0.083 6.21 1.89 11.7
4/27/2022 3:30:00 AM 7.68 45.824 0.083 6.26 1.96 11.71
4/27/2022 3:45:00 AM 7.62 45.716 0.083 6.26 1.8 11.73
4/27/2022 4:00:00 AM 7.58 45.644 0.083 6.27 1.78 11.74
4/27/2022 4:15:00 AM 7.52 45.536 0.083 6.25 2.01 11.75
4/27/2022 4:30:00 AM 7.45 45.41 0.083 6.26 1.84 11.77
4/27/2022 4:45:00 AM 7.37 45.266 0.084 6.27 1.82 11.8
4/27/2022 5:00:00 AM 7.3 45.14 0.084 6.26 1.81 11.82
4/27/2022 5:15:00 AM 7.25 45.05 0.084 6.26 1.79 11.84
4/27/2022 5:30:00 AM 7.2 44.96 0.084 6.26 1.81 11.85
4/27/2022 5:45:00 AM 7.16 44.888 0.084 6.26 1.76 11.86
4/27/2022 6:00:00 AM 7.12 44.816 0.084 6.26 1.78 11.88
4/27/2022 6:15:00 AM 7.08 44.744 0.084 6.26 1.77 11.89
4/27/2022 6:30:00 AM 7.04 44.672 0.084 6.27 1.7 11.9
4/27/2022 6:45:00 AM 6.99 44.582 0.084 6.26 1.65 11.92
4/27/2022 7:00:00 AM 6.93 44.474 0.084 6.26 1.68 11.93
4/27/2022 7:15:00 AM 6.9 44.42 0.084 6.27 1.77 11.95
4/27/2022 7:30:00 AM 6.88 44.384 0.084 6.26 1.73 11.96
4/27/2022 7:45:00 AM 6.88 44.384 0.084 6.27 1.63 11.97
4/27/2022 8:00:00 AM 6.87 44.366 0.084 6.28 1.67 11.97
4/27/2022 8:15:00 AM 6.89 44.402 0.084 6.28 1.65 11.97
4/27/2022 8:30:00 AM 6.92 44.456 0.084 6.28 1.66 11.96
4/27/2022 8:45:00 AM 6.91 44.438 0.084 6.28 1.63 11.96
4/27/2022 9:00:00 AM 6.91 44.438 0.084 6.29 1.61 11.96
4/27/2022 9:15:00 AM 6.89 44.402 0.084 6.29 1.63 11.96
4/27/2022 9:30:00 AM 6.86 44.348 0.084 6.29 1.69 11.97
4/27/2022 9:45:00 AM 6.86 44.348 0.084 6.29 1.59 11.98
4/27/2022 10:00:00 AM 6.87 44.366 0.084 6.29 1.66 11.98
4/27/2022 10:15:00 AM 6.9 44.42 0.084 6.26 1.64 11.98
4/27/2022 10:30:00 AM 6.93 44.474 0.084 6.25 1.61 11.96
4/27/2022 10:45:00 AM 6.98 44.564 0.084 6.3 1.6 11.95
4/27/2022 11:00:00 AM 7.01 44.618 0.084 6.27 1.67 11.94
4/27/2022 11:15:00 AM 7.02 44.636 0.084 6.29 1.61 11.93
4/27/2022 11:30:00 AM 7.03 44.654 0.084 6.3 1.57 11.93
4/27/2022 11:45:00 AM 7.03 44.654 0.084 6.29 1.64 11.93
4/27/2022 12:00:00 PM 6.98 44.564 0.084 6.3 1.62 11.94
4/27/2022 12:15:00 PM 6.97 44.546 0.084 6.3 1.57 11.95
4/27/2022 12:30:00 PM 6.9 44.42 0.084 6.3 1.61 11.95
4/27/2022 12:45:00 PM 6.88 44.384 0.084 6.29 1.62 11.97
4/27/2022 1:00:00 PM 6.9 44.42 0.084 6.3 1.63 11.97
4/27/2022 1:15:00 PM 6.92 44.456 0.084 6.3 1.6 11.97
4/27/2022 1:30:00 PM 6.94 44.492 0.084 6.28 1.59 11.96
4/27/2022 1:45:00 PM 6.92 44.456 0.084 6.29 1.66 11.97
4/27/2022 2:00:00 PM 6.91 44.438 0.084 6.29 1.74 11.97
4/27/2022 2:15:00 PM 6.92 44.456 0.084 6.3 1.59 11.97
4/27/2022 2:30:00 PM 6.94 44.492 0.084 6.29 1.6 11.97
4/27/2022 2:45:00 PM 6.92 44.456 0.084 6.29 1.64 11.96
4/27/2022 3:00:00 PM 6.89 44.402 0.084 6.29 1.57 11.97
4/27/2022 3:15:00 PM 6.89 44.402 0.084 6.29 1.7 11.98
4/27/2022 3:30:00 PM 6.87 44.366 0.084 6.29 1.6 11.98
4/27/2022 3:45:00 PM 6.8 44.24 0.084 6.29 1.62 12
4/27/2022 4:00:00 PM 6.76 44.168 0.084 6.28 1.67 12.02
4/27/2022 4:15:00 PM 6.72 44.096 0.084 6.29 1.6 12.03
4/27/2022 4:30:00 PM 6.7 44.06 0.084 6.25 1.83 12.04
4/27/2022 4:45:00 PM 6.7 44.06 0.084 6.29 1.66 12.05
4/27/2022 5:00:00 PM 6.68 44.024 0.084 6.29 1.59 12.05
4/27/2022 5:15:00 PM 6.67 44.006 0.084 6.29 1.56 12.05
4/27/2022 5:30:00 PM 6.63 43.934 0.084 6.28 1.6 12.06
4/27/2022 5:45:00 PM 6.6 43.88 0.084 6.26 1.55 12.07
4/27/2022 6:00:00 PM 6.55 43.79 0.084 6.28 1.71 12.09
4/27/2022 6:15:00 PM 6.46 43.628 0.084 6.28 1.65 12.11
4/27/2022 6:30:00 PM 6.43 43.574 0.084 6.28 1.61 12.13
4/27/2022 6:45:00 PM 6.39 43.502 0.084 6.28 1.64 12.14
4/27/2022 7:00:00 PM 6.37 43.466 0.084 6.28 1.53 12.14
4/27/2022 7:15:00 PM 6.32 43.376 0.084 6.28 1.63 12.15
4/27/2022 7:30:00 PM 6.27 43.286 0.084 6.27 1.62 12.17
4/27/2022 7:45:00 PM 6.22 43.196 0.084 6.27 1.58 12.19
4/27/2022 8:00:00 PM 6.17 43.106 0.084 6.26 1.56 12.21
4/27/2022 8:15:00 PM 6.11 42.998 0.084 6.25 1.57 12.23
4/27/2022 8:30:00 PM 6.07 42.926 0.084 6.24 1.54 12.24
4/27/2022 8:45:00 PM 6.04 42.872 0.084 6.25 1.54 12.26
4/27/2022 9:00:00 PM 6.01 42.818 0.084 6.24 1.56 12.27
4/27/2022 9:15:00 PM 5.98 42.764 0.084 6.25 1.63 12.28
4/27/2022 9:30:00 PM 5.95 42.71 0.084 6.25 1.55 12.29
4/27/2022 9:45:00 PM 5.93 42.674 0.084 6.25 1.54 12.29
4/27/2022 10:00:00 PM 5.9 42.62 0.084 6.25 1.59 12.3
4/27/2022 10:15:00 PM 5.87 42.566 0.084 6.22 1.57 12.31
4/27/2022 10:30:00 PM 5.85 42.53 0.084 6.25 1.61 12.32
4/27/2022 10:45:00 PM 5.81 42.458 0.084 6.25 1.54 12.34
4/27/2022 11:00:00 PM 5.78 42.404 0.084 6.25 1.6 12.35
4/27/2022 11:15:00 PM 5.75 42.35 0.084 6.25 1.58 12.35
4/27/2022 11:30:00 PM 5.71 42.278 0.084 6.25 1.52 12.37
4/27/2022 11:45:00 PM 5.68 42.224 0.084 6.25 1.54 12.38
4/28/2022 12:00:00 AM 5.66 42.188 0.084 6.25 1.52 12.38
4/28/2022 12:15:00 AM 5.64 42.152 0.084 6.24 1.57 12.4
4/28/2022 12:30:00 AM 5.62 42.116 0.084 6.25 1.55 12.4
4/28/2022 12:45:00 AM 5.6 42.08 0.084 6.25 1.52 12.4
4/28/2022 1:00:00 AM 5.58 42.044 0.084 6.24 1.58 12.41
4/28/2022 1:15:00 AM 5.54 41.972 0.084 6.25 1.53 12.43
4/28/2022 1:30:00 AM 5.51 41.918 0.084 6.25 1.51 12.44
4/28/2022 1:45:00 AM 5.48 41.864 0.084 6.25 1.53 12.45
4/28/2022 2:00:00 AM 5.47 41.846 0.084 6.24 1.48 12.46
4/28/2022 2:15:00 AM 5.44 41.792 0.084 6.25 1.46 12.47
4/28/2022 2:30:00 AM 5.42 41.756 0.084 6.21 1.51 12.48
4/28/2022 2:45:00 AM 5.41 41.738 0.084 6.24 1.5 12.48
4/28/2022 3:00:00 AM 5.37 41.666 0.084 6.25 1.45 12.49
4/28/2022 3:15:00 AM 5.35 41.63 0.084 6.25 1.48 12.5
4/28/2022 3:30:00 AM 5.33 41.594 0.084 6.25 1.49 12.51
4/28/2022 3:45:00 AM 5.32 41.576 0.084 6.25 1.43 12.51
4/28/2022 4:00:00 AM 5.32 41.576 0.084 6.25 1.46 12.51
4/28/2022 4:15:00 AM 5.3 41.54 0.084 6.25 1.5 12.52
4/28/2022 4:30:00 AM 5.29 41.522 0.084 6.24 1.48 12.52
4/28/2022 4:45:00 AM 5.28 41.504 0.084 6.25 1.47 12.52
4/28/2022 5:00:00 AM 5.26 41.468 0.084 6.24 1.49 12.53
4/28/2022 5:15:00 AM 5.24 41.432 0.084 6.2 1.46 12.53
4/28/2022 5:30:00 AM 5.23 41.414 0.084 6.25 1.45 12.54
4/28/2022 5:45:00 AM 5.22 41.396 0.084 6.25 1.48 12.54
4/28/2022 6:00:00 AM 5.21 41.378 0.084 6.25 1.4 12.55
4/28/2022 6:15:00 AM 5.2 41.36 0.084 6.25 1.39 12.55
4/28/2022 6:30:00 AM 5.17 41.306 0.084 6.24 1.44 12.56
4/28/2022 6:45:00 AM 5.16 41.288 0.084 6.25 1.41 12.57
4/28/2022 7:00:00 AM 5.16 41.288 0.084 6.24 1.43 12.57
4/28/2022 7:15:00 AM 5.16 41.288 0.084 6.25 1.42 12.58
4/28/2022 7:30:00 AM 5.17 41.306 0.084 6.25 1.44 12.58
4/28/2022 7:45:00 AM 5.18 41.324 0.084 6.24 1.48 12.58
4/28/2022 8:00:00 AM 5.21 41.378 0.084 6.25 1.44 12.58
4/28/2022 8:15:00 AM 5.23 41.414 0.084 6.25 1.43 12.57
4/28/2022 8:30:00 AM 5.27 41.486 0.084 6.25 1.44 12.57
4/28/2022 8:45:00 AM 5.29 41.522 0.084 6.25 1.37 12.56
4/28/2022 9:00:00 AM 5.34 41.612 0.084 6.26 1.39 12.54
4/28/2022 9:15:00 AM 5.42 41.756 0.084 6.26 1.39 12.53
4/28/2022 9:30:00 AM 5.53 41.954 0.084 6.24 1.34 12.49
4/28/2022 9:45:00 AM 5.63 42.134 0.084 6.25 1.39 12.46
4/28/2022 10:00:00 AM 5.73 42.314 0.084 6.26 1.38 12.43
4/28/2022 10:15:00 AM 5.85 42.53 0.084 6.26 1.39 12.39
4/28/2022 10:30:00 AM 5.99 42.782 0.084 6.26 1.42 12.35
4/28/2022 10:45:00 AM 6.14 43.052 0.084 6.27 1.39 12.3
4/28/2022 11:00:00 AM 6.29 43.322 0.084 6.27 1.41 12.24
4/28/2022 11:15:00 AM 6.45 43.61 0.084 6.27 1.43 12.19
4/28/2022 11:30:00 AM 6.63 43.934 0.084 6.27 1.49 12.13
4/28/2022 11:45:00 AM 6.82 44.276 0.084 6.25 1.53 12.07
4/28/2022 12:00:00 PM 7.03 44.654 0.084 6.27 1.51 12
4/28/2022 12:15:00 PM 7.2 44.96 0.084 6.27 1.56 11.94
4/28/2022 12:30:00 PM 7.36 45.248 0.084 6.28 1.57 11.9
4/28/2022 12:45:00 PM 7.49 45.482 0.084 6.24 1.68 11.85
4/28/2022 1:00:00 PM 7.61 45.698 0.084 6.29 1.69 11.8
4/28/2022 1:15:00 PM 7.73 45.914 0.084 6.29 1.62 11.77
4/28/2022 1:30:00 PM 7.84 46.112 0.084 6.29 1.74 11.74
4/28/2022 1:45:00 PM 7.95 46.31 0.084 6.29 1.61 11.71
4/28/2022 2:00:00 PM 8.02 46.436 0.084 6.29 1.63 11.68
4/28/2022 2:15:00 PM 8.08 46.544 0.084 6.28 1.67 11.65
4/28/2022 2:30:00 PM 8.14 46.652 0.084 6.29 1.65 11.62
4/28/2022 2:45:00 PM 8.18 46.724 0.084 6.29 1.65 11.61
4/28/2022 3:00:00 PM 8.21 46.778 0.084 6.27 1.64 11.6
4/28/2022 3:15:00 PM 8.24 46.832 0.084 6.28 1.65 11.59
4/28/2022 3:30:00 PM 8.24 46.832 0.084 6.25 1.69 11.58
4/28/2022 3:45:00 PM 8.25 46.85 0.084 6.25 1.69 11.58
4/28/2022 4:00:00 PM 8.24 46.832 0.084 6.26 1.66 11.58
4/28/2022 4:15:00 PM 8.21 46.778 0.084 6.26 1.68 11.58
4/28/2022 4:30:00 PM 8.18 46.724 0.084 6.26 1.66 11.59
4/28/2022 4:45:00 PM 8.14 46.652 0.084 6.3 1.67 11.6
4/28/2022 5:00:00 PM 8.09 46.562 0.084 6.27 1.64 11.61
4/28/2022 5:15:00 PM 8.01 46.418 0.084 6.25 1.61 11.64
4/28/2022 5:30:00 PM 7.95 46.31 0.084 6.28 1.62 11.65
4/28/2022 5:45:00 PM 7.87 46.166 0.084 6.29 1.59 11.68
4/28/2022 6:00:00 PM 7.79 46.022 0.084 6.29 1.61 11.7
4/28/2022 6:15:00 PM 7.7 45.86 0.084 6.29 1.65 11.72
4/28/2022 6:30:00 PM 7.62 45.716 0.084 6.29 1.59 11.75
4/28/2022 6:45:00 PM 7.53 45.554 0.084 6.28 1.68 11.77
4/28/2022 7:00:00 PM 7.43 45.374 0.084 6.29 1.6 11.8
4/28/2022 7:15:00 PM 7.33 45.194 0.084 6.29 1.62 11.84
4/28/2022 7:30:00 PM 7.25 45.05 0.084 6.29 1.63 11.86
4/28/2022 7:45:00 PM 7.17 44.906 0.084 6.29 1.58 11.89
4/28/2022 8:00:00 PM 7.1 44.78 0.084 6.27 1.61 11.91
4/28/2022 8:15:00 PM 7.03 44.654 0.084 6.24 1.56 11.93
4/28/2022 8:30:00 PM 6.97 44.546 0.084 6.28 1.67 11.95
4/28/2022 8:45:00 PM 6.9 44.42 0.084 6.28 1.58 11.97
4/28/2022 9:00:00 PM 6.83 44.294 0.084 6.28 1.62 12
4/28/2022 9:15:00 PM 6.76 44.168 0.084 6.27 1.65 12.03
4/28/2022 9:30:00 PM 6.69 44.042 0.085 6.26 1.66 12.05
4/28/2022 9:45:00 PM 6.62 43.916 0.085 6.27 1.71 12.07
4/28/2022 10:00:00 PM 6.56 43.808 0.085 6.27 1.55 12.09
4/28/2022 10:15:00 PM 6.49 43.682 0.085 6.27 1.75 12.11
4/28/2022 10:30:00 PM 6.43 43.574 0.085 6.27 1.51 12.13
4/28/2022 10:45:00 PM 6.37 43.466 0.085 6.26 1.59 12.16
4/28/2022 11:00:00 PM 6.31 43.358 0.085 6.27 1.57 12.17
4/28/2022 11:15:00 PM 6.24 43.232 0.085 6.27 1.55 12.2
4/28/2022 11:30:00 PM 6.18 43.124 0.085 6.26 1.53 12.21
4/28/2022 11:45:00 PM 6.13 43.034 0.085 6.26 1.54 12.24
4/29/2022 12:00:00 AM 6.07 42.926 0.085 6.24 1.54 12.25
4/29/2022 12:15:00 AM 6.02 42.836 0.085 6.26 1.54 12.28
4/29/2022 12:30:00 AM 5.97 42.746 0.085 6.26 1.5 12.29
4/29/2022 12:45:00 AM 5.93 42.674 0.085 6.26 1.53 12.31
4/29/2022 1:00:00 AM 5.88 42.584 0.085 6.22 1.49 12.32
4/29/2022 1:15:00 AM 5.84 42.512 0.085 6.26 1.5 12.33
4/29/2022 1:30:00 AM 5.79 42.422 0.085 6.26 1.51 12.34
4/29/2022 1:45:00 AM 5.76 42.368 0.085 6.26 1.51 12.36
4/29/2022 2:00:00 AM 5.72 42.296 0.085 6.26 1.5 12.37
4/29/2022 2:15:00 AM 5.69 42.242 0.085 6.26 1.46 12.38
4/29/2022 2:30:00 AM 5.66 42.188 0.085 6.25 1.52 12.39
4/29/2022 2:45:00 AM 5.62 42.116 0.085 6.24 1.52 12.4
4/29/2022 3:00:00 AM 5.59 42.062 0.085 6.26 1.44 12.41
4/29/2022 3:15:00 AM 5.56 42.008 0.085 6.26 1.5 12.42
4/29/2022 3:30:00 AM 5.53 41.954 0.085 6.24 1.46 12.44
4/29/2022 3:45:00 AM 5.49 41.882 0.085 6.25 1.44 12.45
4/29/2022 4:00:00 AM 5.46 41.828 0.085 6.25 1.48 12.46
4/29/2022 4:15:00 AM 5.42 41.756 0.085 6.25 1.48 12.47
4/29/2022 4:30:00 AM 5.39 41.702 0.085 6.25 1.48 12.48
4/29/2022 4:45:00 AM 5.35 41.63 0.085 6.24 1.44 12.5
4/29/2022 5:00:00 AM 5.32 41.576 0.085 6.24 1.44 12.51
4/29/2022 5:15:00 AM 5.29 41.522 0.085 6.24 1.52 12.52
4/29/2022 5:30:00 AM 5.25 41.45 0.085 6.24 1.39 12.53
4/29/2022 5:45:00 AM 5.22 41.396 0.085 6.24 1.39 12.54
4/29/2022 6:00:00 AM 5.19 41.342 0.085 6.24 1.41 12.56
4/29/2022 6:15:00 AM 5.15 41.27 0.085 6.24 1.41 12.57
4/29/2022 6:30:00 AM 5.12 41.216 0.085 6.22 1.43 12.59
4/29/2022 6:45:00 AM 5.1 41.18 0.085 6.22 1.43 12.6
4/29/2022 7:00:00 AM 5.07 41.126 0.085 6.21 1.4 12.61
4/29/2022 7:15:00 AM 5.06 41.108 0.085 6.21 1.38 12.61
4/29/2022 7:30:00 AM 5.06 41.108 0.085 6.21 1.44 12.62
4/29/2022 7:45:00 AM 5.06 41.108 0.085 6.21 1.77 12.62
4/29/2022 8:00:00 AM 5.07 41.126 0.085 6.22 1.62 12.62
4/29/2022 8:15:00 AM 5.1 41.18 0.085 6.22 1.73 12.62
4/29/2022 8:30:00 AM 5.14 41.252 0.085 6.23 1.41 12.61
4/29/2022 8:45:00 AM 5.22 41.396 0.085 6.24 1.59 12.59
4/29/2022 9:00:00 AM 5.3 41.54 0.085 6.24 1.45 12.57
4/29/2022 9:15:00 AM 5.41 41.738 0.085 6.25 1.49 12.54
4/29/2022 9:30:00 AM 5.53 41.954 0.085 6.25 1.39 12.5
4/29/2022 9:45:00 AM 5.67 42.206 0.085 6.25 1.43 12.45
4/29/2022 10:00:00 AM 5.81 42.458 0.085 6.25 1.38 12.41
4/29/2022 10:15:00 AM 5.96 42.728 0.085 6.23 1.39 12.36
4/29/2022 10:30:00 AM 6.15 43.07 0.085 6.27 1.36 12.3
4/29/2022 10:45:00 AM 6.32 43.376 0.085 6.27 1.36 12.24
4/29/2022 11:00:00 AM 6.51 43.718 0.085 6.27 1.37 12.18
4/29/2022 11:15:00 AM 6.7 44.06 0.085 6.27 1.34 12.12
4/29/2022 11:30:00 AM 6.89 44.402 0.085 6.25 1.4 12.05
4/29/2022 11:45:00 AM 7.1 44.78 0.085 6.28 1.35 11.98
4/29/2022 12:00:00 PM 7.33 45.194 0.085 6.27 1.43 11.91
4/29/2022 12:15:00 PM 7.53 45.554 0.085 6.28 1.38 11.84
4/29/2022 12:30:00 PM 7.73 45.914 0.085 6.26 1.46 11.77
4/29/2022 12:45:00 PM 7.91 46.238 0.085 6.29 1.46 11.72
4/29/2022 1:00:00 PM 8.05 46.49 0.085 6.29 1.42 11.67
4/29/2022 1:15:00 PM 8.19 46.742 0.085 6.29 1.48 11.62
4/29/2022 1:30:00 PM 8.32 46.976 0.085 6.23 1.47 11.58
4/29/2022 1:45:00 PM 8.43 47.174 0.085 6.3 1.49 11.55
4/29/2022 2:00:00 PM 8.52 47.336 0.085 6.3 1.52 11.52
4/29/2022 2:15:00 PM 8.6 47.48 0.085 6.25 1.48 11.49
4/29/2022 2:30:00 PM 8.66 47.588 0.085 6.3 1.51 11.47
4/29/2022 2:45:00 PM 8.72 47.696 0.085 6.3 1.55 11.45
4/29/2022 3:00:00 PM 8.76 47.768 0.085 6.3 1.59 11.43
4/29/2022 3:15:00 PM 8.79 47.822 0.085 6.3 1.54 11.42
4/29/2022 3:30:00 PM 8.83 47.894 0.085 6.31 1.52 11.4
4/29/2022 3:45:00 PM 8.84 47.912 0.085 6.28 1.59 11.4
4/29/2022 4:00:00 PM 8.85 47.93 0.085 6.3 1.56 11.39
4/29/2022 4:15:00 PM 8.85 47.93 0.085 6.3 1.65 11.39
4/29/2022 4:30:00 PM 8.83 47.894 0.085 6.3 1.56 11.39
4/29/2022 4:45:00 PM 8.8 47.84 0.085 6.28 1.53 11.4
4/29/2022 5:00:00 PM 8.77 47.786 0.085 6.3 1.58 11.41
4/29/2022 5:15:00 PM 8.72 47.696 0.085 6.3 1.54 11.42
4/29/2022 5:30:00 PM 8.65 47.57 0.085 6.3 1.52 11.44
4/29/2022 5:45:00 PM 8.57 47.426 0.085 6.3 1.6 11.46
4/29/2022 6:00:00 PM 8.51 47.318 0.085 6.31 1.56 11.48
4/29/2022 6:15:00 PM 8.44 47.192 0.085 6.3 1.53 11.49
4/29/2022 6:30:00 PM 8.37 47.066 0.085 6.3 1.53 11.52
4/29/2022 6:45:00 PM 8.29 46.922 0.085 6.28 1.58 11.53
4/29/2022 7:00:00 PM 8.21 46.778 0.085 6.28 1.57 11.55
4/29/2022 7:15:00 PM 8.14 46.652 0.085 6.29 1.56 11.58
4/29/2022 7:30:00 PM 8.05 46.49 0.085 6.29 1.63 11.6
4/29/2022 7:45:00 PM 7.96 46.328 0.085 6.23 1.6 11.63
4/29/2022 8:00:00 PM 7.88 46.184 0.085 6.27 1.55 11.65
4/29/2022 8:15:00 PM 7.8 46.04 0.085 6.27 1.61 11.68
4/29/2022 8:30:00 PM 7.71 45.878 0.085 6.25 1.61 11.71
4/29/2022 8:45:00 PM 7.61 45.698 0.085 6.28 1.64 11.73
4/29/2022 9:00:00 PM 7.52 45.536 0.085 6.28 1.65 11.76
4/29/2022 9:15:00 PM 7.42 45.356 0.086 6.28 1.7 11.8
4/29/2022 9:30:00 PM 7.33 45.194 0.086 6.28 1.68 11.83
4/29/2022 9:45:00 PM 7.24 45.032 0.086 6.25 1.66 11.86
4/29/2022 10:00:00 PM 7.15 44.87 0.086 6.27 1.55 11.89
4/29/2022 10:15:00 PM 7.07 44.726 0.086 6.28 1.6 11.91
4/29/2022 10:30:00 PM 6.99 44.582 0.086 6.27 1.55 11.94
4/29/2022 10:45:00 PM 6.91 44.438 0.086 6.27 1.73 11.96
4/29/2022 11:00:00 PM 6.84 44.312 0.086 6.27 1.54 11.99
4/29/2022 11:15:00 PM 6.77 44.186 0.086 6.22 1.56 12.01
4/29/2022 11:30:00 PM 6.71 44.078 0.086 6.23 1.57 12.04
4/29/2022 11:45:00 PM 6.65 43.97 0.086 6.27 1.53 12.06
4/30/2022 12:00:00 AM 6.58 43.844 0.086 6.27 1.53 12.08
4/30/2022 12:15:00 AM 6.53 43.754 0.086 6.27 1.58 12.09
4/30/2022 12:30:00 AM 6.47 43.646 0.086 6.22 1.49 12.11
4/30/2022 12:45:00 AM 6.4 43.52 0.086 6.23 1.87 12.13
4/30/2022 1:00:00 AM 6.35 43.43 0.086 6.27 1.56 12.15
4/30/2022 1:15:00 AM 6.29 43.322 0.086 6.27 1.53 12.16
4/30/2022 1:30:00 AM 6.24 43.232 0.086 6.26 1.47 12.18
4/30/2022 1:45:00 AM 6.19 43.142 0.086 6.26 1.43 12.2
4/30/2022 2:00:00 AM 6.14 43.052 0.086 6.26 1.51 12.22
4/30/2022 2:15:00 AM 6.09 42.962 0.086 6.26 1.52 12.24
4/30/2022 2:30:00 AM 6.03 42.854 0.086 6.26 1.45 12.25
4/30/2022 2:45:00 AM 5.99 42.782 0.086 6.22 1.5 12.27
4/30/2022 3:00:00 AM 5.94 42.692 0.086 6.24 1.46 12.28
4/30/2022 3:15:00 AM 5.89 42.602 0.086 6.23 1.52 12.3
4/30/2022 3:30:00 AM 5.84 42.512 0.086 6.25 1.47 12.31
4/30/2022 3:45:00 AM 5.8 42.44 0.086 6.24 1.41 12.33
4/30/2022 4:00:00 AM 5.75 42.35 0.086 6.23 1.43 12.34
4/30/2022 4:15:00 AM 5.71 42.278 0.086 6.25 1.39 12.36
4/30/2022 4:30:00 AM 5.67 42.206 0.086 6.25 1.46 12.37
4/30/2022 4:45:00 AM 5.62 42.116 0.086 6.25 1.5 12.39
4/30/2022 5:00:00 AM 5.58 42.044 0.086 6.24 1.45 12.4
4/30/2022 5:15:00 AM 5.54 41.972 0.086 6.25 1.44 12.42
4/30/2022 5:30:00 AM 5.5 41.9 0.086 6.21 1.39 12.43
4/30/2022 5:45:00 AM 5.46 41.828 0.086 6.25 1.44 12.45
4/30/2022 6:00:00 AM 5.42 41.756 0.086 6.24 1.4 12.46
4/30/2022 6:15:00 AM 5.39 41.702 0.086 6.24 1.39 12.48
4/30/2022 6:30:00 AM 5.35 41.63 0.086 6.24 1.44 12.49
4/30/2022 6:45:00 AM 5.33 41.594 0.086 6.23 1.41 12.51
4/30/2022 7:00:00 AM 5.3 41.54 0.086 6.23 1.39 12.51
4/30/2022 7:15:00 AM 5.29 41.522 0.086 6.22 1.4 12.52
4/30/2022 7:30:00 AM 5.28 41.504 0.086 6.23 1.39 12.52
4/30/2022 7:45:00 AM 5.31 41.558 0.086 6.22 1.35 12.52
4/30/2022 8:00:00 AM 5.34 41.612 0.086 6.22 1.38 12.52
4/30/2022 8:15:00 AM 5.39 41.702 0.086 6.22 1.38 12.5
4/30/2022 8:30:00 AM 5.47 41.846 0.086 6.23 1.34 12.48
4/30/2022 8:45:00 AM 5.59 42.062 0.086 6.23 1.44 12.44
4/30/2022 9:00:00 AM 5.71 42.278 0.086 6.21 1.4 12.41
4/30/2022 9:15:00 AM 5.84 42.512 0.086 6.25 1.33 12.37
4/30/2022 9:30:00 AM 6 42.8 0.086 6.26 1.39 12.32
4/30/2022 9:45:00 AM 6.17 43.106 0.086 6.26 1.39 12.27
4/30/2022 10:00:00 AM 6.34 43.412 0.086 6.27 1.37 12.21
4/30/2022 10:15:00 AM 6.52 43.736 0.086 6.23 1.38 12.15
4/30/2022 10:30:00 AM 6.73 44.114 0.086 6.28 1.37 12.08
4/30/2022 10:45:00 AM 6.92 44.456 0.086 6.28 1.35 12.01
4/30/2022 11:00:00 AM 7.12 44.816 0.086 6.28 1.38 11.96
4/30/2022 11:15:00 AM 7.32 45.176 0.086 6.27 1.45 11.89
4/30/2022 11:30:00 AM 7.53 45.554 0.086 6.29 1.38 11.82
4/30/2022 11:45:00 AM 7.74 45.932 0.086 6.29 1.39 11.76
4/30/2022 12:00:00 PM 7.97 46.346 0.086 6.29 1.47 11.69
4/30/2022 12:15:00 PM 8.19 46.742 0.086 6.3 1.4 11.61
4/30/2022 12:30:00 PM 8.38 47.084 0.086 6.28 1.52 11.56
4/30/2022 12:45:00 PM 8.55 47.39 0.086 6.3 1.5 11.51
4/30/2022 1:00:00 PM 8.7 47.66 0.086 6.3 1.49 11.45
4/30/2022 1:15:00 PM 8.83 47.894 0.086 6.3 1.42 11.41
4/30/2022 1:30:00 PM 8.93 48.074 0.086 6.31 1.53 11.38
4/30/2022 1:45:00 PM 9.04 48.272 0.086 6.31 1.46 11.35
4/30/2022 2:00:00 PM 9.16 48.488 0.086 6.31 1.46 11.31
4/30/2022 2:15:00 PM 9.26 48.668 0.086 6.31 1.56 11.28
4/30/2022 2:30:00 PM 9.34 48.812 0.086 6.31 1.55 11.25
4/30/2022 2:45:00 PM 9.39 48.902 0.086 6.32 1.48 11.24
4/30/2022 3:00:00 PM 9.44 48.992 0.086 6.31 1.56 11.21
4/30/2022 3:15:00 PM 9.45 49.01 0.086 6.32 1.57 11.21
4/30/2022 3:30:00 PM 9.45 49.01 0.086 6.32 1.58 11.2
4/30/2022 3:45:00 PM 9.42 48.956 0.086 6.31 1.54 11.21
4/30/2022 4:00:00 PM 9.39 48.902 0.086 6.32 1.65 11.22
4/30/2022 4:15:00 PM 9.38 48.884 0.086 6.32 1.59 11.22
4/30/2022 4:30:00 PM 9.33 48.794 0.086 6.32 1.6 11.23
4/30/2022 4:45:00 PM 9.3 48.74 0.086 6.3 1.69 11.24
4/30/2022 5:00:00 PM 9.27 48.686 0.086 6.32 1.62 11.25
4/30/2022 5:15:00 PM 9.25 48.65 0.086 6.32 1.61 11.25
4/30/2022 5:30:00 PM 9.21 48.578 0.086 6.31 1.55 11.26
4/30/2022 5:45:00 PM 9.19 48.542 0.086 6.3 1.6 11.27
4/30/2022 6:00:00 PM 9.14 48.452 0.086 6.27 1.65 11.28
4/30/2022 6:15:00 PM 9.09 48.362 0.086 6.31 1.58 11.29
4/30/2022 6:30:00 PM 9.04 48.272 0.086 6.3 1.56 11.3
4/30/2022 6:45:00 PM 8.98 48.164 0.086 6.3 1.61 11.32
4/30/2022 7:00:00 PM 8.92 48.056 0.086 6.29 1.63 11.33
4/30/2022 7:15:00 PM 8.85 47.93 0.086 6.28 1.64 11.35
4/30/2022 7:30:00 PM 8.77 47.786 0.086 6.29 1.66 11.37
4/30/2022 7:45:00 PM 8.7 47.66 0.086 6.28 1.68 11.39
4/30/2022 8:00:00 PM 8.64 47.552 0.086 6.28 1.6 11.41
4/30/2022 8:15:00 PM 8.56 47.408 0.087 6.28 1.51 11.43
4/30/2022 8:30:00 PM 8.47 47.246 0.087 6.29 1.56 11.45
4/30/2022 8:45:00 PM 8.37 47.066 0.087 6.28 1.67 11.48
4/30/2022 9:00:00 PM 8.28 46.904 0.087 6.29 1.59 11.5
4/30/2022 9:15:00 PM 8.19 46.742 0.087 6.28 1.55 11.53
4/30/2022 9:30:00 PM 8.1 46.58 0.087 6.29 1.61 11.56
4/30/2022 9:45:00 PM 8.01 46.418 0.087 6.29 1.67 11.59
4/30/2022 10:00:00 PM 7.93 46.274 0.087 6.29 1.63 11.61
4/30/2022 10:15:00 PM 7.85 46.13 0.087 6.29 1.63 11.64
4/30/2022 10:30:00 PM 7.77 45.986 0.087 6.29 1.64 11.66
4/30/2022 10:45:00 PM 7.69 45.842 0.087 6.29 1.61 11.68
4/30/2022 11:00:00 PM 7.61 45.698 0.087 6.28 1.68 11.7
4/30/2022 11:15:00 PM 7.54 45.572 0.087 6.24 1.58 11.73
4/30/2022 11:30:00 PM 7.47 45.446 0.087 6.28 1.6 11.75
4/30/2022 11:45:00 PM 7.42 45.356 0.087 6.25 1.62 11.77
5/1/2022 12:00:00 AM 7.38 45.284 0.087 6.28 1.58 11.78
5/1/2022 12:15:00 AM 7.36 45.248 0.087 6.28 1.59 11.8
5/1/2022 12:30:00 AM 7.34 45.212 0.087 6.24 1.58 11.8
5/1/2022 12:45:00 AM 7.34 45.212 0.087 6.28 1.53 11.8
5/1/2022 1:00:00 AM 7.33 45.194 0.087 6.28 1.54 11.81
5/1/2022 1:15:00 AM 7.33 45.194 0.087 6.27 1.52 11.81
5/1/2022 1:30:00 AM 7.33 45.194 0.087 6.28 1.56 11.81
5/1/2022 1:45:00 AM 7.33 45.194 0.087 6.28 1.58 11.81
5/1/2022 2:00:00 AM 7.33 45.194 0.087 6.28 1.61 11.8
5/1/2022 2:15:00 AM 7.34 45.212 0.087 6.29 1.56 11.8
5/1/2022 2:30:00 AM 7.35 45.23 0.087 6.29 1.52 11.8
5/1/2022 2:45:00 AM 7.35 45.23 0.087 6.29 1.51 11.79
5/1/2022 3:00:00 AM 7.36 45.248 0.087 6.29 1.54 11.79
5/1/2022 3:15:00 AM 7.35 45.23 0.087 6.29 1.52 11.8
5/1/2022 3:30:00 AM 7.34 45.212 0.087 6.29 1.54 11.79
5/1/2022 3:45:00 AM 7.33 45.194 0.087 6.29 1.57 11.8
5/1/2022 4:00:00 AM 7.32 45.176 0.087 6.29 1.5 11.8
5/1/2022 4:15:00 AM 7.31 45.158 0.087 6.29 1.5 11.81
5/1/2022 4:30:00 AM 7.29 45.122 0.087 6.29 1.57 11.81
5/1/2022 4:45:00 AM 7.28 45.104 0.087 6.28 1.48 11.81
5/1/2022 5:00:00 AM 7.27 45.086 0.087 6.29 1.53 11.82
5/1/2022 5:15:00 AM 7.25 45.05 0.087 6.29 1.51 11.82
5/1/2022 5:30:00 AM 7.22 44.996 0.087 6.3 1.49 11.83
5/1/2022 5:45:00 AM 7.19 44.942 0.087 6.29 1.51 11.83
5/1/2022 6:00:00 AM 7.16 44.888 0.087 6.29 1.51 11.84
5/1/2022 6:15:00 AM 7.12 44.816 0.087 6.29 1.46 11.86
5/1/2022 6:30:00 AM 7.09 44.762 0.087 6.29 1.49 11.86
5/1/2022 6:45:00 AM 7.07 44.726 0.087 6.29 1.46 11.87
5/1/2022 7:00:00 AM 7.08 44.744 0.087 6.29 1.48 11.88
5/1/2022 7:15:00 AM 7.07 44.726 0.087 6.29 1.46 11.88
5/1/2022 7:30:00 AM 7.08 44.744 0.087 6.29 1.43 11.87
5/1/2022 7:45:00 AM 7.1 44.78 0.087 6.28 1.46 11.87
5/1/2022 8:00:00 AM 7.11 44.798 0.087 6.3 1.44 11.87
5/1/2022 8:15:00 AM 7.12 44.816 0.087 6.29 1.42 11.87
5/1/2022 8:30:00 AM 7.15 44.87 0.087 6.29 1.42 11.87
5/1/2022 8:45:00 AM 7.19 44.942 0.087 6.3 1.44 11.86
5/1/2022 9:00:00 AM 7.26 45.068 0.087 6.3 1.41 11.84
5/1/2022 9:15:00 AM 7.35 45.23 0.087 6.3 1.44 11.82
5/1/2022 9:30:00 AM 7.45 45.41 0.087 6.3 1.35 11.79
5/1/2022 9:45:00 AM 7.61 45.698 0.087 6.31 1.49 11.74
5/1/2022 10:00:00 AM 7.68 45.824 0.087 6.28 1.48 11.71
5/1/2022 10:15:00 AM 7.73 45.914 0.087 6.31 1.49 11.7
5/1/2022 10:30:00 AM 7.76 45.968 0.087 6.3 1.48 11.68
5/1/2022 10:45:00 AM 7.74 45.932 0.087 6.3 1.49 11.68
5/1/2022 11:00:00 AM 7.72 45.896 0.087 6.3 1.54 11.69
5/1/2022 11:15:00 AM 7.69 45.842 0.087 6.3 1.62 11.7
5/1/2022 11:30:00 AM 7.67 45.806 0.087 6.3 1.66 11.7
5/1/2022 11:45:00 AM 7.66 45.788 0.087 6.3 1.73 11.7
5/1/2022 12:00:00 PM 7.69 45.842 0.087 6.3 1.65 11.7
5/1/2022 12:15:00 PM 7.72 45.896 0.087 6.31 1.57 11.69
5/1/2022 12:30:00 PM 7.76 45.968 0.088 6.31 1.54 11.68
5/1/2022 12:45:00 PM 7.78 46.004 0.087 6.31 1.54 11.67
5/1/2022 1:00:00 PM 7.78 46.004 0.087 6.31 1.76 11.66
5/1/2022 1:15:00 PM 7.78 46.004 0.086 6.3 2.09 11.67
5/1/2022 1:30:00 PM 7.78 46.004 0.086 6.31 2.39 11.66
5/1/2022 1:45:00 PM 7.8 46.04 0.086 6.33 2.64 11.67
5/1/2022 2:00:00 PM 7.83 46.094 0.088 6.34 3.01 11.66
5/1/2022 2:15:00 PM 7.85 46.13 0.089 6.36 3.09 11.64
5/1/2022 2:30:00 PM 7.87 46.166 0.089 6.34 3.36 11.64
5/1/2022 2:45:00 PM 7.87 46.166 0.088 6.37 3.95 11.64
5/1/2022 3:00:00 PM 7.87 46.166 0.088 6.4 5.24 11.64
5/1/2022 3:15:00 PM 7.85 46.13 0.089 6.42 5.43 11.64
5/1/2022 3:30:00 PM 7.84 46.112 0.093 6.44 5.24 11.64
5/1/2022 3:45:00 PM 7.84 46.112 0.097 6.49 6.02 11.64
5/1/2022 4:00:00 PM 7.85 46.13 0.102 6.52 7.1 11.64
5/1/2022 4:15:00 PM 7.87 46.166 0.104 6.56 8.67 11.63
5/1/2022 4:30:00 PM 7.88 46.184 0.104 6.58 10.54 11.63
5/1/2022 4:45:00 PM 7.9 46.22 0.105 6.6 9.66 11.63
5/1/2022 5:00:00 PM 7.92 46.256 0.106 6.62 8.38 11.62
5/1/2022 5:15:00 PM 7.94 46.292 0.108 6.64 7.09 11.61
5/1/2022 5:30:00 PM 7.97 46.346 0.11 6.66 6.18 11.6
5/1/2022 5:45:00 PM 8 46.4 0.11 6.66 5.72 11.6
5/1/2022 6:00:00 PM 8.02 46.436 0.109 6.63 5.2 11.58
5/1/2022 6:15:00 PM 8.03 46.454 0.108 6.65 4.96 11.58
5/1/2022 6:30:00 PM 8.02 46.436 0.108 6.66 4.71 11.58
5/1/2022 6:45:00 PM 8.02 46.436 0.11 6.65 4.33 11.58
5/1/2022 7:00:00 PM 8 46.4 0.111 6.65 4.03 11.58
5/1/2022 7:15:00 PM 8 46.4 0.111 6.63 4.24 11.58
5/1/2022 7:30:00 PM 7.99 46.382 0.11 6.63 3.96 11.58
5/1/2022 7:45:00 PM 7.98 46.364 0.109 6.59 3.97 11.58
5/1/2022 8:00:00 PM 7.98 46.364 0.109 6.62 3.74 11.58
5/1/2022 8:15:00 PM 7.98 46.364 0.108 6.61 3.54 11.58
5/1/2022 8:30:00 PM 7.98 46.364 0.108 6.6 3.59 11.57
5/1/2022 8:45:00 PM 7.99 46.382 0.108 6.59 3.61 11.57
5/1/2022 9:00:00 PM 8 46.4 0.108 6.59 3.49 11.57
5/1/2022 9:15:00 PM 8 46.4 0.108 6.58 3.38 11.57
5/1/2022 9:30:00 PM 8.01 46.418 0.107 6.58 3.23 11.56
5/1/2022 9:45:00 PM 8.02 46.436 0.107 6.57 3.3 11.56
5/1/2022 10:00:00 PM 8.02 46.436 0.107 6.57 3.26 11.56
5/1/2022 10:15:00 PM 8.03 46.454 0.107 6.56 3.13 11.56
5/1/2022 10:30:00 PM 8.04 46.472 0.106 6.54 3.18 11.56
5/1/2022 10:45:00 PM 8.04 46.472 0.106 6.55 3.1 11.56
5/1/2022 11:00:00 PM 8.04 46.472 0.105 6.55 2.94 11.55
5/1/2022 11:15:00 PM 8.04 46.472 0.105 6.54 2.95 11.55
5/1/2022 11:30:00 PM 8.04 46.472 0.105 6.53 2.88 11.55
5/1/2022 11:45:00 PM 8.04 46.472 0.104 6.53 2.93 11.55
5/2/2022 12:00:00 AM 8.03 46.454 0.104 6.52 2.87 11.56
5/2/2022 12:15:00 AM 8.02 46.436 0.104 6.52 2.84 11.57
5/2/2022 12:30:00 AM 8.03 46.454 0.104 6.49 2.78 11.57
5/2/2022 12:45:00 AM 8.03 46.454 0.104 6.5 2.72 11.57
5/2/2022 1:00:00 AM 8.03 46.454 0.104 6.5 2.73 11.56
5/2/2022 1:15:00 AM 8.03 46.454 0.104 6.49 2.81 11.56
5/2/2022 1:30:00 AM 8.02 46.436 0.104 6.48 2.69 11.56
5/2/2022 1:45:00 AM 8.01 46.418 0.104 6.47 2.64 11.56
5/2/2022 2:00:00 AM 8.01 46.418 0.104 6.47 2.58 11.56
5/2/2022 2:15:00 AM 8.01 46.418 0.104 6.44 2.61 11.56
5/2/2022 2:30:00 AM 8.02 46.436 0.104 6.42 2.52 11.56
5/2/2022 2:45:00 AM 8.02 46.436 0.104 6.46 2.51 11.56
5/2/2022 3:00:00 AM 8.03 46.454 0.104 6.46 2.51 11.55
5/2/2022 3:15:00 AM 8.03 46.454 0.104 6.46 2.42 11.55
5/2/2022 3:30:00 AM 8.03 46.454 0.104 6.45 2.46 11.55
5/2/2022 3:45:00 AM 8.03 46.454 0.104 6.43 2.39 11.55
5/2/2022 4:00:00 AM 8.03 46.454 0.104 6.44 2.35 11.55
5/2/2022 4:15:00 AM 8.03 46.454 0.104 6.41 2.37 11.55
5/2/2022 4:30:00 AM 8.03 46.454 0.104 6.43 2.34 11.55
5/2/2022 4:45:00 AM 8.03 46.454 0.104 6.42 2.29 11.55
5/2/2022 5:00:00 AM 8.03 46.454 0.104 6.42 2.27 11.56
5/2/2022 5:15:00 AM 8.03 46.454 0.104 6.42 2.26 11.56
5/2/2022 5:30:00 AM 8.03 46.454 0.105 6.42 2.21 11.56
5/2/2022 5:45:00 AM 8.03 46.454 0.105 6.43 2.15 11.56
5/2/2022 6:00:00 AM 8.04 46.472 0.105 6.42 2.28 11.56
5/2/2022 6:15:00 AM 8.05 46.49 0.105 6.44 2.13 11.56
5/2/2022 6:30:00 AM 8.04 46.472 0.104 6.46 2.29 11.56
5/2/2022 6:45:00 AM 8.03 46.454 0.104 6.46 2.11 11.57
5/2/2022 7:00:00 AM 8.02 46.436 0.104 6.46 2.12 11.58
5/2/2022 7:15:00 AM 8.01 46.418 0.104 6.45 2.09 11.58
5/2/2022 7:30:00 AM 8 46.4 0.104 6.44 2.05 11.59
5/2/2022 7:45:00 AM 8.01 46.418 0.104 6.44 2 11.59
5/2/2022 8:00:00 AM 8.02 46.436 0.104 6.45 2.02 11.59
5/2/2022 8:15:00 AM 8.05 46.49 0.104 6.43 1.98 11.58
5/2/2022 8:30:00 AM 8.11 46.598 0.104 6.46 2.04 11.57
5/2/2022 8:45:00 AM 8.18 46.724 0.104 6.47 1.97 11.54
5/2/2022 9:00:00 AM 8.22 46.796 0.104 6.48 1.91 11.53
5/2/2022 9:15:00 AM 8.24 46.832 0.104 6.48 2.01 11.52
5/2/2022 9:30:00 AM 8.28 46.904 0.104 6.48 1.94 11.52
5/2/2022 9:45:00 AM 8.36 47.048 0.104 6.46 1.94 11.5
5/2/2022 10:00:00 AM 8.36 47.048 0.104 6.48 1.95 11.49
5/2/2022 10:15:00 AM 8.38 47.084 0.104 6.45 1.89 11.49
5/2/2022 10:30:00 AM 8.35 47.03 0.104 6.48 1.92 11.49
5/2/2022 10:45:00 AM 8.34 47.012 0.104 6.48 1.89 11.5
5/2/2022 11:00:00 AM 8.36 47.048 0.104 6.48 2.09 11.5
5/2/2022 11:15:00 AM 8.45 47.21 0.104 6.46 1.87 11.49
5/2/2022 11:30:00 AM 8.49 47.282 0.104 6.47 1.85 11.47
5/2/2022 11:45:00 AM 8.57 47.426 0.104 6.48 1.85 11.45
5/2/2022 12:00:00 PM 8.6 47.48 0.104 6.48 1.88 11.44
5/2/2022 12:15:00 PM 8.65 47.57 0.104 6.45 1.9 11.43
5/2/2022 12:30:00 PM 8.64 47.552 0.104 6.47 1.89 11.43
5/2/2022 12:45:00 PM 8.69 47.642 0.104 6.47 1.8 11.42
5/2/2022 1:00:00 PM 8.68 47.624 0.104 6.47 1.87 11.42
5/2/2022 1:15:00 PM 8.68 47.624 0.104 6.48 1.9 11.42
5/2/2022 1:30:00 PM 8.68 47.624 0.104 6.48 1.92 11.42
5/2/2022 1:45:00 PM 8.74 47.732 0.104 6.48 1.9 11.41
5/2/2022 2:00:00 PM 8.83 47.894 0.104 6.48 1.88 11.39
5/2/2022 2:15:00 PM 8.94 48.092 0.104 6.48 1.97 11.36
5/2/2022 2:30:00 PM 9.08 48.344 0.104 6.48 1.85 11.32
5/2/2022 2:45:00 PM 9.15 48.47 0.104 6.49 1.76 11.3
5/2/2022 3:00:00 PM 9.2 48.56 0.103 6.49 1.95 11.28
5/2/2022 3:15:00 PM 9.21 48.578 0.104 6.49 1.84 11.27
5/2/2022 3:30:00 PM 9.2 48.56 0.103 6.49 1.85 11.27
5/2/2022 3:45:00 PM 9.18 48.524 0.103 6.49 1.87 11.28
5/2/2022 4:00:00 PM 9.2 48.56 0.103 6.47 1.78 11.28
5/2/2022 4:15:00 PM 9.21 48.578 0.103 6.49 1.86 11.27
5/2/2022 4:30:00 PM 9.22 48.596 0.103 6.49 1.81 11.27
5/2/2022 4:45:00 PM 9.23 48.614 0.103 6.48 1.77 11.27
5/2/2022 5:00:00 PM 9.22 48.596 0.103 6.46 1.89 11.27
5/2/2022 5:15:00 PM 9.2 48.56 0.103 6.48 1.77 11.27
5/2/2022 5:30:00 PM 9.19 48.542 0.103 6.46 1.81 11.28
5/2/2022 5:45:00 PM 9.18 48.524 0.104 6.48 1.83 11.28
5/2/2022 6:00:00 PM 9.14 48.452 0.104 6.45 1.77 11.28
5/2/2022 6:15:00 PM 9.13 48.434 0.103 6.48 1.7 11.29
5/2/2022 6:30:00 PM 9.09 48.362 0.104 6.46 1.73 11.29
5/2/2022 6:45:00 PM 9.06 48.308 0.103 6.46 1.77 11.3
5/2/2022 7:00:00 PM 9 48.2 0.103 6.47 1.78 11.31
5/2/2022 7:15:00 PM 8.95 48.11 0.103 6.46 1.79 11.32
5/2/2022 7:30:00 PM 8.89 48.002 0.104 6.43 1.73 11.34
5/2/2022 7:45:00 PM 8.83 47.894 0.104 6.45 1.74 11.35
5/2/2022 8:00:00 PM 8.77 47.786 0.103 6.45 1.75 11.37
5/2/2022 8:15:00 PM 8.71 47.678 0.103 6.45 1.77 11.39
5/2/2022 8:30:00 PM 8.64 47.552 0.103 6.45 1.69 11.41
5/2/2022 8:45:00 PM 8.58 47.444 0.103 6.44 1.72 11.43
5/2/2022 9:00:00 PM 8.52 47.336 0.103 6.44 1.8 11.45
5/2/2022 9:15:00 PM 8.45 47.21 0.103 6.43 1.84 11.47
5/2/2022 9:30:00 PM 8.39 47.102 0.103 6.43 1.76 11.48
5/2/2022 9:45:00 PM 8.33 46.994 0.103 6.42 1.79 11.5
5/2/2022 10:00:00 PM 8.27 46.886 0.104 6.42 1.72 11.52
5/2/2022 10:15:00 PM 8.21 46.778 0.104 6.43 1.75 11.54
5/2/2022 10:30:00 PM 8.15 46.67 0.103 6.43 1.7 11.55
5/2/2022 10:45:00 PM 8.1 46.58 0.103 6.42 1.71 11.57
5/2/2022 11:00:00 PM 8.04 46.472 0.103 6.43 1.71 11.59
5/2/2022 11:15:00 PM 7.99 46.382 0.103 6.42 1.75 11.61
5/2/2022 11:30:00 PM 7.93 46.274 0.104 6.41 1.79 11.63
5/2/2022 11:45:00 PM 7.88 46.184 0.104 6.43 1.71 11.64
5/3/2022 12:00:00 AM 7.83 46.094 0.103 6.42 1.67 11.66
5/3/2022 12:15:00 AM 7.78 46.004 0.103 6.42 1.71 11.67
5/3/2022 12:30:00 AM 7.73 45.914 0.103 6.41 1.73 11.68
5/3/2022 12:45:00 AM 7.68 45.824 0.103 6.42 1.66 11.7
5/3/2022 1:00:00 AM 7.63 45.734 0.103 6.41 1.69 11.71
5/3/2022 1:15:00 AM 7.59 45.662 0.103 6.37 1.64 11.72
5/3/2022 1:30:00 AM 7.55 45.59 0.103 6.41 1.66 11.73
5/3/2022 1:45:00 AM 7.51 45.518 0.103 6.41 1.69 11.75
5/3/2022 2:00:00 AM 7.47 45.446 0.103 6.41 1.69 11.76
5/3/2022 2:15:00 AM 7.44 45.392 0.103 6.41 1.72 11.77
5/3/2022 2:30:00 AM 7.4 45.32 0.103 6.4 1.64 11.78
5/3/2022 2:45:00 AM 7.36 45.248 0.103 6.41 1.66 11.8
5/3/2022 3:00:00 AM 7.32 45.176 0.103 6.41 1.6 11.81
5/3/2022 3:15:00 AM 7.29 45.122 0.103 6.4 1.62 11.82
5/3/2022 3:30:00 AM 7.26 45.068 0.103 6.41 1.61 11.83
5/3/2022 3:45:00 AM 7.23 45.014 0.103 6.36 1.62 11.84
5/3/2022 4:00:00 AM 7.2 44.96 0.103 6.4 1.64 11.84
5/3/2022 4:15:00 AM 7.18 44.924 0.103 6.4 1.61 11.85
5/3/2022 4:30:00 AM 7.15 44.87 0.103 6.4 1.63 11.86
5/3/2022 4:45:00 AM 7.12 44.816 0.103 6.4 1.58 11.87
5/3/2022 5:00:00 AM 7.09 44.762 0.103 6.4 1.66 11.87
5/3/2022 5:15:00 AM 7.06 44.708 0.103 6.4 1.62 11.88
5/3/2022 5:30:00 AM 7.03 44.654 0.103 6.4 1.57 11.89
5/3/2022 5:45:00 AM 7 44.6 0.103 6.4 1.72 11.9
5/3/2022 6:00:00 AM 6.98 44.564 0.103 6.39 1.61 11.91
5/3/2022 6:15:00 AM 6.96 44.528 0.103 6.39 1.6 11.92
5/3/2022 6:30:00 AM 6.95 44.51 0.102 6.39 1.66 11.92
5/3/2022 6:45:00 AM 6.95 44.51 0.102 6.38 1.58 11.93
5/3/2022 7:00:00 AM 6.97 44.546 0.102 6.4 1.52 11.93
5/3/2022 7:15:00 AM 7.01 44.618 0.102 6.4 1.56 11.92
5/3/2022 7:30:00 AM 7.05 44.69 0.102 6.4 1.53 11.91
5/3/2022 7:45:00 AM 7.12 44.816 0.102 6.38 1.52 11.9
5/3/2022 8:00:00 AM 7.19 44.942 0.102 6.4 1.5 11.88
5/3/2022 8:15:00 AM 7.27 45.086 0.102 6.41 1.5 11.85
5/3/2022 8:30:00 AM 7.35 45.23 0.102 6.41 1.51 11.83
5/3/2022 8:45:00 AM 7.45 45.41 0.102 6.41 1.51 11.8
5/3/2022 9:00:00 AM 7.57 45.626 0.102 6.42 1.5 11.76
5/3/2022 9:15:00 AM 7.66 45.788 0.102 6.38 1.49 11.74
5/3/2022 9:30:00 AM 7.73 45.914 0.102 6.43 1.49 11.71
5/3/2022 9:45:00 AM 7.8 46.04 0.102 6.4 1.52 11.69
5/3/2022 10:00:00 AM 7.89 46.202 0.102 6.43 1.49 11.67
5/3/2022 10:15:00 AM 8.02 46.436 0.101 6.43 1.47 11.63
5/3/2022 10:30:00 AM 8.12 46.616 0.101 6.42 1.6 11.59
5/3/2022 10:45:00 AM 8.23 46.814 0.101 6.43 1.51 11.56
5/3/2022 11:00:00 AM 8.33 46.994 0.101 6.44 1.5 11.54
5/3/2022 11:15:00 AM 8.42 47.156 0.101 6.43 1.59 11.51
5/3/2022 11:30:00 AM 8.51 47.318 0.101 6.44 1.5 11.48
5/3/2022 11:45:00 AM 8.58 47.444 0.101 6.43 1.58 11.46
5/3/2022 12:00:00 PM 8.65 47.57 0.101 6.44 1.59 11.44
5/3/2022 12:15:00 PM 8.69 47.642 0.101 6.42 1.65 11.43
5/3/2022 12:30:00 PM 8.78 47.804 0.101 6.4 1.52 11.4
5/3/2022 12:45:00 PM 8.94 48.092 0.101 6.42 1.54 11.36
5/3/2022 1:00:00 PM 9 48.2 0.101 6.44 1.57 11.33
5/3/2022 1:15:00 PM 9.06 48.308 0.101 6.44 1.6 11.31
5/3/2022 1:30:00 PM 9.1 48.38 0.101 6.44 1.57 11.29
5/3/2022 1:45:00 PM 9.09 48.362 0.101 6.43 1.61 11.29
5/3/2022 2:00:00 PM 9.07 48.326 0.101 6.43 1.6 11.29
5/3/2022 2:15:00 PM 9.05 48.29 0.101 6.44 1.55 11.3
5/3/2022 2:30:00 PM 9.05 48.29 0.101 6.44 1.57 11.3
5/3/2022 2:45:00 PM 9.04 48.272 0.101 6.44 1.6 11.3
5/3/2022 3:00:00 PM 9.06 48.308 0.101 6.44 1.58 11.29
5/3/2022 3:15:00 PM 9.09 48.362 0.101 6.42 1.64 11.29
5/3/2022 3:30:00 PM 9.13 48.434 0.101 6.44 1.62 11.27
5/3/2022 3:45:00 PM 9.18 48.524 0.1 6.44 1.6 11.26
5/3/2022 4:00:00 PM 9.23 48.614 0.1 6.44 1.55 11.24
5/3/2022 4:15:00 PM 9.29 48.722 0.1 6.44 1.62 11.23
5/3/2022 4:30:00 PM 9.31 48.758 0.1 6.44 1.58 11.21
5/3/2022 4:45:00 PM 9.32 48.776 0.1 6.44 1.66 11.2
5/3/2022 5:00:00 PM 9.35 48.83 0.1 6.43 1.67 11.19
5/3/2022 5:15:00 PM 9.39 48.902 0.1 6.44 1.64 11.18
5/3/2022 5:30:00 PM 9.44 48.992 0.1 6.44 1.64 11.15
5/3/2022 5:45:00 PM 9.47 49.046 0.1 6.44 1.9 11.14
5/3/2022 6:00:00 PM 9.51 49.118 0.1 6.44 1.75 11.13
5/3/2022 6:15:00 PM 9.58 49.244 0.1 6.44 1.61 11.11
5/3/2022 6:30:00 PM 9.59 49.262 0.1 6.42 1.99 11.09
5/3/2022 6:45:00 PM 9.6 49.28 0.1 6.44 1.77 11.08
5/3/2022 7:00:00 PM 9.58 49.244 0.1 6.44 1.69 11.09
5/3/2022 7:15:00 PM 9.55 49.19 0.1 6.43 1.69 11.08
5/3/2022 7:30:00 PM 9.51 49.118 0.1 6.44 1.71 11.1
5/3/2022 7:45:00 PM 9.47 49.046 0.1 6.39 1.66 11.12
5/3/2022 8:00:00 PM 9.46 49.028 0.099 6.43 2.22 11.15
5/3/2022 8:15:00 PM 9.44 48.992 0.098 6.42 2.23 11.15
5/3/2022 8:30:00 PM 9.42 48.956 0.098 6.42 2.46 11.15
5/3/2022 8:45:00 PM 9.39 48.902 0.1 6.42 2.71 11.15
5/3/2022 9:00:00 PM 9.35 48.83 0.1 6.44 2.6 11.15
5/3/2022 9:15:00 PM 9.32 48.776 0.102 6.46 2.88 11.16
5/3/2022 9:30:00 PM 9.3 48.74 0.103 6.47 2.79 11.18
5/3/2022 9:45:00 PM 9.28 48.704 0.103 6.48 3.61 11.19
5/3/2022 10:00:00 PM 9.3 48.74 0.102 6.49 3.66 11.2
5/3/2022 10:15:00 PM 9.33 48.794 0.103 6.51 3.68 11.19
5/3/2022 10:30:00 PM 9.32 48.776 0.105 6.53 4.08 11.19
5/3/2022 10:45:00 PM 9.32 48.776 0.11 6.55 5.29 11.17
5/3/2022 11:00:00 PM 9.31 48.758 0.113 6.58 6.17 11.17
5/3/2022 11:15:00 PM 9.3 48.74 0.116 6.63 7.88 11.18
5/3/2022 11:30:00 PM 9.3 48.74 0.117 6.67 8.3 11.18
5/3/2022 11:45:00 PM 9.29 48.722 0.118 6.69 7.53 11.18
5/4/2022 12:00:00 AM 9.26 48.668 0.118 6.69 6.75 11.19
5/4/2022 12:15:00 AM 9.24 48.632 0.118 6.72 6.16 11.19
5/4/2022 12:30:00 AM 9.21 48.578 0.119 6.74 5.79 11.2
5/4/2022 12:45:00 AM 9.19 48.542 0.118 6.74 5.15 11.21
5/4/2022 1:00:00 AM 9.19 48.542 0.117 6.73 4.82 11.21
5/4/2022 1:15:00 AM 9.18 48.524 0.116 6.73 4.71 11.21
5/4/2022 1:30:00 AM 9.17 48.506 0.116 6.73 4.79 11.21
5/4/2022 1:45:00 AM 9.17 48.506 0.118 6.73 4.73 11.21
5/4/2022 2:00:00 AM 9.16 48.488 0.12 6.7 4.85 11.21
5/4/2022 2:15:00 AM 9.15 48.47 0.121 6.73 4.95 11.22
5/4/2022 2:30:00 AM 9.14 48.452 0.121 6.74 5.38 11.22
5/4/2022 2:45:00 AM 9.13 48.434 0.121 6.73 5.08 11.22
5/4/2022 3:00:00 AM 9.13 48.434 0.121 6.74 5.2 11.22
5/4/2022 3:15:00 AM 9.12 48.416 0.12 6.72 5.06 11.23
5/4/2022 3:30:00 AM 9.11 48.398 0.12 6.72 5.34 11.23
5/4/2022 3:45:00 AM 9.11 48.398 0.12 6.73 4.92 11.23
5/4/2022 4:00:00 AM 9.1 48.38 0.119 6.72 5.01 11.23
5/4/2022 4:15:00 AM 9.09 48.362 0.119 6.71 4.83 11.23
5/4/2022 4:30:00 AM 9.08 48.344 0.119 6.7 4.4 11.23
5/4/2022 4:45:00 AM 9.09 48.362 0.119 6.69 4.34 11.23
5/4/2022 5:00:00 AM 9.09 48.362 0.119 6.7 4.45 11.23
5/4/2022 5:15:00 AM 9.08 48.344 0.12 6.7 4.41 11.23
5/4/2022 5:30:00 AM 9.07 48.326 0.121 6.7 4.76 11.24
5/4/2022 5:45:00 AM 9.06 48.308 0.121 6.69 4.63 11.24
5/4/2022 6:00:00 AM 9.05 48.29 0.121 6.69 4.64 11.24
5/4/2022 6:15:00 AM 9.04 48.272 0.121 6.69 4.46 11.25
5/4/2022 6:30:00 AM 9.04 48.272 0.121 6.7 4.37 11.24
5/4/2022 6:45:00 AM 9.03 48.254 0.121 6.69 4.26 11.25
5/4/2022 7:00:00 AM 9.02 48.236 0.122 6.69 4.25 11.25
5/4/2022 7:15:00 AM 9.01 48.218 0.122 6.69 4.4 11.25
5/4/2022 7:30:00 AM 9.01 48.218 0.121 6.68 4.1 11.26
5/4/2022 7:45:00 AM 9.01 48.218 0.121 6.67 3.98 11.26
5/4/2022 8:00:00 AM 9.02 48.236 0.121 6.67 3.88 11.26
5/4/2022 8:15:00 AM 9.03 48.254 0.122 6.68 3.91 11.26
5/4/2022 8:30:00 AM 9.05 48.29 0.122 6.68 3.77 11.26
5/4/2022 8:45:00 AM 9.09 48.362 0.122 6.68 3.76 11.26
5/4/2022 9:00:00 AM 9.15 48.47 0.122 6.7 3.7 11.24
5/4/2022 9:15:00 AM 9.19 48.542 0.123 6.7 3.67 11.23
5/4/2022 9:30:00 AM 9.24 48.632 0.123 6.71 3.57 11.22
5/4/2022 9:45:00 AM 9.27 48.686 0.122 6.71 3.4 11.21
5/4/2022 10:00:00 AM 9.3 48.74 0.123 6.71 3.65 11.2
5/4/2022 10:15:00 AM 9.35 48.83 0.123 6.72 3.48 11.19
5/4/2022 10:30:00 AM 9.41 48.938 0.123 6.72 3.55 11.18
5/4/2022 10:45:00 AM 9.52 49.136 0.124 6.72 3.63 11.15
5/4/2022 11:00:00 AM 9.65 49.37 0.125 6.73 3.65 11.12
5/4/2022 11:15:00 AM 9.81 49.658 0.125 6.71 3.62 11.07
5/4/2022 11:30:00 AM 9.88 49.784 0.125 6.74 3.66 11.06
5/4/2022 11:45:00 AM 9.94 49.892 0.126 6.75 3.65 11.03
5/4/2022 12:00:00 PM 10.04 50.072 0.126 6.75 3.47 11.01
5/4/2022 12:15:00 PM 10.03 50.054 0.127 6.75 3.45 10.99
5/4/2022 12:30:00 PM 10 50 0.127 6.76 3.39 11.01
5/4/2022 12:45:00 PM 10.02 50.036 0.126 6.76 3.46 11.01
5/4/2022 1:00:00 PM 10.1 50.18 0.126 6.77 3.34 10.99
5/4/2022 1:15:00 PM 10.1 50.18 0.126 6.76 3.45 10.98
5/4/2022 1:30:00 PM 10.29 50.522 0.126 6.77 3.16 10.95
5/4/2022 1:45:00 PM 10.3 50.54 0.126 6.76 3.3 10.93
5/4/2022 2:00:00 PM 10.25 50.45 0.126 6.76 3.24 10.95
5/4/2022 2:15:00 PM 10.33 50.594 0.126 6.76 3.2 10.94
5/4/2022 2:30:00 PM 10.48 50.864 0.126 6.77 3.27 10.91
5/4/2022 2:45:00 PM 10.59 51.062 0.126 6.77 3.16 10.87
5/4/2022 3:00:00 PM 10.62 51.116 0.126 6.75 3.16 10.86
5/4/2022 3:15:00 PM 10.53 50.954 0.126 6.77 3.19 10.88
5/4/2022 3:30:00 PM 10.38 50.684 0.126 6.76 3.16 10.92
5/4/2022 3:45:00 PM 10.29 50.522 0.126 6.76 3.07 10.95
5/4/2022 4:00:00 PM 10.22 50.396 0.126 6.74 2.95 10.96
5/4/2022 4:15:00 PM 10.2 50.36 0.126 6.75 3.09 10.97
5/4/2022 4:30:00 PM 10.15 50.27 0.126 6.74 3 10.98
5/4/2022 4:45:00 PM 10.09 50.162 0.126 6.74 3.09 10.99
5/4/2022 5:00:00 PM 10.04 50.072 0.126 6.71 3.01 11.01
5/4/2022 5:15:00 PM 9.99 49.982 0.126 6.73 2.92 11.03
5/4/2022 5:30:00 PM 9.96 49.928 0.126 6.74 2.82 11.04
5/4/2022 5:45:00 PM 9.93 49.874 0.126 6.72 2.98 11.05
5/4/2022 6:00:00 PM 9.89 49.802 0.126 6.72 2.83 11.06
5/4/2022 6:15:00 PM 9.85 49.73 0.126 6.72 2.91 11.07
5/4/2022 6:30:00 PM 9.81 49.658 0.126 6.73 2.85 11.08
5/4/2022 6:45:00 PM 9.77 49.586 0.126 6.71 2.81 11.09
5/4/2022 7:00:00 PM 9.74 49.532 0.126 6.71 2.75 11.11
5/4/2022 7:15:00 PM 9.7 49.46 0.126 6.72 2.72 11.12
5/4/2022 7:30:00 PM 9.67 49.406 0.126 6.71 2.62 11.12
5/4/2022 7:45:00 PM 9.63 49.334 0.126 6.71 2.76 11.13
5/4/2022 8:00:00 PM 9.6 49.28 0.125 6.7 2.64 11.14
5/4/2022 8:15:00 PM 9.57 49.226 0.125 6.7 2.74 11.15
5/4/2022 8:30:00 PM 9.54 49.172 0.125 6.7 2.65 11.16
5/4/2022 8:45:00 PM 9.51 49.118 0.125 6.7 2.68 11.17
5/4/2022 9:00:00 PM 9.49 49.082 0.125 6.7 2.81 11.18
5/4/2022 9:15:00 PM 9.46 49.028 0.125 6.7 2.67 11.19
5/4/2022 9:30:00 PM 9.44 48.992 0.125 6.69 2.67 11.2
5/4/2022 9:45:00 PM 9.41 48.938 0.125 6.69 2.57 11.21
5/4/2022 10:00:00 PM 9.39 48.902 0.125 6.68 2.65 11.22
5/4/2022 10:15:00 PM 9.37 48.866 0.124 6.69 2.56 11.23
5/4/2022 10:30:00 PM 9.34 48.812 0.125 6.68 2.59 11.24
5/4/2022 10:45:00 PM 9.32 48.776 0.125 6.69 2.73 11.25
5/4/2022 11:00:00 PM 9.29 48.722 0.125 6.68 2.53 11.25
5/4/2022 11:15:00 PM 9.27 48.686 0.124 6.69 2.55 11.26
5/4/2022 11:30:00 PM 9.25 48.65 0.124 6.69 2.54 11.26
5/4/2022 11:45:00 PM 9.23 48.614 0.124 6.69 2.52 11.27
5/5/2022 12:00:00 AM 9.21 48.578 0.124 6.69 2.44 11.28
5/5/2022 12:15:00 AM 9.19 48.542 0.124 6.68 2.54 11.29
5/5/2022 12:30:00 AM 9.18 48.524 0.124 6.68 2.45 11.29
5/5/2022 12:45:00 AM 9.16 48.488 0.124 6.67 2.36 11.29
5/5/2022 1:00:00 AM 9.14 48.452 0.124 6.68 2.3 11.3
5/5/2022 1:15:00 AM 9.12 48.416 0.124 6.64 2.44 11.3
5/5/2022 1:30:00 AM 9.11 48.398 0.123 6.67 2.42 11.31
5/5/2022 1:45:00 AM 9.09 48.362 0.123 6.67 2.39 11.31
5/5/2022 2:00:00 AM 9.08 48.344 0.123 6.67 2.36 11.31
5/5/2022 2:15:00 AM 9.06 48.308 0.123 6.67 2.25 11.32
5/5/2022 2:30:00 AM 9.05 48.29 0.123 6.67 2.32 11.33
5/5/2022 2:45:00 AM 9.03 48.254 0.123 6.67 2.36 11.33
5/5/2022 3:00:00 AM 9.01 48.218 0.123 6.63 2.3 11.33
5/5/2022 3:15:00 AM 8.99 48.182 0.123 6.67 2.38 11.34
5/5/2022 3:30:00 AM 8.97 48.146 0.123 6.66 2.4 11.34
5/5/2022 3:45:00 AM 8.92 48.056 0.122 6.66 2.22 11.35
5/5/2022 4:00:00 AM 8.87 47.966 0.122 6.65 2.35 11.36
5/5/2022 4:15:00 AM 8.81 47.858 0.122 6.65 2.35 11.38
5/5/2022 4:30:00 AM 8.75 47.75 0.122 6.64 2.34 11.4
5/5/2022 4:45:00 AM 8.69 47.642 0.122 6.64 2.27 11.42
5/5/2022 5:00:00 AM 8.65 47.57 0.122 6.64 2.32 11.43
5/5/2022 5:15:00 AM 8.6 47.48 0.122 6.64 2.15 11.44
5/5/2022 5:30:00 AM 8.55 47.39 0.122 6.63 2.31 11.46
5/5/2022 5:45:00 AM 8.5 47.3 0.121 6.63 2.2 11.47
5/5/2022 6:00:00 AM 8.45 47.21 0.121 6.62 2.29 11.49
5/5/2022 6:15:00 AM 8.4 47.12 0.121 6.62 2.23 11.5
5/5/2022 6:30:00 AM 8.35 47.03 0.121 6.62 2.18 11.52
5/5/2022 6:45:00 AM 8.31 46.958 0.121 6.63 2.31 11.54
5/5/2022 7:00:00 AM 8.28 46.904 0.121 6.62 2.22 11.55
5/5/2022 7:15:00 AM 8.25 46.85 0.121 6.62 2.17 11.56
5/5/2022 7:30:00 AM 8.24 46.832 0.121 6.62 2.16 11.57
5/5/2022 7:45:00 AM 8.25 46.85 0.12 6.6 2.13 11.58
5/5/2022 8:00:00 AM 8.28 46.904 0.12 6.61 2.03 11.57
5/5/2022 8:15:00 AM 8.32 46.976 0.12 6.63 1.93 11.56
5/5/2022 8:30:00 AM 8.39 47.102 0.12 6.63 2.06 11.55
5/5/2022 8:45:00 AM 8.47 47.246 0.12 6.64 1.98 11.53
5/5/2022 9:00:00 AM 8.55 47.39 0.119 6.64 2.02 11.5
5/5/2022 9:15:00 AM 8.65 47.57 0.119 6.64 1.96 11.48
5/5/2022 9:30:00 AM 8.75 47.75 0.119 6.63 1.93 11.45
5/5/2022 9:45:00 AM 8.87 47.966 0.119 6.64 1.99 11.41
5/5/2022 10:00:00 AM 8.99 48.182 0.119 6.63 1.96 11.38
5/5/2022 10:15:00 AM 9.14 48.452 0.118 6.65 1.96 11.34
5/5/2022 10:30:00 AM 9.28 48.704 0.118 6.65 1.96 11.3
5/5/2022 10:45:00 AM 9.44 48.992 0.118 6.65 1.98 11.25
5/5/2022 11:00:00 AM 9.62 49.316 0.118 6.66 1.99 11.2
5/5/2022 11:15:00 AM 9.78 49.604 0.118 6.66 2.02 11.16
5/5/2022 11:30:00 AM 9.95 49.91 0.117 6.66 2.07 11.12
5/5/2022 11:45:00 AM 10.1 50.18 0.117 6.66 1.93 11.07
5/5/2022 12:00:00 PM 10.26 50.468 0.117 6.66 1.94 11.02
5/5/2022 12:15:00 PM 10.36 50.648 0.117 6.67 2.03 11
5/5/2022 12:30:00 PM 10.46 50.828 0.117 6.66 2.1 10.97
5/5/2022 12:45:00 PM 10.53 50.954 0.116 6.67 2.12 10.95
5/5/2022 1:00:00 PM 10.6 51.08 0.116 6.67 2.06 10.92
5/5/2022 1:15:00 PM 10.65 51.17 0.116 6.67 2.02 10.91
5/5/2022 1:30:00 PM 10.73 51.314 0.116 6.67 2.04 10.89
5/5/2022 1:45:00 PM 10.81 51.458 0.116 6.67 2.04 10.85
5/5/2022 2:00:00 PM 10.88 51.584 0.116 6.67 2.04 10.84
5/5/2022 2:15:00 PM 11 51.8 0.115 6.67 2.05 10.81
5/5/2022 2:30:00 PM 11.08 51.944 0.115 6.67 2.12 10.78
5/5/2022 2:45:00 PM 11.16 52.088 0.115 6.67 2.18 10.75
5/5/2022 3:00:00 PM 11.23 52.214 0.115 6.68 2.11 10.73
5/5/2022 3:15:00 PM 11.28 52.304 0.115 6.67 2.15 10.71
5/5/2022 3:30:00 PM 11.29 52.322 0.114 6.65 2.19 10.7
5/5/2022 3:45:00 PM 11.26 52.268 0.114 6.68 2.07 10.71
5/5/2022 4:00:00 PM 11.23 52.214 0.114 6.68 2.06 10.72
5/5/2022 4:15:00 PM 11.18 52.124 0.114 6.67 2.18 10.73
5/5/2022 4:30:00 PM 11.11 51.998 0.114 6.67 2.08 10.75
5/5/2022 4:45:00 PM 11.05 51.89 0.113 6.66 2.1 10.76
5/5/2022 5:00:00 PM 11.02 51.836 0.113 6.66 2.15 10.77
5/5/2022 5:15:00 PM 10.96 51.728 0.113 6.66 2.16 10.78
5/5/2022 5:30:00 PM 10.9 51.62 0.113 6.66 2.07 10.79
5/5/2022 5:45:00 PM 10.86 51.548 0.113 6.66 2.12 10.8
5/5/2022 6:00:00 PM 10.82 51.476 0.113 6.64 2.13 10.81
5/5/2022 6:15:00 PM 10.77 51.386 0.112 6.65 2.1 10.82
5/5/2022 6:30:00 PM 10.71 51.278 0.112 6.64 2.17 10.84
5/5/2022 6:45:00 PM 10.66 51.188 0.112 6.63 2.09 10.85
5/5/2022 7:00:00 PM 10.61 51.098 0.112 6.63 2.1 10.86
5/5/2022 7:15:00 PM 10.55 50.99 0.111 6.62 2.17 10.87
5/5/2022 7:30:00 PM 10.5 50.9 0.111 6.62 2.4 10.88
5/5/2022 7:45:00 PM 10.44 50.792 0.111 6.6 2.55 10.89
5/5/2022 8:00:00 PM 10.38 50.684 0.111 6.6 2.15 10.9
5/5/2022 8:15:00 PM 10.33 50.594 0.111 6.59 2.11 10.92
5/5/2022 8:30:00 PM 10.28 50.504 0.111 6.59 1.97 10.93
5/5/2022 8:45:00 PM 10.23 50.414 0.111 6.57 2 10.94
5/5/2022 9:00:00 PM 10.19 50.342 0.111 6.57 2.21 10.95
5/5/2022 9:15:00 PM 10.15 50.27 0.111 6.57 2.09 10.95
5/5/2022 9:30:00 PM 10.12 50.216 0.11 6.53 2.14 10.96
5/5/2022 9:45:00 PM 10.09 50.162 0.11 6.56 2.1 10.97
5/5/2022 10:00:00 PM 10.06 50.108 0.11 6.57 2.19 10.98
5/5/2022 10:15:00 PM 10.03 50.054 0.11 6.57 2.2 10.99
5/5/2022 10:30:00 PM 10 50 0.11 6.57 2.34 10.99
5/5/2022 10:45:00 PM 9.97 49.946 0.11 6.55 2.25 11.01
5/5/2022 11:00:00 PM 9.94 49.892 0.109 6.56 2.13 11.01
5/5/2022 11:15:00 PM 9.92 49.856 0.109 6.56 2.17 11.02
5/5/2022 11:30:00 PM 9.9 49.82 0.109 6.56 2.12 11.03
5/5/2022 11:45:00 PM 9.87 49.766 0.109 6.56 2.19 11.03
5/6/2022 12:00:00 AM 9.85 49.73 0.109 6.56 2.14 11.04
5/6/2022 12:15:00 AM 9.83 49.694 0.109 6.56 2.14 11.04
5/6/2022 12:30:00 AM 9.81 49.658 0.108 6.56 2.12 11.05
5/6/2022 12:45:00 AM 9.78 49.604 0.108 6.56 2.11 11.06
5/6/2022 1:00:00 AM 9.76 49.568 0.108 6.56 2.22 11.07
5/6/2022 1:15:00 AM 9.74 49.532 0.108 6.55 2.13 11.08
5/6/2022 1:30:00 AM 9.72 49.496 0.107 6.58 2.18 11.07
5/6/2022 1:45:00 AM 9.7 49.46 0.107 6.57 2.2 11.08
5/6/2022 2:00:00 AM 9.68 49.424 0.107 6.57 2.16 11.08
5/6/2022 2:15:00 AM 9.67 49.406 0.107 6.58 2.25 11.1
5/6/2022 2:30:00 AM 9.65 49.37 0.107 6.58 2.25 11.09
5/6/2022 2:45:00 AM 9.63 49.334 0.107 6.57 2.21 11.09
5/6/2022 3:00:00 AM 9.61 49.298 0.107 6.58 2.32 11.09
5/6/2022 3:15:00 AM 9.6 49.28 0.107 6.58 2.27 11.09
5/6/2022 3:30:00 AM 9.58 49.244 0.106 6.58 2.47 11.1
5/6/2022 3:45:00 AM 9.56 49.208 0.106 6.58 2.33 11.1
5/6/2022 4:00:00 AM 9.54 49.172 0.106 6.59 2.27 11.11
5/6/2022 4:15:00 AM 9.53 49.154 0.106 6.59 2.22 11.11
5/6/2022 4:30:00 AM 9.51 49.118 0.106 6.59 2.35 11.1
5/6/2022 4:45:00 AM 9.49 49.082 0.106 6.59 2.29 11.11
5/6/2022 5:00:00 AM 9.48 49.064 0.106 6.59 2.29 11.11
5/6/2022 5:15:00 AM 9.46 49.028 0.106 6.59 2.22 11.12
5/6/2022 5:30:00 AM 9.44 48.992 0.106 6.59 2.26 11.12
5/6/2022 5:45:00 AM 9.43 48.974 0.106 6.59 2.28 11.13
5/6/2022 6:00:00 AM 9.42 48.956 0.106 6.6 2.33 11.14
5/6/2022 6:15:00 AM 9.4 48.92 0.106 6.6 2.29 11.14
5/6/2022 6:30:00 AM 9.39 48.902 0.106 6.59 2.38 11.14
5/6/2022 6:45:00 AM 9.38 48.884 0.106 6.59 2.56 11.15
5/6/2022 7:00:00 AM 9.37 48.866 0.106 6.61 2.69 11.15
5/6/2022 7:15:00 AM 9.35 48.83 0.106 6.6 3.1 11.15
5/6/2022 7:30:00 AM 9.34 48.812 0.107 6.63 3.09 11.15
5/6/2022 7:45:00 AM 9.33 48.794 0.108 6.64 3.25 11.16
5/6/2022 8:00:00 AM 9.32 48.776 0.109 6.65 3.52 11.16
5/6/2022 8:15:00 AM 9.31 48.758 0.11 6.66 3.48 11.16
5/6/2022 8:30:00 AM 9.29 48.722 0.11 6.67 3.49 11.17
5/6/2022 8:45:00 AM 9.28 48.704 0.11 6.68 3.37 11.18
5/6/2022 9:00:00 AM 9.26 48.668 0.11 6.69 3.42 11.18
5/6/2022 9:15:00 AM 9.25 48.65 0.11 6.7 3.32 11.18
5/6/2022 9:30:00 AM 9.24 48.632 0.111 6.71 3.35 11.19
5/6/2022 9:45:00 AM 9.24 48.632 0.111 6.71 3.64 11.18
5/6/2022 10:00:00 AM 9.24 48.632 0.111 6.72 3.82 11.19
5/6/2022 10:15:00 AM 9.23 48.614 0.112 6.73 4.12 11.19
5/6/2022 10:30:00 AM 9.23 48.614 0.113 6.74 4.77 11.19
5/6/2022 10:45:00 AM 9.23 48.614 0.114 6.75 5.08 11.19
5/6/2022 11:00:00 AM 9.23 48.614 0.115 6.74 5.6 11.19
5/6/2022 11:15:00 AM 9.22 48.596 0.116 6.77 6.29 11.18
5/6/2022 11:30:00 AM 9.22 48.596 0.117 6.77 6.85 11.18
5/6/2022 11:45:00 AM 9.21 48.578 0.117 6.78 7.34 11.19
5/6/2022 12:00:00 PM 9.2 48.56 0.118 6.77 7.9 11.19
5/6/2022 12:15:00 PM 9.2 48.56 0.118 6.8 9.81 11.19
5/6/2022 12:30:00 PM 9.2 48.56 0.119 6.8 11.47 11.19
5/6/2022 12:45:00 PM 9.21 48.578 0.122 6.79 15.09 11.18
5/6/2022 1:00:00 PM 9.21 48.578 0.124 6.81 19.95 11.18
5/6/2022 1:15:00 PM 9.21 48.578 0.125 6.81 23.49 11.17
5/6/2022 1:30:00 PM 9.21 48.578 0.126 6.84 22.09 11.18
5/6/2022 1:45:00 PM 9.21 48.578 0.124 6.86 21.92 11.17
5/6/2022 2:00:00 PM 9.21 48.578 0.122 6.86 19.95 11.17
5/6/2022 2:15:00 PM 9.2 48.56 0.12 6.83 19.25 11.18
5/6/2022 2:30:00 PM 9.19 48.542 0.119 6.83 23.83 11.18
5/6/2022 2:45:00 PM 9.17 48.506 0.118 6.83 22.94 11.19
5/6/2022 3:00:00 PM 9.15 48.47 0.118 6.8 25.6 11.19
5/6/2022 3:15:00 PM 9.15 48.47 0.119 6.81 29.42 11.19
5/6/2022 3:30:00 PM 9.16 48.488 0.12 6.81 32.44 11.19
5/6/2022 3:45:00 PM 9.16 48.488 0.12 6.83 31.83 11.18
5/6/2022 4:00:00 PM 9.16 48.488 0.119 6.83 29.74 11.18
5/6/2022 4:15:00 PM 9.14 48.452 0.117 6.82 25.95 11.19
5/6/2022 4:30:00 PM 9.12 48.416 0.116 6.79 20.45 11.19
5/6/2022 4:45:00 PM 9.1 48.38 0.115 6.78 19.47 11.2
5/6/2022 5:00:00 PM 9.08 48.344 0.114 6.76 23.74 11.2
5/6/2022 5:15:00 PM 9.06 48.308 0.115 6.75 26.17 11.21
5/6/2022 5:30:00 PM 9.04 48.272 0.115 6.74 17.63 11.21
5/6/2022 5:45:00 PM 9.02 48.236 0.116 6.74 16.21 11.21
5/6/2022 6:00:00 PM 9.01 48.218 0.116 6.72 17.2 11.22
5/6/2022 6:15:00 PM 9 48.2 0.117 6.71 16.1 11.22
5/6/2022 6:30:00 PM 8.98 48.164 0.117 6.7 15.24 11.23
5/6/2022 6:45:00 PM 8.97 48.146 0.117 6.69 12.82 11.22
5/6/2022 7:00:00 PM 8.96 48.128 0.117 6.7 13.93 11.23
5/6/2022 7:15:00 PM 8.95 48.11 0.117 6.69 12.58 11.22
5/6/2022 7:30:00 PM 8.94 48.092 0.118 6.7 13.23 11.23
5/6/2022 7:45:00 PM 8.93 48.074 0.117 6.71 12.47 11.23
5/6/2022 8:00:00 PM 8.91 48.038 0.117 6.7 10.73 11.23
5/6/2022 8:15:00 PM 8.9 48.02 0.116 6.7 11.61 11.24
5/6/2022 8:30:00 PM 8.88 47.984 0.116 6.68 10.71 11.25
5/6/2022 8:45:00 PM 8.87 47.966 0.116 6.69 12.59 11.25
5/6/2022 9:00:00 PM 8.85 47.93 0.115 6.69 11.84 11.25
5/6/2022 9:15:00 PM 8.84 47.912 0.115 6.69 12.16 11.26
5/6/2022 9:30:00 PM 8.82 47.876 0.115 6.7 12.86 11.26
5/6/2022 9:45:00 PM 8.8 47.84 0.114 6.7 15.56 11.27
5/6/2022 10:00:00 PM 8.78 47.804 0.114 6.7 14.51 11.27
5/6/2022 10:15:00 PM 8.76 47.768 0.113 6.69 15.2 11.28
5/6/2022 10:30:00 PM 8.74 47.732 0.112 6.69 16.57 11.29
5/6/2022 10:45:00 PM 8.72 47.696 0.111 6.68 17.45 11.29
5/6/2022 11:00:00 PM 8.7 47.66 0.11 6.68 18.45 11.3
5/6/2022 11:15:00 PM 8.69 47.642 0.108 6.67 16.81 11.31
5/6/2022 11:30:00 PM 8.67 47.606 0.107 6.66 18.83 11.31
5/6/2022 11:45:00 PM 8.65 47.57 0.107 6.66 20.01 11.32
5/7/2022 12:00:00 AM 8.64 47.552 0.106 6.64 20.49 11.32
5/7/2022 12:15:00 AM 8.62 47.516 0.105 6.64 25.24 11.32
5/7/2022 12:30:00 AM 8.61 47.498 0.104 6.63 19.82 11.33
5/7/2022 12:45:00 AM 8.6 47.48 0.103 6.61 16.51 11.33
5/7/2022 1:00:00 AM 8.59 47.462 0.103 6.61 17.07 11.34
5/7/2022 1:15:00 AM 8.57 47.426 0.103 6.6 18.25 11.34
5/7/2022 1:30:00 AM 8.56 47.408 0.102 6.6 16.3 11.34
5/7/2022 1:45:00 AM 8.55 47.39 0.101 6.59 15.24 11.35
5/7/2022 2:00:00 AM 8.54 47.372 0.101 6.58 14.94 11.35
5/7/2022 2:15:00 AM 8.53 47.354 0.101 6.57 12.04 11.35
5/7/2022 2:30:00 AM 8.52 47.336 0.101 6.58 12.42 11.35
5/7/2022 2:45:00 AM 8.51 47.318 0.1 6.57 13.32 11.35
5/7/2022 3:00:00 AM 8.5 47.3 0.1 6.57 12.45 11.35
5/7/2022 3:15:00 AM 8.49 47.282 0.1 6.57 12.68 11.36
5/7/2022 3:30:00 AM 8.49 47.282 0.1 6.57 12 11.36
5/7/2022 3:45:00 AM 8.48 47.264 0.1 6.57 11.44 11.36
5/7/2022 4:00:00 AM 8.48 47.264 0.1 6.57 10.57 11.36
5/7/2022 4:15:00 AM 8.47 47.246 0.1 6.57 11.27 11.36
5/7/2022 4:30:00 AM 8.47 47.246 0.1 6.57 10.2 11.36
5/7/2022 4:45:00 AM 8.46 47.228 0.1 6.57 9.72 11.37
5/7/2022 5:00:00 AM 8.46 47.228 0.099 6.59 9.35 11.37
5/7/2022 5:15:00 AM 8.45 47.21 0.099 6.57 8.94 11.37
5/7/2022 5:30:00 AM 8.45 47.21 0.098 6.56 8.49 11.37
5/7/2022 5:45:00 AM 8.44 47.192 0.098 6.57 8.9 11.37
5/7/2022 6:00:00 AM 8.44 47.192 0.097 6.57 8.92 11.37
5/7/2022 6:15:00 AM 8.44 47.192 0.096 6.56 8.62 11.38
5/7/2022 6:30:00 AM 8.43 47.174 0.096 6.57 8.59 11.39
5/7/2022 6:45:00 AM 8.42 47.156 0.095 6.56 8.66 11.39
5/7/2022 7:00:00 AM 8.41 47.138 0.095 6.55 8.43 11.4
5/7/2022 7:15:00 AM 8.4 47.12 0.094 6.55 8.57 11.41
5/7/2022 7:30:00 AM 8.39 47.102 0.094 6.55 9.17 11.41
5/7/2022 7:45:00 AM 8.39 47.102 0.094 6.55 9.12 11.42
5/7/2022 8:00:00 AM 8.38 47.084 0.093 6.54 9.98 11.42
5/7/2022 8:15:00 AM 8.38 47.084 0.093 6.55 11.18 11.42
5/7/2022 8:30:00 AM 8.38 47.084 0.092 6.54 12.35 11.43
5/7/2022 8:45:00 AM 8.38 47.084 0.092 6.54 13.6 11.43
5/7/2022 9:00:00 AM 8.38 47.084 0.091 6.54 14.92 11.43
5/7/2022 9:15:00 AM 8.39 47.102 0.09 6.53 20.31 11.43
5/7/2022 9:30:00 AM 8.4 47.12 0.09 6.52 66.96 11.43
5/7/2022 9:45:00 AM 8.41 47.138 0.089 6.51 18.04 11.42
5/7/2022 10:00:00 AM 8.42 47.156 0.088 6.5 17.06 11.42
5/7/2022 10:15:00 AM 8.44 47.192 0.087 6.49 16.04 11.43
5/7/2022 10:30:00 AM 8.45 47.21 0.086 6.48 18.84 11.42
5/7/2022 10:45:00 AM